Darstellungsparameter: Aktuell verwendete Einstellungen:
Skalierung der Graphiken ... ?
xyx+y,   Skalierungsfaktor:      Skalierung: Modus: x, Faktor: 1
Darstellungszeitraum ... ?
Vom - - bis: - -   Zeitraum: 01.02.2019 - 31.07.2019
Min/Max/Avg-Anzeige ... ?
Zeige MMA aktuell
Zeige MMA Monat
Zeige MMA alles
Zeige --A aktuell
Zeige --A Monat
Zeige --A alles
Keine MMA-Anzeige
MMA:
Keine MMA-Graphiken
MMA-Basis: 01.02.2019 - 31.07.2019
Quicknavigation für Darstellung... ?
Tage:      1T, 2T, 3T, 5T -1T -2T -3T -5T +1T +2T +3T +5T
Wochen: 1W, 2W, 3W -1W -2W -3W +1W +2W +3W
Monate: 1M, 3M, 6M -1M -3M -6M +1M +3M +6M
Jahre:    1J, 3J, 5J, 10J -1J -3J -5J -10J +1J +3J +5J +10J
Nutze für die Darstellung ... ?
Originaldaten oder Mittelwerte auf ...
Stundenbasis Tagesbasis Wochenbasis
Monatsbasis Jahresbasis      Datenbasis: Original-Daten
Darstellen als:
Statistik (Auto) Statistik J:M      Darstellung:
Zur Graphik,    zurück zur Übersicht aller Sensoren.
 
Tabellarische Datenbersicht: ?
 
Sensor: Nr:Datum:Temp:Feuchte:Taupunkt:
Aussen-T/F 1 01-02-2019 00:00:00 -0.9 C 96 % -1.46 C
2 01-02-2019 00:05:00 -0.9 C 96 % -1.46 C
3 01-02-2019 00:10:00 -0.9 C 96 % -1.46 C
4 01-02-2019 00:15:00 -0.8 C 96 % -1.36 C
5 01-02-2019 00:20:00 -0.8 C 96 % -1.36 C
6 01-02-2019 00:25:00 -0.8 C 96 % -1.36 C
7 01-02-2019 00:30:00 -0.8 C 96 % -1.36 C
8 01-02-2019 00:35:00 -0.7 C 96 % -1.26 C
9 01-02-2019 00:40:00 -0.7 C 96 % -1.26 C
10 01-02-2019 00:45:00 -0.7 C 96 % -1.26 C
11 01-02-2019 00:50:00 -0.7 C 96 % -1.26 C
12 01-02-2019 00:55:00 -0.6 C 96 % -1.16 C
13 01-02-2019 01:00:00 -0.6 C 96 % -1.16 C
14 01-02-2019 01:05:00 -0.6 C 96 % -1.16 C
15 01-02-2019 01:10:00 -0.5 C 96 % -1.06 C
16 01-02-2019 01:15:00 -0.5 C 96 % -1.06 C
17 01-02-2019 01:20:00 -0.4 C 96 % -0.96 C
18 01-02-2019 01:25:00 -0.4 C 96 % -0.96 C
19 01-02-2019 01:30:00 -0.4 C 96 % -0.96 C
20 01-02-2019 01:35:00 -0.4 C 96 % -0.96 C
21 01-02-2019 01:40:00 -0.4 C 96 % -0.96 C
22 01-02-2019 01:45:00 -0.4 C 96 % -0.96 C
23 01-02-2019 01:50:00 -0.4 C 96 % -0.96 C
24 01-02-2019 01:55:00 -0.3 C 96 % -0.86 C
25 01-02-2019 02:00:00 -0.3 C 96 % -0.86 C
Sensor: Nr:Datum:Temp:Feuchte:Taupunkt:
Aussen-T/F 26 01-02-2019 02:05:00 -0.3 C 96 % -0.86 C
27 01-02-2019 02:10:00 -0.2 C 96 % -0.76 C
28 01-02-2019 02:15:00 -0.2 C 96 % -0.76 C
29 01-02-2019 02:20:00 -0.2 C 96 % -0.76 C
30 01-02-2019 02:25:00 -0.2 C 96 % -0.76 C
31 01-02-2019 02:30:00 -0.1 C 96 % -0.66 C
32 01-02-2019 02:35:00 -0.1 C 96 % -0.66 C
33 01-02-2019 02:40:00 -0.1 C 96 % -0.66 C
34 01-02-2019 02:45:00 0 C 96 % -0.56 C
35 01-02-2019 02:50:00 0.1 C 96 % -0.46 C
36 01-02-2019 02:55:00 0.1 C 96 % -0.46 C
37 01-02-2019 03:00:00 0.2 C 96 % -0.36 C
38 01-02-2019 03:05:00 0.3 C 96 % -0.26 C
39 01-02-2019 03:10:00 0.4 C 97 % -0.02 C
40 01-02-2019 03:15:00 0.4 C 97 % -0.02 C
41 01-02-2019 03:20:00 0.5 C 97 % 0.08 C
42 01-02-2019 03:25:00 0.6 C 97 % 0.18 C
43 01-02-2019 03:30:00 0.6 C 96 % 0.04 C
44 01-02-2019 03:35:00 0.7 C 97 % 0.28 C
45 01-02-2019 03:40:00 0.7 C 97 % 0.28 C
46 01-02-2019 03:45:00 0.8 C 97 % 0.38 C
47 01-02-2019 03:50:00 0.8 C 97 % 0.38 C
48 01-02-2019 03:55:00 0.9 C 97 % 0.48 C
49 01-02-2019 04:00:00 0.9 C 97 % 0.48 C
50 01-02-2019 04:05:00 0.9 C 97 % 0.48 C
Sensor: Nr:Datum:Temp:Feuchte:Taupunkt:
Aussen-T/F 51 01-02-2019 04:10:00 0.9 C 97 % 0.48 C
52 01-02-2019 04:15:00 1 C 96 % 0.44 C
53 01-02-2019 04:20:00 1.1 C 96 % 0.54 C
54 01-02-2019 04:25:00 1.1 C 96 % 0.54 C
55 01-02-2019 04:30:00 1.1 C 96 % 0.54 C
56 01-02-2019 04:35:00 1.2 C 96 % 0.63 C
57 01-02-2019 04:40:00 1.2 C 96 % 0.63 C
58 01-02-2019 04:45:00 1.2 C 96 % 0.63 C
59 01-02-2019 04:50:00 1.2 C 96 % 0.63 C
60 01-02-2019 04:55:00 1.2 C 96 % 0.63 C
61 01-02-2019 05:00:00 1.2 C 96 % 0.63 C
62 01-02-2019 05:05:00 1.2 C 95 % 0.49 C
63 01-02-2019 05:10:00 1.1 C 96 % 0.54 C
64 01-02-2019 05:15:00 1.2 C 96 % 0.63 C
65 01-02-2019 05:20:00 1.1 C 96 % 0.54 C
66 01-02-2019 05:25:00 1.2 C 96 % 0.63 C
67 01-02-2019 05:30:00 1.2 C 96 % 0.63 C
68 01-02-2019 05:35:00 1.2 C 96 % 0.63 C
69 01-02-2019 05:40:00 1.2 C 96 % 0.63 C
70 01-02-2019 05:45:00 1.2 C 96 % 0.63 C
71 01-02-2019 05:50:00 1.2 C 96 % 0.63 C
72 01-02-2019 05:55:00 1.2 C 96 % 0.63 C
73 01-02-2019 06:00:00 1.2 C 96 % 0.63 C
74 01-02-2019 06:05:00 1.2 C 96 % 0.63 C
75 01-02-2019 06:10:00 1.2 C 96 % 0.63 C
Sensor: Nr:Datum:Temp:Feuchte:Taupunkt:
Aussen-T/F 76 01-02-2019 06:15:00 1.2 C 96 % 0.63 C
77 01-02-2019 06:20:00 1.1 C 95 % 0.39 C
78 01-02-2019 06:25:00 1.1 C 95 % 0.39 C
79 01-02-2019 06:30:00 1.1 C 96 % 0.54 C
80 01-02-2019 06:35:00 1.1 C 96 % 0.54 C
81 01-02-2019 06:40:00 1.1 C 96 % 0.54 C
82 01-02-2019 06:45:00 1.1 C 96 % 0.54 C
83 01-02-2019 06:50:00 1.1 C 96 % 0.54 C
84 01-02-2019 06:55:00 1.1 C 96 % 0.54 C
85 01-02-2019 07:00:00 1.1 C 96 % 0.54 C
86 01-02-2019 07:05:00 1.1 C 96 % 0.54 C
87 01-02-2019 07:10:00 1.1 C 96 % 0.54 C
88 01-02-2019 07:15:00 1.1 C 96 % 0.54 C
89 01-02-2019 07:20:00 1.1 C 96 % 0.54 C
90 01-02-2019 07:25:00 1.2 C 96 % 0.63 C
91 01-02-2019 07:30:00 1.2 C 96 % 0.63 C
92 01-02-2019 07:35:00 1.2 C 96 % 0.63 C
93 01-02-2019 07:40:00 1.2 C 96 % 0.63 C
94 01-02-2019 07:45:00 1.3 C 96 % 0.73 C
95 01-02-2019 07:50:00 1.4 C 96 % 0.83 C
96 01-02-2019 07:55:00 1.4 C 96 % 0.83 C
97 01-02-2019 08:00:00 1.4 C 96 % 0.83 C
98 01-02-2019 08:05:00 1.3 C 96 % 0.73 C
99 01-02-2019 08:10:00 1.3 C 96 % 0.73 C
100 01-02-2019 08:15:00 1.3 C 96 % 0.73 C
Sensor: Nr:Datum:Temp:Feuchte:Taupunkt:
Aussen-T/F 101 01-02-2019 08:20:00 1.3 C 96 % 0.73 C
102 01-02-2019 08:25:00 1.3 C 96 % 0.73 C
103 01-02-2019 08:30:00 1.3 C 96 % 0.73 C
104 01-02-2019 08:35:00 1.2 C 96 % 0.63 C
105 01-02-2019 08:40:00 1.2 C 96 % 0.63 C
106 01-02-2019 08:45:00 1.2 C 96 % 0.63 C
107 01-02-2019 08:50:00 1.4 C 96 % 0.83 C
108 01-02-2019 08:55:00 1.6 C 97 % 1.18 C
109 01-02-2019 09:00:00 1.8 C 96 % 1.23 C
110 01-02-2019 09:05:00 1.8 C 96 % 1.23 C
111 01-02-2019 09:10:00 1.7 C 96 % 1.13 C
112 01-02-2019 09:15:00 1.7 C 96 % 1.13 C
113 01-02-2019 09:20:00 1.6 C 96 % 1.03 C
114 01-02-2019 09:25:00 1.5 C 96 % 0.93 C
115 01-02-2019 09:30:00 1.4 C 96 % 0.83 C
116 01-02-2019 09:35:00 1.4 C 96 % 0.83 C
117 01-02-2019 09:40:00 1.4 C 96 % 0.83 C
118 01-02-2019 09:45:00 1.3 C 96 % 0.73 C
119 01-02-2019 09:50:00 1.4 C 96 % 0.83 C
120 01-02-2019 09:55:00 1.5 C 96 % 0.93 C
121 01-02-2019 10:00:00 1.6 C 96 % 1.03 C
122 01-02-2019 10:05:00 1.8 C 96 % 1.23 C
123 01-02-2019 10:10:00 1.9 C 96 % 1.33 C
124 01-02-2019 10:15:00 2 C 96 % 1.43 C
125 01-02-2019 10:20:00 2.1 C 96 % 1.53 C
Sensor: Nr:Datum:Temp:Feuchte:Taupunkt:
Aussen-T/F 126 01-02-2019 10:25:00 2.2 C 96 % 1.63 C
127 01-02-2019 10:30:00 2.3 C 96 % 1.73 C
128 01-02-2019 10:35:00 2.4 C 96 % 1.83 C
129 01-02-2019 10:40:00 2.4 C 96 % 1.83 C
130 01-02-2019 10:45:00 2.6 C 96 % 2.03 C
131 01-02-2019 10:50:00 2.6 C 96 % 2.03 C
132 01-02-2019 10:55:00 2.7 C 96 % 2.13 C
133 01-02-2019 11:00:00 2.7 C 96 % 2.13 C
134 01-02-2019 11:05:00 2.8 C 96 % 2.23 C
135 01-02-2019 11:10:00 2.9 C 96 % 2.33 C
136 01-02-2019 11:15:00 3 C 95 % 2.28 C
137 01-02-2019 11:20:00 3.1 C 95 % 2.38 C
138 01-02-2019 11:25:00 3.1 C 95 % 2.38 C
139 01-02-2019 11:30:00 3.2 C 95 % 2.48 C
140 01-02-2019 11:35:00 3.3 C 95 % 2.58 C
141 01-02-2019 11:40:00 3.3 C 95 % 2.58 C
142 01-02-2019 11:45:00 3.4 C 94 % 2.53 C
143 01-02-2019 11:50:00 3.5 C 94 % 2.63 C
144 01-02-2019 11:55:00 3.6 C 94 % 2.73 C
145 01-02-2019 12:00:00 3.6 C 94 % 2.73 C
146 01-02-2019 12:05:00 3.7 C 94 % 2.83 C
147 01-02-2019 12:10:00 3.7 C 94 % 2.83 C
148 01-02-2019 12:15:00 3.7 C 93 % 2.68 C
149 01-02-2019 12:20:00 3.6 C 93 % 2.58 C
150 01-02-2019 12:25:00 3.4 C 93 % 2.38 C
Sensor: Nr:Datum:Temp:Feuchte:Taupunkt:
Aussen-T/F 151 01-02-2019 12:30:00 3.2 C 93 % 2.18 C
152 01-02-2019 12:35:00 3.1 C 93 % 2.08 C
153 01-02-2019 12:40:00 2.8 C 93 % 1.78 C
154 01-02-2019 12:45:00 2.7 C 93 % 1.68 C
155 01-02-2019 12:50:00 2.6 C 93 % 1.59 C
156 01-02-2019 12:55:00 2.6 C 94 % 1.73 C
157 01-02-2019 13:00:00 2.7 C 94 % 1.83 C
158 01-02-2019 13:05:00 2.8 C 95 % 2.08 C
159 01-02-2019 13:10:00 2.8 C 94 % 1.93 C
160 01-02-2019 13:15:00 2.8 C 94 % 1.93 C
161 01-02-2019 13:20:00 2.7 C 94 % 1.83 C
162 01-02-2019 13:25:00 2.6 C 94 % 1.73 C
163 01-02-2019 13:30:00 2.6 C 95 % 1.88 C
164 01-02-2019 13:35:00 2.8 C 95 % 2.08 C
165 01-02-2019 13:40:00 2.8 C 95 % 2.08 C
166 01-02-2019 13:45:00 2.8 C 94 % 1.93 C
167 01-02-2019 13:50:00 2.7 C 94 % 1.83 C
168 01-02-2019 13:55:00 2.7 C 94 % 1.83 C
169 01-02-2019 14:00:00 2.8 C 95 % 2.08 C
170 01-02-2019 14:05:00 2.8 C 95 % 2.08 C
171 01-02-2019 14:10:00 3.1 C 95 % 2.38 C
172 01-02-2019 14:15:00 3.3 C 96 % 2.72 C
173 01-02-2019 14:20:00 3.6 C 96 % 3.02 C
174 01-02-2019 14:25:00 3.8 C 96 % 3.22 C
175 01-02-2019 14:30:00 3.9 C 95 % 3.17 C
Sensor: Nr:Datum:Temp:Feuchte:Taupunkt:
Aussen-T/F 176 01-02-2019 14:35:00 3.8 C 94 % 2.93 C
177 01-02-2019 14:40:00 3.7 C 94 % 2.83 C
178 01-02-2019 14:45:00 3.7 C 94 % 2.83 C
179 01-02-2019 14:50:00 3.7 C 94 % 2.83 C
180 01-02-2019 14:55:00 3.7 C 94 % 2.83 C
181 01-02-2019 15:00:00 3.7 C 94 % 2.83 C
182 01-02-2019 15:05:00 3.5 C 93 % 2.48 C
183 01-02-2019 15:10:00 3.4 C 93 % 2.38 C
184 01-02-2019 15:15:00 3.3 C 94 % 2.43 C
185 01-02-2019 15:20:00 3.3 C 94 % 2.43 C
186 01-02-2019 15:25:00 3.2 C 94 % 2.33 C
187 01-02-2019 15:30:00 3.1 C 94 % 2.23 C
188 01-02-2019 15:35:00 3 C 94 % 2.13 C
189 01-02-2019 15:40:00 3 C 94 % 2.13 C
190 01-02-2019 15:45:00 3.1 C 94 % 2.23 C
191 01-02-2019 15:50:00 3.1 C 94 % 2.23 C
192 01-02-2019 15:55:00 3.1 C 95 % 2.38 C
193 01-02-2019 16:00:00 3.1 C 95 % 2.38 C
194 01-02-2019 16:05:00 3.1 C 95 % 2.38 C
195 01-02-2019 16:10:00 3.1 C 95 % 2.38 C
196 01-02-2019 16:15:00 3.1 C 95 % 2.38 C
197 01-02-2019 16:20:00 3 C 95 % 2.28 C
198 01-02-2019 16:25:00 2.9 C 95 % 2.18 C
199 01-02-2019 16:30:00 2.8 C 95 % 2.08 C
200 01-02-2019 16:35:00 2.7 C 94 % 1.83 C
Sensor: Nr:Datum:Temp:Feuchte:Taupunkt:
Aussen-T/F 201 01-02-2019 16:40:00 2.7 C 95 % 1.98 C
202 01-02-2019 16:45:00 2.7 C 95 % 1.98 C
203 01-02-2019 16:50:00 2.6 C 95 % 1.88 C
204 01-02-2019 16:55:00 2.6 C 95 % 1.88 C
205 01-02-2019 17:00:00 2.5 C 95 % 1.78 C
206 01-02-2019 17:05:00 2.6 C 95 % 1.88 C
207 01-02-2019 17:10:00 2.6 C 95 % 1.88 C
208 01-02-2019 17:15:00 2.6 C 95 % 1.88 C
209 01-02-2019 17:20:00 2.6 C 95 % 1.88 C
210 01-02-2019 17:25:00 2.5 C 95 % 1.78 C
211 01-02-2019 17:30:00 2.5 C 95 % 1.78 C
212 01-02-2019 17:35:00 2.5 C 96 % 1.93 C
213 01-02-2019 17:40:00 2.5 C 96 % 1.93 C
214 01-02-2019 17:45:00 2.6 C 96 % 2.03 C
215 01-02-2019 17:50:00 2.5 C 96 % 1.93 C
216 01-02-2019 17:55:00 2.5 C 96 % 1.93 C
217 01-02-2019 18:00:00 2.5 C 96 % 1.93 C
218 01-02-2019 18:05:00 2.5 C 96 % 1.93 C
219 01-02-2019 18:10:00 2.6 C 96 % 2.03 C
220 01-02-2019 18:15:00 2.6 C 96 % 2.03 C
221 01-02-2019 18:20:00 2.5 C 96 % 1.93 C
222 01-02-2019 18:25:00 2.5 C 96 % 1.93 C
223 01-02-2019 18:30:00 2.4 C 96 % 1.83 C
224 01-02-2019 18:35:00 2.4 C 96 % 1.83 C
225 01-02-2019 18:40:00 2.4 C 96 % 1.83 C
Sensor: Nr:Datum:Temp:Feuchte:Taupunkt:
Aussen-T/F 226 01-02-2019 18:45:00 2.4 C 96 % 1.83 C
227 01-02-2019 18:50:00 2.4 C 96 % 1.83 C
228 01-02-2019 18:55:00 2.4 C 96 % 1.83 C
229 01-02-2019 19:00:00 2.4 C 96 % 1.83 C
230 01-02-2019 19:05:00 2.4 C 96 % 1.83 C
231 01-02-2019 19:10:00 2.3 C 96 % 1.73 C
232 01-02-2019 19:15:00 2.3 C 96 % 1.73 C
233 01-02-2019 19:20:00 2.3 C 96 % 1.73 C
234 01-02-2019 19:25:00 2.3 C 96 % 1.73 C
235 01-02-2019 19:30:00 2.2 C 96 % 1.63 C
236 01-02-2019 19:35:00 2.2 C 96 % 1.63 C
237 01-02-2019 19:40:00 2.2 C 96 % 1.63 C
238 01-02-2019 19:45:00 2.1 C 96 % 1.53 C
239 01-02-2019 19:50:00 2.1 C 96 % 1.53 C
240 01-02-2019 19:55:00 2.1 C 96 % 1.53 C
241 01-02-2019 20:00:00 2.1 C 96 % 1.53 C
242 01-02-2019 20:05:00 2.1 C 96 % 1.53 C
243 01-02-2019 20:10:00 2 C 96 % 1.43 C
244 01-02-2019 20:15:00 2 C 96 % 1.43 C
245 01-02-2019 20:20:00 1.9 C 96 % 1.33 C
246 01-02-2019 20:25:00 2 C 96 % 1.43 C
247 01-02-2019 20:30:00 2 C 96 % 1.43 C
248 01-02-2019 20:35:00 2.1 C 96 % 1.53 C
249 01-02-2019 20:40:00 2.1 C 96 % 1.53 C
250 01-02-2019 20:45:00 2 C 96 % 1.43 C
Sensor: Nr:Datum:Temp:Feuchte:Taupunkt:
Aussen-T/F 251 01-02-2019 20:50:00 2 C 96 % 1.43 C
252 01-02-2019 20:55:00 1.9 C 96 % 1.33 C
253 01-02-2019 21:00:00 1.9 C 96 % 1.33 C
254 01-02-2019 21:05:00 1.9 C 96 % 1.33 C
255 01-02-2019 21:10:00 1.9 C 96 % 1.33 C
256 01-02-2019 21:15:00 1.9 C 96 % 1.33 C
257 01-02-2019 21:20:00 1.9 C 96 % 1.33 C
258 01-02-2019 21:25:00 1.8 C 96 % 1.23 C
259 01-02-2019 21:30:00 1.8 C 96 % 1.23 C
260 01-02-2019 21:35:00 1.8 C 96 % 1.23 C
261 01-02-2019 21:40:00 1.7 C 96 % 1.13 C
262 01-02-2019 21:45:00 1.7 C 96 % 1.13 C
263 01-02-2019 21:50:00 1.7 C 96 % 1.13 C
264 01-02-2019 21:55:00 1.7 C 96 % 1.13 C
265 01-02-2019 22:00:00 1.7 C 96 % 1.13 C
266 01-02-2019 22:05:00 1.7 C 96 % 1.13 C
267 01-02-2019 22:10:00 1.7 C 96 % 1.13 C
268 01-02-2019 22:15:00 1.8 C 96 % 1.23 C
269 01-02-2019 22:20:00 1.7 C 96 % 1.13 C
270 01-02-2019 22:25:00 1.7 C 96 % 1.13 C
271 01-02-2019 22:30:00 1.7 C 96 % 1.13 C
272 01-02-2019 22:35:00 1.7 C 96 % 1.13 C
273 01-02-2019 22:40:00 1.6 C 96 % 1.03 C
274 01-02-2019 22:45:00 1.6 C 96 % 1.03 C
275 01-02-2019 22:50:00 1.6 C 96 % 1.03 C
Sensor: Nr:Datum:Temp:Feuchte:Taupunkt:
Aussen-T/F 276 01-02-2019 22:55:00 1.6 C 96 % 1.03 C
277 01-02-2019 23:00:00 1.5 C 96 % 0.93 C
278 01-02-2019 23:05:00 1.5 C 96 % 0.93 C
279 01-02-2019 23:10:00 1.5 C 96 % 0.93 C
280 01-02-2019 23:15:00 1.5 C 97 % 1.08 C
281 01-02-2019 23:20:00 1.6 C 97 % 1.18 C
282 01-02-2019 23:25:00 1.6 C 97 % 1.18 C
283 01-02-2019 23:30:00 1.6 C 97 % 1.18 C
284 01-02-2019 23:35:00 1.6 C 97 % 1.18 C
285 01-02-2019 23:40:00 1.6 C 97 % 1.18 C
286 01-02-2019 23:45:00 1.7 C 97 % 1.28 C
287 01-02-2019 23:50:00 1.7 C 97 % 1.28 C
288 01-02-2019 23:55:00 1.7 C 97 % 1.28 C
289 02-02-2019 00:00:00 1.7 C 97 % 1.28 C
290 02-02-2019 00:05:00 1.7 C 97 % 1.28 C
291 02-02-2019 00:10:00 1.7 C 97 % 1.28 C
292 02-02-2019 00:15:00 1.7 C 97 % 1.28 C
293 02-02-2019 00:20:00 1.7 C 97 % 1.28 C
294 02-02-2019 00:25:00 1.7 C 97 % 1.28 C
295 02-02-2019 00:30:00 1.7 C 97 % 1.28 C
296 02-02-2019 00:35:00 1.8 C 97 % 1.38 C
297 02-02-2019 00:40:00 1.8 C 97 % 1.38 C
298 02-02-2019 00:45:00 1.8 C 97 % 1.38 C
299 02-02-2019 00:50:00 1.8 C 97 % 1.38 C
300 02-02-2019 00:55:00 1.8 C 97 % 1.38 C
Sensor: Nr:Datum:Temp:Feuchte:Taupunkt:
Aussen-T/F 301 02-02-2019 01:00:00 1.8 C 97 % 1.38 C
302 02-02-2019 01:05:00 1.8 C 97 % 1.38 C
303 02-02-2019 01:10:00 1.8 C 97 % 1.38 C
304 02-02-2019 01:15:00 1.8 C 97 % 1.38 C
305 02-02-2019 01:20:00 1.8 C 97 % 1.38 C
306 02-02-2019 01:25:00 1.8 C 97 % 1.38 C
307 02-02-2019 01:30:00 1.8 C 97 % 1.38 C
308 02-02-2019 01:35:00 1.8 C 97 % 1.38 C
309 02-02-2019 01:40:00 1.8 C 97 % 1.38 C
310 02-02-2019 01:45:00 1.9 C 97 % 1.48 C
311 02-02-2019 01:50:00 1.9 C 97 % 1.48 C
312 02-02-2019 01:55:00 1.9 C 97 % 1.48 C
313 02-02-2019 02:00:00 1.9 C 97 % 1.48 C
314 02-02-2019 02:05:00 1.9 C 97 % 1.48 C
315 02-02-2019 02:10:00 1.9 C 97 % 1.48 C
316 02-02-2019 02:15:00 1.8 C 97 % 1.38 C
317 02-02-2019 02:20:00 1.8 C 97 % 1.38 C
318 02-02-2019 02:25:00 1.8 C 97 % 1.38 C
319 02-02-2019 02:30:00 1.8 C 97 % 1.38 C
320 02-02-2019 02:35:00 1.8 C 97 % 1.38 C
321 02-02-2019 02:40:00 1.8 C 97 % 1.38 C
322 02-02-2019 02:45:00 1.8 C 97 % 1.38 C
323 02-02-2019 02:50:00 1.8 C 97 % 1.38 C
324 02-02-2019 02:55:00 1.8 C 97 % 1.38 C
325 02-02-2019 03:00:00 1.8 C 97 % 1.38 C
Sensor: Nr:Datum:Temp:Feuchte:Taupunkt:
Aussen-T/F 326 02-02-2019 03:05:00 1.8 C 97 % 1.38 C
327 02-02-2019 03:10:00 1.7 C 97 % 1.28 C
328 02-02-2019 03:15:00 1.7 C 97 % 1.28 C
329 02-02-2019 03:20:00 1.7 C 97 % 1.28 C
330 02-02-2019 03:25:00 1.7 C 97 % 1.28 C
331 02-02-2019 03:30:00 1.7 C 97 % 1.28 C
332 02-02-2019 03:35:00 1.7 C 97 % 1.28 C
333 02-02-2019 03:40:00 1.7 C 97 % 1.28 C
334 02-02-2019 03:45:00 1.8 C 97 % 1.38 C
335 02-02-2019 03:50:00 1.9 C 97 % 1.48 C
336 02-02-2019 03:55:00 1.9 C 97 % 1.48 C
337 02-02-2019 04:00:00 1.9 C 97 % 1.48 C
338 02-02-2019 04:05:00 1.9 C 97 % 1.48 C
339 02-02-2019 04:10:00 1.8 C 97 % 1.38 C
340 02-02-2019 04:15:00 1.8 C 97 % 1.38 C
341 02-02-2019 04:20:00 1.8 C 97 % 1.38 C
342 02-02-2019 04:25:00 1.8 C 97 % 1.38 C
343 02-02-2019 04:30:00 1.8 C 97 % 1.38 C
344 02-02-2019 04:35:00 1.8 C 97 % 1.38 C
345 02-02-2019 04:40:00 1.8 C 97 % 1.38 C
346 02-02-2019 04:45:00 1.8 C 97 % 1.38 C
347 02-02-2019 04:50:00 1.8 C 97 % 1.38 C
348 02-02-2019 04:55:00 1.8 C 97 % 1.38 C
349 02-02-2019 05:00:00 1.7 C 97 % 1.28 C
350 02-02-2019 05:05:00 1.7 C 97 % 1.28 C
Sensor: Nr:Datum:Temp:Feuchte:Taupunkt:
Aussen-T/F 351 02-02-2019 05:10:00 1.7 C 97 % 1.28 C
352 02-02-2019 05:15:00 1.7 C 97 % 1.28 C
353 02-02-2019 05:20:00 1.7 C 97 % 1.28 C
354 02-02-2019 05:25:00 1.7 C 97 % 1.28 C
355 02-02-2019 05:30:00 1.7 C 97 % 1.28 C
356 02-02-2019 05:35:00 1.7 C 97 % 1.28 C
357 02-02-2019 05:40:00 1.7 C 97 % 1.28 C
358 02-02-2019 05:45:00 1.7 C 97 % 1.28 C
359 02-02-2019 05:50:00 1.7 C 97 % 1.28 C
360 02-02-2019 05:55:00 1.8 C 97 % 1.38 C
361 02-02-2019 06:00:00 1.8 C 97 % 1.38 C
362 02-02-2019 06:05:00 1.8 C 97 % 1.38 C
363 02-02-2019 06:10:00 1.8 C 97 % 1.38 C
364 02-02-2019 06:15:00 1.7 C 97 % 1.28 C
365 02-02-2019 06:20:00 1.7 C 97 % 1.28 C
366 02-02-2019 06:25:00 1.7 C 97 % 1.28 C
367 02-02-2019 06:30:00 1.7 C 97 % 1.28 C
368 02-02-2019 06:35:00 1.7 C 97 % 1.28 C
369 02-02-2019 06:40:00 1.7 C 97 % 1.28 C
370 02-02-2019 06:45:00 1.7 C 97 % 1.28 C
371 02-02-2019 06:50:00 1.7 C 97 % 1.28 C
372 02-02-2019 06:55:00 1.7 C 97 % 1.28 C
373 02-02-2019 07:00:00 1.7 C 97 % 1.28 C
374 02-02-2019 07:05:00 1.7 C 97 % 1.28 C
375 02-02-2019 07:10:00 1.7 C 97 % 1.28 C
Sensor: Nr:Datum:Temp:Feuchte:Taupunkt:
Aussen-T/F 376 02-02-2019 07:15:00 1.7 C 97 % 1.28 C
377 02-02-2019 07:20:00 1.7 C 97 % 1.28 C
378 02-02-2019 07:25:00 1.8 C 97 % 1.38 C
379 02-02-2019 07:30:00 1.7 C 97 % 1.28 C
380 02-02-2019 07:35:00 1.8 C 97 % 1.38 C
381 02-02-2019 07:40:00 1.7 C 97 % 1.28 C
382 02-02-2019 07:45:00 1.7 C 97 % 1.28 C
383 02-02-2019 07:50:00 1.8 C 97 % 1.38 C
384 02-02-2019 07:55:00 1.8 C 97 % 1.38 C
385 02-02-2019 08:00:00 1.8 C 97 % 1.38 C
386 02-02-2019 08:05:00 1.8 C 97 % 1.38 C
387 02-02-2019 08:10:00 1.8 C 97 % 1.38 C
388 02-02-2019 08:15:00 1.8 C 97 % 1.38 C
389 02-02-2019 08:20:00 1.8 C 97 % 1.38 C
390 02-02-2019 08:25:00 1.8 C 97 % 1.38 C
391 02-02-2019 08:30:00 1.8 C 97 % 1.38 C
392 02-02-2019 08:35:00 1.8 C 97 % 1.38 C
393 02-02-2019 08:40:00 1.8 C 97 % 1.38 C
394 02-02-2019 08:45:00 1.8 C 97 % 1.38 C
395 02-02-2019 08:50:00 1.8 C 97 % 1.38 C
396 02-02-2019 08:55:00 1.8 C 97 % 1.38 C
397 02-02-2019 09:00:00 1.8 C 97 % 1.38 C
398 02-02-2019 09:05:00 1.9 C 97 % 1.48 C
399 02-02-2019 09:10:00 1.9 C 97 % 1.48 C
400 02-02-2019 09:15:00 1.9 C 97 % 1.48 C
Sensor: Nr:Datum:Temp:Feuchte:Taupunkt:
Aussen-T/F 401 02-02-2019 09:20:00 2 C 97 % 1.58 C
402 02-02-2019 09:25:00 2.1 C 97 % 1.67 C
403 02-02-2019 09:30:00 2.1 C 97 % 1.67 C
404 02-02-2019 09:35:00 2.2 C 97 % 1.77 C
405 02-02-2019 09:40:00 2.2 C 97 % 1.77 C
406 02-02-2019 09:45:00 2.3 C 97 % 1.87 C
407 02-02-2019 09:50:00 2.3 C 97 % 1.87 C
408 02-02-2019 09:55:00 2.4 C 97 % 1.97 C
409 02-02-2019 10:00:00 2.5 C 98 % 2.22 C
410 02-02-2019 10:05:00 2.6 C 98 % 2.32 C
411 02-02-2019 10:10:00 2.6 C 97 % 2.17 C
412 02-02-2019 10:15:00 2.7 C 97 % 2.27 C
413 02-02-2019 10:20:00 2.7 C 98 % 2.42 C
414 02-02-2019 10:25:00 2.7 C 98 % 2.42 C
415 02-02-2019 10:30:00 2.8 C 98 % 2.52 C
416 02-02-2019 10:35:00 2.8 C 98 % 2.52 C
417 02-02-2019 10:40:00 2.8 C 97 % 2.37 C
418 02-02-2019 10:45:00 2.8 C 97 % 2.37 C
419 02-02-2019 10:50:00 2.8 C 97 % 2.37 C
420 02-02-2019 10:55:00 2.8 C 97 % 2.37 C
421 02-02-2019 11:00:00 2.9 C 97 % 2.47 C
422 02-02-2019 11:05:00 2.9 C 97 % 2.47 C
423 02-02-2019 11:10:00 3 C 97 % 2.57 C
424 02-02-2019 11:15:00 3 C 97 % 2.57 C
425 02-02-2019 11:20:00 3.1 C 97 % 2.67 C
Sensor: Nr:Datum:Temp:Feuchte:Taupunkt:
Aussen-T/F 426 02-02-2019 11:25:00 3.1 C 97 % 2.67 C
427 02-02-2019 11:30:00 3.1 C 97 % 2.67 C
428 02-02-2019 11:35:00 3.1 C 97 % 2.67 C
429 02-02-2019 11:40:00 3.1 C 97 % 2.67 C
430 02-02-2019 11:45:00 3.1 C 97 % 2.67 C
431 02-02-2019 11:50:00 3.1 C 97 % 2.67 C
432 02-02-2019 11:55:00 3.1 C 97 % 2.67 C
433 02-02-2019 12:00:00 3.1 C 97 % 2.67 C
434 02-02-2019 12:05:00 3.2 C 97 % 2.77 C
435 02-02-2019 12:10:00 3.2 C 97 % 2.77 C
436 02-02-2019 12:15:00 3.2 C 97 % 2.77 C
437 02-02-2019 12:20:00 3.3 C 97 % 2.87 C
438 02-02-2019 12:25:00 3.3 C 97 % 2.87 C
439 02-02-2019 12:30:00 3.3 C 97 % 2.87 C
440 02-02-2019 12:35:00 3.4 C 97 % 2.97 C
441 02-02-2019 12:40:00 3.4 C 97 % 2.97 C
442 02-02-2019 12:45:00 3.4 C 97 % 2.97 C
443 02-02-2019 12:50:00 3.5 C 97 % 3.07 C
444 02-02-2019 12:55:00 3.5 C 97 % 3.07 C
445 02-02-2019 13:00:00 3.5 C 97 % 3.07 C
446 02-02-2019 13:05:00 3.4 C 97 % 2.97 C
447 02-02-2019 13:10:00 3.5 C 97 % 3.07 C
448 02-02-2019 13:15:00 3.6 C 97 % 3.17 C
449 02-02-2019 13:20:00 3.7 C 97 % 3.27 C
450 02-02-2019 13:25:00 3.7 C 97 % 3.27 C
Sensor: Nr:Datum:Temp:Feuchte:Taupunkt:
Aussen-T/F 451 02-02-2019 13:30:00 3.8 C 97 % 3.37 C
452 02-02-2019 13:35:00 3.7 C 97 % 3.27 C
453 02-02-2019 13:40:00 3.8 C 97 % 3.37 C
454 02-02-2019 13:45:00 3.8 C 97 % 3.37 C
455 02-02-2019 13:50:00 3.8 C 97 % 3.37 C
456 02-02-2019 13:55:00 3.8 C 97 % 3.37 C
457 02-02-2019 14:00:00 3.8 C 97 % 3.37 C
458 02-02-2019 14:05:00 3.8 C 97 % 3.37 C
459 02-02-2019 14:10:00 3.8 C 97 % 3.37 C
460 02-02-2019 14:15:00 3.8 C 97 % 3.37 C
461 02-02-2019 14:20:00 3.8 C 97 % 3.37 C
462 02-02-2019 14:25:00 3.8 C 97 % 3.37 C
463 02-02-2019 14:30:00 3.7 C 97 % 3.27 C
464 02-02-2019 14:35:00 3.7 C 97 % 3.27 C
465 02-02-2019 14:40:00 3.7 C 97 % 3.27 C
466 02-02-2019 14:45:00 3.6 C 97 % 3.17 C
467 02-02-2019 14:50:00 3.6 C 97 % 3.17 C
468 02-02-2019 14:55:00 3.6 C 97 % 3.17 C
469 02-02-2019 15:00:00 3.6 C 97 % 3.17 C
470 02-02-2019 15:05:00 3.7 C 97 % 3.27 C
471 02-02-2019 15:10:00 3.8 C 97 % 3.37 C
472 02-02-2019 15:15:00 3.8 C 97 % 3.37 C
473 02-02-2019 15:20:00 3.9 C 97 % 3.47 C
474 02-02-2019 15:25:00 4 C 97 % 3.57 C
475 02-02-2019 15:30:00 4 C 97 % 3.57 C
Sensor: Nr:Datum:Temp:Feuchte:Taupunkt:
Aussen-T/F 476 02-02-2019 15:35:00 4.1 C 97 % 3.67 C
477 02-02-2019 15:40:00 4.1 C 97 % 3.67 C
478 02-02-2019 15:45:00 4 C 97 % 3.57 C
479 02-02-2019 15:50:00 4 C 97 % 3.57 C
480 02-02-2019 15:55:00 3.9 C 97 % 3.47 C
481 02-02-2019 16:00:00 3.9 C 97 % 3.47 C
482 02-02-2019 16:05:00 3.8 C 97 % 3.37 C
483 02-02-2019 16:10:00 3.8 C 97 % 3.37 C
484 02-02-2019 16:15:00 3.7 C 97 % 3.27 C
485 02-02-2019 16:20:00 3.7 C 97 % 3.27 C
486 02-02-2019 16:25:00 3.7 C 97 % 3.27 C
487 02-02-2019 16:30:00 3.7 C 97 % 3.27 C
488 02-02-2019 16:35:00 3.7 C 97 % 3.27 C
489 02-02-2019 16:40:00 3.6 C 97 % 3.17 C
490 02-02-2019 16:45:00 3.6 C 97 % 3.17 C
491 02-02-2019 16:50:00 3.5 C 97 % 3.07 C
492 02-02-2019 16:55:00 3.4 C 97 % 2.97 C
493 02-02-2019 17:00:00 3.3 C 97 % 2.87 C
494 02-02-2019 17:05:00 3.3 C 97 % 2.87 C
495 02-02-2019 17:10:00 3.2 C 97 % 2.77 C
496 02-02-2019 17:15:00 3.2 C 97 % 2.77 C
497 02-02-2019 17:20:00 3.2 C 97 % 2.77 C
498 02-02-2019 17:25:00 3.2 C 97 % 2.77 C
499 02-02-2019 17:30:00 3.2 C 97 % 2.77 C
500 02-02-2019 17:35:00 3.1 C 97 % 2.67 C
Sensor: Nr:Datum:Temp:Feuchte:Taupunkt:
Aussen-T/F 501 02-02-2019 17:40:00 3.2 C 97 % 2.77 C
502 02-02-2019 17:45:00 3.3 C 97 % 2.87 C
503 02-02-2019 17:50:00 3.4 C 97 % 2.97 C
504 02-02-2019 17:55:00 3.4 C 97 % 2.97 C
505 02-02-2019 18:00:00 3.4 C 97 % 2.97 C
506 02-02-2019 18:05:00 3.4 C 97 % 2.97 C
507 02-02-2019 18:10:00 3.3 C 97 % 2.87 C
508 02-02-2019 18:15:00 3.3 C 97 % 2.87 C
509 02-02-2019 18:20:00 3.2 C 97 % 2.77 C
510 02-02-2019 18:25:00 3.2 C 97 % 2.77 C
511 02-02-2019 18:30:00 3.2 C 97 % 2.77 C
512 02-02-2019 18:35:00 3.1 C 97 % 2.67 C
513 02-02-2019 18:40:00 3.1 C 97 % 2.67 C
514 02-02-2019 18:45:00 3 C 97 % 2.57 C
515 02-02-2019 18:50:00 2.9 C 97 % 2.47 C
516 02-02-2019 18:55:00 2.8 C 97 % 2.37 C
517 02-02-2019 19:00:00 2.8 C 96 % 2.23 C
518 02-02-2019 19:05:00 2.8 C 97 % 2.37 C
519 02-02-2019 19:10:00 2.7 C 96 % 2.13 C
520 02-02-2019 19:15:00 2.7 C 96 % 2.13 C
521 02-02-2019 19:20:00 2.7 C 97 % 2.27 C
522 02-02-2019 19:25:00 2.6 C 97 % 2.17 C
523 02-02-2019 19:30:00 2.6 C 97 % 2.17 C
524 02-02-2019 19:35:00 2.6 C 96 % 2.03 C
525 02-02-2019 19:40:00 2.6 C 97 % 2.17 C
Sensor: Nr:Datum:Temp:Feuchte:Taupunkt:
Aussen-T/F 526 02-02-2019 19:45:00 2.5 C 97 % 2.07 C
527 02-02-2019 19:50:00 2.5 C 97 % 2.07 C
528 02-02-2019 19:55:00 2.4 C 97 % 1.97 C
529 02-02-2019 20:00:00 2.4 C 97 % 1.97 C
530 02-02-2019 20:05:00 2.4 C 97 % 1.97 C
531 02-02-2019 20:10:00 2.4 C 96 % 1.83 C
532 02-02-2019 20:15:00 2.3 C 96 % 1.73 C
533 02-02-2019 20:20:00 2.3 C 96 % 1.73 C
534 02-02-2019 20:25:00 2.3 C 96 % 1.73 C
535 02-02-2019 20:30:00 2.3 C 96 % 1.73 C
536 02-02-2019 20:35:00 2.3 C 96 % 1.73 C
537 02-02-2019 20:40:00 2.3 C 96 % 1.73 C
538 02-02-2019 20:45:00 2.3 C 96 % 1.73 C
539 02-02-2019 20:50:00 2.2 C 96 % 1.63 C
540 02-02-2019 20:55:00 2.2 C 96 % 1.63 C
541 02-02-2019 21:00:00 2.2 C 96 % 1.63 C
542 02-02-2019 21:05:00 2.2 C 96 % 1.63 C
543 02-02-2019 21:10:00 2.2 C 96 % 1.63 C
544 02-02-2019 21:15:00 2.1 C 96 % 1.53 C
545 02-02-2019 21:20:00 2.1 C 96 % 1.53 C
546 02-02-2019 21:25:00 2.1 C 96 % 1.53 C
547 02-02-2019 21:30:00 2.1 C 96 % 1.53 C
548 02-02-2019 21:35:00 2.1 C 96 % 1.53 C
549 02-02-2019 21:40:00 2.1 C 96 % 1.53 C
550 02-02-2019 21:45:00 2 C 96 % 1.43 C
Sensor: Nr:Datum:Temp:Feuchte:Taupunkt:
Aussen-T/F 551 02-02-2019 21:50:00 2 C 96 % 1.43 C
552 02-02-2019 21:55:00 2 C 96 % 1.43 C
553 02-02-2019 22:00:00 1.9 C 96 % 1.33 C
554 02-02-2019 22:05:00 1.9 C 96 % 1.33 C
555 02-02-2019 22:10:00 1.9 C 96 % 1.33 C
556 02-02-2019 22:15:00 1.9 C 96 % 1.33 C
557 02-02-2019 22:20:00 1.9 C 96 % 1.33 C
558 02-02-2019 22:25:00 1.9 C 96 % 1.33 C
559 02-02-2019 22:30:00 1.9 C 96 % 1.33 C
560 02-02-2019 22:35:00 1.9 C 96 % 1.33 C
561 02-02-2019 22:40:00 1.9 C 96 % 1.33 C
562 02-02-2019 22:45:00 1.8 C 96 % 1.23 C
563 02-02-2019 22:50:00 1.8 C 96 % 1.23 C
564 02-02-2019 22:55:00 1.8 C 96 % 1.23 C
565 02-02-2019 23:00:00 1.8 C 96 % 1.23 C
566 02-02-2019 23:05:00 1.8 C 96 % 1.23 C
567 02-02-2019 23:10:00 1.8 C 96 % 1.23 C
568 02-02-2019 23:15:00 1.8 C 96 % 1.23 C
569 02-02-2019 23:20:00 1.8 C 96 % 1.23 C
570 02-02-2019 23:25:00 1.8 C 96 % 1.23 C
571 02-02-2019 23:30:00 1.8 C 97 % 1.38 C
572 02-02-2019 23:35:00 1.8 C 97 % 1.38 C
573 02-02-2019 23:40:00 1.8 C 97 % 1.38 C
574 02-02-2019 23:45:00 1.8 C 97 % 1.38 C
575 02-02-2019 23:50:00 1.8 C 96 % 1.23 C
Sensor: Nr:Datum:Temp:Feuchte:Taupunkt:
Aussen-T/F 576 02-02-2019 23:55:00 1.8 C 96 % 1.23 C
577 03-02-2019 00:00:00 1.8 C 97 % 1.38 C
578 03-02-2019 00:05:00 1.8 C 96 % 1.23 C
579 03-02-2019 00:10:00 1.8 C 97 % 1.38 C
580 03-02-2019 00:15:00 1.8 C 97 % 1.38 C
581 03-02-2019 00:20:00 1.9 C 97 % 1.48 C
582 03-02-2019 00:25:00 1.9 C 97 % 1.48 C
583 03-02-2019 00:30:00 1.9 C 97 % 1.48 C
584 03-02-2019 00:35:00 1.9 C 96 % 1.33 C
585 03-02-2019 00:40:00 1.9 C 96 % 1.33 C
586 03-02-2019 00:45:00 1.9 C 96 % 1.33 C
587 03-02-2019 00:50:00 1.9 C 96 % 1.33 C
588 03-02-2019 00:55:00 2 C 96 % 1.43 C
589 03-02-2019 01:00:00 2 C 96 % 1.43 C
590 03-02-2019 01:05:00 2 C 96 % 1.43 C
591 03-02-2019 01:10:00 2 C 96 % 1.43 C
592 03-02-2019 01:15:00 2 C 96 % 1.43 C
593 03-02-2019 01:20:00 2.1 C 96 % 1.53 C
594 03-02-2019 01:25:00 2.1 C 96 % 1.53 C
595 03-02-2019 01:30:00 2.1 C 96 % 1.53 C
596 03-02-2019 01:35:00 2.1 C 96 % 1.53 C
597 03-02-2019 01:40:00 2.1 C 96 % 1.53 C
598 03-02-2019 01:45:00 2.1 C 96 % 1.53 C
599 03-02-2019 01:50:00 2.1 C 96 % 1.53 C
600 03-02-2019 01:55:00 2.1 C 96 % 1.53 C
Sensor: Nr:Datum:Temp:Feuchte:Taupunkt:
Aussen-T/F 601 03-02-2019 02:00:00 2.1 C 96 % 1.53 C
602 03-02-2019 02:05:00 2.1 C 95 % 1.38 C
603 03-02-2019 02:10:00 2.1 C 95 % 1.38 C
604 03-02-2019 02:15:00 2.1 C 95 % 1.38 C
605 03-02-2019 02:20:00 2.1 C 95 % 1.38 C
606 03-02-2019 02:25:00 2.2 C 95 % 1.48 C
607 03-02-2019 02:30:00 2.2 C 94 % 1.34 C
608 03-02-2019 02:35:00 2.2 C 94 % 1.34 C
609 03-02-2019 02:40:00 2.2 C 94 % 1.34 C
610 03-02-2019 02:45:00 2.2 C 93 % 1.19 C
611 03-02-2019 02:50:00 2.2 C 93 % 1.19 C
612 03-02-2019 02:55:00 2.2 C 93 % 1.19 C
613 03-02-2019 03:00:00 2.2 C 93 % 1.19 C
614 03-02-2019 03:05:00 2.2 C 93 % 1.19 C
615 03-02-2019 03:10:00 2.2 C 93 % 1.19 C
616 03-02-2019 03:15:00 2.2 C 93 % 1.19 C
617 03-02-2019 03:20:00 2.2 C 93 % 1.19 C
618 03-02-2019 03:25:00 2.2 C 93 % 1.19 C
619 03-02-2019 03:30:00 2.2 C 93 % 1.19 C
620 03-02-2019 03:35:00 2.2 C 93 % 1.19 C
621 03-02-2019 03:40:00 2.2 C 93 % 1.19 C
622 03-02-2019 03:45:00 2.2 C 93 % 1.19 C
623 03-02-2019 03:50:00 2.1 C 93 % 1.09 C
624 03-02-2019 03:55:00 2.1 C 93 % 1.09 C
625 03-02-2019 04:00:00 2.1 C 93 % 1.09 C
Sensor: Nr:Datum:Temp:Feuchte:Taupunkt:
Aussen-T/F 626 03-02-2019 04:05:00 2.1 C 93 % 1.09 C
627 03-02-2019 04:10:00 2.1 C 93 % 1.09 C
628 03-02-2019 04:15:00 2.1 C 93 % 1.09 C
629 03-02-2019 04:20:00 2.1 C 93 % 1.09 C
630 03-02-2019 04:25:00 2.1 C 93 % 1.09 C
631 03-02-2019 04:30:00 2.1 C 94 % 1.24 C
632 03-02-2019 04:35:00 2.1 C 94 % 1.24 C
633 03-02-2019 04:40:00 2.1 C 94 % 1.24 C
634 03-02-2019 04:45:00 2.1 C 94 % 1.24 C
635 03-02-2019 04:50:00 2.1 C 94 % 1.24 C
636 03-02-2019 04:55:00 2.1 C 94 % 1.24 C
637 03-02-2019 05:00:00 2.1 C 94 % 1.24 C
638 03-02-2019 05:05:00 2.1 C 93 % 1.09 C
639 03-02-2019 05:10:00 2.2 C 93 % 1.19 C
640 03-02-2019 05:15:00 2.2 C 93 % 1.19 C
641 03-02-2019 05:20:00 2.2 C 93 % 1.19 C
642 03-02-2019 05:25:00 2.2 C 93 % 1.19 C
643 03-02-2019 05:30:00 2.2 C 93 % 1.19 C
644 03-02-2019 05:35:00 2.2 C 93 % 1.19 C
645 03-02-2019 05:40:00 2.2 C 93 % 1.19 C
646 03-02-2019 05:45:00 2.2 C 93 % 1.19 C
647 03-02-2019 05:50:00 2.2 C 93 % 1.19 C
648 03-02-2019 05:55:00 2.2 C 93 % 1.19 C
649 03-02-2019 06:00:00 2.2 C 93 % 1.19 C
650 03-02-2019 06:05:00 2.2 C 93 % 1.19 C
Sensor: Nr:Datum:Temp:Feuchte:Taupunkt:
Aussen-T/F 651 03-02-2019 06:10:00 2.2 C 93 % 1.19 C
652 03-02-2019 06:15:00 2.3 C 92 % 1.14 C
653 03-02-2019 06:20:00 2.3 C 92 % 1.14 C
654 03-02-2019 06:25:00 2.3 C 93 % 1.29 C
655 03-02-2019 06:30:00 2.2 C 92 % 1.04 C
656 03-02-2019 06:35:00 2.2 C 92 % 1.04 C
657 03-02-2019 06:40:00 2.2 C 92 % 1.04 C
658 03-02-2019 06:45:00 2.1 C 92 % 0.94 C
659 03-02-2019 06:50:00 2.1 C 93 % 1.09 C
660 03-02-2019 06:55:00 2 C 93 % 0.99 C
661 03-02-2019 07:00:00 1.9 C 93 % 0.89 C
662 03-02-2019 07:05:00 1.9 C 93 % 0.89 C
663 03-02-2019 07:10:00 1.9 C 93 % 0.89 C
664 03-02-2019 07:15:00 1.9 C 93 % 0.89 C
665 03-02-2019 07:20:00 1.9 C 93 % 0.89 C
666 03-02-2019 07:25:00 1.9 C 93 % 0.89 C
667 03-02-2019 07:30:00 1.9 C 93 % 0.89 C
668 03-02-2019 07:35:00 1.9 C 93 % 0.89 C
669 03-02-2019 07:40:00 1.9 C 93 % 0.89 C
670 03-02-2019 07:45:00 1.9 C 93 % 0.89 C
671 03-02-2019 07:50:00 1.9 C 93 % 0.89 C
672 03-02-2019 07:55:00 1.9 C 93 % 0.89 C
673 03-02-2019 08:00:00 1.9 C 93 % 0.89 C
674 03-02-2019 08:05:00 1.9 C 93 % 0.89 C
675 03-02-2019 08:10:00 1.8 C 93 % 0.79 C
Sensor: Nr:Datum:Temp:Feuchte:Taupunkt:
Aussen-T/F 676 03-02-2019 08:15:00 1.8 C 93 % 0.79 C
677 03-02-2019 08:20:00 1.8 C 93 % 0.79 C
678 03-02-2019 08:25:00 1.9 C 93 % 0.89 C
679 03-02-2019 08:30:00 1.9 C 93 % 0.89 C
680 03-02-2019 08:35:00 1.9 C 93 % 0.89 C
681 03-02-2019 08:40:00 1.9 C 93 % 0.89 C
682 03-02-2019 08:45:00 1.9 C 93 % 0.89 C
683 03-02-2019 08:50:00 1.9 C 93 % 0.89 C
684 03-02-2019 08:55:00 1.9 C 93 % 0.89 C
685 03-02-2019 09:00:00 1.9 C 93 % 0.89 C
686 03-02-2019 09:05:00 1.9 C 93 % 0.89 C
687 03-02-2019 09:10:00 2 C 93 % 0.99 C
688 03-02-2019 09:15:00 2 C 94 % 1.14 C
689 03-02-2019 09:20:00 2 C 94 % 1.14 C
690 03-02-2019 09:25:00 2 C 94 % 1.14 C
691 03-02-2019 09:30:00 2 C 93 % 0.99 C
692 03-02-2019 09:35:00 2 C 93 % 0.99 C
693 03-02-2019 09:40:00 2 C 93 % 0.99 C
694 03-02-2019 09:45:00 2 C 93 % 0.99 C
695 03-02-2019 09:50:00 2.1 C 93 % 1.09 C
696 03-02-2019 09:55:00 2.2 C 92 % 1.04 C
697 03-02-2019 10:00:00 2.2 C 92 % 1.04 C
698 03-02-2019 10:05:00 2.3 C 92 % 1.14 C
699 03-02-2019 10:10:00 2.3 C 92 % 1.14 C
700 03-02-2019 10:15:00 2.4 C 92 % 1.24 C
Sensor: Nr:Datum:Temp:Feuchte:Taupunkt:
Aussen-T/F 701 03-02-2019 10:20:00 2.4 C 92 % 1.24 C
702 03-02-2019 10:25:00 2.4 C 92 % 1.24 C
703 03-02-2019 10:30:00 2.5 C 91 % 1.18 C
704 03-02-2019 10:35:00 2.5 C 91 % 1.18 C
705 03-02-2019 10:40:00 2.6 C 91 % 1.28 C
706 03-02-2019 10:45:00 2.6 C 91 % 1.28 C
707 03-02-2019 10:50:00 2.7 C 90 % 1.23 C
708 03-02-2019 10:55:00 2.7 C 90 % 1.23 C
709 03-02-2019 11:00:00 2.7 C 90 % 1.23 C
710 03-02-2019 11:05:00 2.8 C 90 % 1.33 C
711 03-02-2019 11:10:00 2.9 C 90 % 1.43 C
712 03-02-2019 11:15:00 2.9 C 89 % 1.27 C
713 03-02-2019 11:20:00 3.1 C 89 % 1.47 C
714 03-02-2019 11:25:00 3.2 C 89 % 1.57 C
715 03-02-2019 11:30:00 3.2 C 88 % 1.41 C
716 03-02-2019 11:35:00 3.3 C 88 % 1.51 C
717 03-02-2019 11:40:00 3.3 C 88 % 1.51 C
718 03-02-2019 11:45:00 3.3 C 88 % 1.51 C
719 03-02-2019 11:50:00 3.3 C 88 % 1.51 C
720 03-02-2019 11:55:00 3.3 C 88 % 1.51 C
721 03-02-2019 12:00:00 3.3 C 88 % 1.51 C
722 03-02-2019 12:05:00 3.3 C 87 % 1.35 C
723 03-02-2019 12:10:00 3.3 C 87 % 1.35 C
724 03-02-2019 12:15:00 3.4 C 86 % 1.29 C
725 03-02-2019 12:20:00 3.4 C 86 % 1.29 C
Sensor: Nr:Datum:Temp:Feuchte:Taupunkt:
Aussen-T/F 726 03-02-2019 12:25:00 3.6 C 85 % 1.32 C
727 03-02-2019 12:30:00 3.7 C 85 % 1.42 C
728 03-02-2019 12:35:00 3.7 C 85 % 1.42 C
729 03-02-2019 12:40:00 3.8 C 84 % 1.35 C
730 03-02-2019 12:45:00 3.8 C 85 % 1.52 C
731 03-02-2019 12:50:00 3.9 C 85 % 1.61 C
732 03-02-2019 12:55:00 3.8 C 85 % 1.52 C
733 03-02-2019 13:00:00 3.8 C 84 % 1.35 C
734 03-02-2019 13:05:00 3.8 C 85 % 1.52 C
735 03-02-2019 13:10:00 3.8 C 85 % 1.52 C
736 03-02-2019 13:15:00 3.8 C 84 % 1.35 C
737 03-02-2019 13:20:00 3.9 C 85 % 1.61 C
738 03-02-2019 13:25:00 3.9 C 83 % 1.28 C
739 03-02-2019 13:30:00 3.9 C 83 % 1.28 C
740 03-02-2019 13:35:00 4 C 83 % 1.38 C
741 03-02-2019 13:40:00 4.1 C 83 % 1.48 C
742 03-02-2019 13:45:00 4.2 C 82 % 1.41 C
743 03-02-2019 13:50:00 4.2 C 81 % 1.24 C
744 03-02-2019 13:55:00 4.2 C 82 % 1.41 C
745 03-02-2019 14:00:00 4.2 C 82 % 1.41 C
746 03-02-2019 14:05:00 4.2 C 83 % 1.58 C
747 03-02-2019 14:10:00 4.1 C 83 % 1.48 C
748 03-02-2019 14:15:00 4.1 C 84 % 1.65 C
749 03-02-2019 14:20:00 3.9 C 84 % 1.45 C
750 03-02-2019 14:25:00 3.9 C 84 % 1.45 C
Sensor: Nr:Datum:Temp:Feuchte:Taupunkt:
Aussen-T/F 751 03-02-2019 14:30:00 3.9 C 84 % 1.45 C
752 03-02-2019 14:35:00 4 C 84 % 1.55 C
753 03-02-2019 14:40:00 4.1 C 83 % 1.48 C
754 03-02-2019 14:45:00 4.2 C 83 % 1.58 C
755 03-02-2019 14:50:00 4.2 C 82 % 1.41 C
756 03-02-2019 14:55:00 4.4 C 81 % 1.43 C
757 03-02-2019 15:00:00 4.4 C 79 % 1.09 C
758 03-02-2019 15:05:00 4.4 C 78 % 0.91 C
759 03-02-2019 15:10:00 4.4 C 78 % 0.91 C
760 03-02-2019 15:15:00 4.5 C 78 % 1.01 C
761 03-02-2019 15:20:00 4.5 C 77 % 0.83 C
762 03-02-2019 15:25:00 4.6 C 76 % 0.74 C
763 03-02-2019 15:30:00 4.6 C 78 % 1.1 C
764 03-02-2019 15:35:00 4.5 C 77 % 0.83 C
765 03-02-2019 15:40:00 4.6 C 76 % 0.74 C
766 03-02-2019 15:45:00 4.6 C 75 % 0.56 C
767 03-02-2019 15:50:00 4.5 C 75 % 0.46 C
768 03-02-2019 15:55:00 4.5 C 75 % 0.46 C
769 03-02-2019 16:00:00 4.4 C 75 % 0.37 C
770 03-02-2019 16:05:00 4.4 C 75 % 0.37 C
771 03-02-2019 16:10:00 4.4 C 76 % 0.55 C
772 03-02-2019 16:15:00 4.4 C 76 % 0.55 C
773 03-02-2019 16:20:00 4.4 C 76 % 0.55 C
774 03-02-2019 16:25:00 4.4 C 76 % 0.55 C
775 03-02-2019 16:30:00 4.4 C 76 % 0.55 C
Sensor: Nr:Datum:Temp:Feuchte:Taupunkt:
Aussen-T/F 776 03-02-2019 16:35:00 4.5 C 76 % 0.65 C
777 03-02-2019 16:40:00 4.5 C 77 % 0.83 C
778 03-02-2019 16:45:00 4.5 C 76 % 0.65 C
779 03-02-2019 16:50:00 4.5 C 77 % 0.83 C
780 03-02-2019 16:55:00 4.4 C 77 % 0.73 C
781 03-02-2019 17:00:00 4.4 C 77 % 0.73 C
782 03-02-2019 17:05:00 4.4 C 77 % 0.73 C
783 03-02-2019 17:10:00 4.3 C 77 % 0.63 C
784 03-02-2019 17:15:00 4.3 C 77 % 0.63 C
785 03-02-2019 17:20:00 4.3 C 77 % 0.63 C
786 03-02-2019 17:25:00 4.3 C 77 % 0.63 C
787 03-02-2019 17:30:00 4.3 C 78 % 0.81 C
788 03-02-2019 17:35:00 4.3 C 79 % 0.99 C
789 03-02-2019 17:40:00 4.2 C 79 % 0.89 C
790 03-02-2019 17:45:00 4.2 C 79 % 0.89 C
791 03-02-2019 17:50:00 4.1 C 79 % 0.79 C
792 03-02-2019 17:55:00 4.1 C 80 % 0.97 C
793 03-02-2019 18:00:00 4.1 C 80 % 0.97 C
794 03-02-2019 18:05:00 4 C 81 % 1.04 C
795 03-02-2019 18:10:00 3.9 C 81 % 0.95 C
796 03-02-2019 18:15:00 3.9 C 82 % 1.12 C
797 03-02-2019 18:20:00 3.9 C 82 % 1.12 C
798 03-02-2019 18:25:00 3.9 C 83 % 1.28 C
799 03-02-2019 18:30:00 3.8 C 83 % 1.19 C
800 03-02-2019 18:35:00 3.8 C 83 % 1.19 C
Sensor: Nr:Datum:Temp:Feuchte:Taupunkt:
Aussen-T/F 801 03-02-2019 18:40:00 3.8 C 83 % 1.19 C
802 03-02-2019 18:45:00 3.8 C 83 % 1.19 C
803 03-02-2019 18:50:00 3.8 C 83 % 1.19 C
804 03-02-2019 18:55:00 3.8 C 83 % 1.19 C
805 03-02-2019 19:00:00 3.8 C 84 % 1.35 C
806 03-02-2019 19:05:00 3.7 C 84 % 1.25 C
807 03-02-2019 19:10:00 3.7 C 84 % 1.25 C
808 03-02-2019 19:15:00 3.7 C 84 % 1.25 C
809 03-02-2019 19:20:00 3.6 C 84 % 1.16 C
810 03-02-2019 19:25:00 3.6 C 85 % 1.32 C
811 03-02-2019 19:30:00 3.6 C 85 % 1.32 C
812 03-02-2019 19:35:00 3.6 C 85 % 1.32 C
813 03-02-2019 19:40:00 3.5 C 85 % 1.22 C
814 03-02-2019 19:45:00 3.4 C 86 % 1.29 C
815 03-02-2019 19:50:00 3.4 C 86 % 1.29 C
816 03-02-2019 19:55:00 3.4 C 86 % 1.29 C
817 03-02-2019 20:00:00 3.3 C 86 % 1.19 C
818 03-02-2019 20:05:00 3.3 C 87 % 1.35 C
819 03-02-2019 20:10:00 3.3 C 87 % 1.35 C
820 03-02-2019 20:15:00 3.3 C 87 % 1.35 C
821 03-02-2019 20:20:00 3.3 C 87 % 1.35 C
822 03-02-2019 20:25:00 3.2 C 88 % 1.41 C
823 03-02-2019 20:30:00 3.2 C 88 % 1.41 C
824 03-02-2019 20:35:00 3.2 C 88 % 1.41 C
825 03-02-2019 20:40:00 3.1 C 87 % 1.15 C
Sensor: Nr:Datum:Temp:Feuchte:Taupunkt:
Aussen-T/F 826 03-02-2019 20:45:00 3.1 C 87 % 1.15 C
827 03-02-2019 20:50:00 3.1 C 87 % 1.15 C
828 03-02-2019 20:55:00 2.9 C 87 % 0.96 C
829 03-02-2019 21:00:00 2.7 C 87 % 0.76 C
830 03-02-2019 21:05:00 2.4 C 87 % 0.46 C
831 03-02-2019 21:10:00 2.3 C 88 % 0.52 C
832 03-02-2019 21:15:00 2.1 C 88 % 0.33 C
833 03-02-2019 21:20:00 2 C 89 % 0.38 C
834 03-02-2019 21:25:00 1.9 C 89 % 0.28 C
835 03-02-2019 21:30:00 1.8 C 89 % 0.19 C
836 03-02-2019 21:35:00 1.7 C 90 % 0.24 C
837 03-02-2019 21:40:00 1.6 C 90 % 0.14 C
838 03-02-2019 21:45:00 1.6 C 90 % 0.14 C
839 03-02-2019 21:50:00 1.5 C 91 % 0.19 C
840 03-02-2019 21:55:00 1.5 C 91 % 0.19 C
841 03-02-2019 22:00:00 1.4 C 91 % 0.1 C
842 03-02-2019 22:05:00 1.4 C 91 % 0.1 C
843 03-02-2019 22:10:00 1.3 C 91 % 0 C
844 03-02-2019 22:15:00 1.2 C 91 % -0.1 C
845 03-02-2019 22:20:00 1.1 C 91 % -0.2 C
846 03-02-2019 22:25:00 1.1 C 91 % -0.2 C
847 03-02-2019 22:30:00 0.9 C 91 % -0.4 C
848 03-02-2019 22:35:00 0.8 C 91 % -0.5 C
849 03-02-2019 22:40:00 0.8 C 91 % -0.5 C
850 03-02-2019 22:45:00 0.7 C 92 % -0.45 C
Sensor: Nr:Datum:Temp:Feuchte:Taupunkt:
Aussen-T/F 851 03-02-2019 22:50:00 0.6 C 92 % -0.55 C
852 03-02-2019 22:55:00 0.6 C 92 % -0.55 C
853 03-02-2019 23:00:00 0.6 C 92 % -0.55 C
854 03-02-2019 23:05:00 0.5 C 93 % -0.5 C
855 03-02-2019 23:10:00 0.5 C 93 % -0.5 C
856 03-02-2019 23:15:00 0.4 C 93 % -0.6 C
857 03-02-2019 23:20:00 0.4 C 92 % -0.74 C
858 03-02-2019 23:25:00 0.3 C 93 % -0.7 C
859 03-02-2019 23:30:00 0.3 C 93 % -0.7 C
860 03-02-2019 23:35:00 0.2 C 93 % -0.79 C
861 03-02-2019 23:40:00 0.1 C 93 % -0.89 C
862 03-02-2019 23:45:00 0 C 93 % -0.99 C
863 03-02-2019 23:50:00 -0.1 C 93 % -1.09 C
864 03-02-2019 23:55:00 -0.1 C 93 % -1.09 C
865 04-02-2019 00:00:00 -0.1 C 93 % -1.09 C
866 04-02-2019 00:05:00 -0.2 C 93 % -1.19 C
867 04-02-2019 00:10:00 -0.2 C 93 % -1.19 C
868 04-02-2019 00:15:00 -0.2 C 93 % -1.19 C
869 04-02-2019 00:20:00 -0.3 C 94 % -1.15 C
870 04-02-2019 00:25:00 -0.3 C 94 % -1.15 C
871 04-02-2019 00:30:00 -0.3 C 94 % -1.15 C
872 04-02-2019 00:35:00 -0.4 C 94 % -1.25 C
873 04-02-2019 00:40:00 -0.4 C 94 % -1.25 C
874 04-02-2019 00:45:00 -0.4 C 94 % -1.25 C
875 04-02-2019 00:50:00 -0.5 C 94 % -1.34 C
Sensor: Nr:Datum:Temp:Feuchte:Taupunkt:
Aussen-T/F 876 04-02-2019 00:55:00 -0.5 C 94 % -1.34 C
877 04-02-2019 01:00:00 -0.5 C 94 % -1.34 C
878 04-02-2019 01:05:00 -0.4 C 95 % -1.1 C
879 04-02-2019 01:10:00 -0.3 C 95 % -1 C
880 04-02-2019 01:15:00 -0.2 C 95 % -0.9 C
881 04-02-2019 01:20:00 0 C 95 % -0.7 C
882 04-02-2019 01:25:00 0.1 C 95 % -0.6 C
883 04-02-2019 01:30:00 0.1 C 95 % -0.6 C
884 04-02-2019 01:35:00 0.1 C 95 % -0.6 C
885 04-02-2019 01:40:00 0.1 C 95 % -0.6 C
886 04-02-2019 01:45:00 0.1 C 95 % -0.6 C
887 04-02-2019 01:50:00 0.1 C 95 % -0.6 C
888 04-02-2019 01:55:00 0.1 C 95 % -0.6 C
889 04-02-2019 02:00:00 0.1 C 95 % -0.6 C
890 04-02-2019 02:05:00 0.1 C 95 % -0.6 C
891 04-02-2019 02:10:00 0.1 C 95 % -0.6 C
892 04-02-2019 02:15:00 0.1 C 94 % -0.75 C
893 04-02-2019 02:20:00 0.1 C 94 % -0.75 C
894 04-02-2019 02:25:00 0.1 C 95 % -0.6 C
895 04-02-2019 02:30:00 0.1 C 94 % -0.75 C
896 04-02-2019 02:35:00 0 C 94 % -0.85 C
897 04-02-2019 02:40:00 -0.1 C 94 % -0.95 C
898 04-02-2019 02:45:00 -0.2 C 94 % -1.05 C
899 04-02-2019 02:50:00 -0.2 C 94 % -1.05 C
900 04-02-2019 02:55:00 -0.2 C 94 % -1.05 C
Sensor: Nr:Datum:Temp:Feuchte:Taupunkt:
Aussen-T/F 901 04-02-2019 03:00:00 -0.3 C 94 % -1.15 C
902 04-02-2019 03:05:00 -0.2 C 94 % -1.05 C
903 04-02-2019 03:10:00 -0.2 C 94 % -1.05 C
904 04-02-2019 03:15:00 -0.2 C 94 % -1.05 C
905 04-02-2019 03:20:00 -0.2 C 94 % -1.05 C
906 04-02-2019 03:25:00 -0.2 C 94 % -1.05 C
907 04-02-2019 03:30:00 -0.2 C 94 % -1.05 C
908 04-02-2019 03:35:00 -0.2 C 94 % -1.05 C
909 04-02-2019 03:40:00 -0.2 C 94 % -1.05 C
910 04-02-2019 03:45:00 -0.1 C 94 % -0.95 C
911 04-02-2019 03:50:00 -0.2 C 94 % -1.05 C
912 04-02-2019 03:55:00 -0.2 C 94 % -1.05 C
913 04-02-2019 04:00:00 -0.3 C 94 % -1.15 C
914 04-02-2019 04:05:00 -0.3 C 94 % -1.15 C
915 04-02-2019 04:10:00 -0.3 C 94 % -1.15 C
916 04-02-2019 04:15:00 -0.4 C 94 % -1.25 C
917 04-02-2019 04:20:00 -0.5 C 94 % -1.34 C
918 04-02-2019 04:25:00 -0.6 C 94 % -1.44 C
919 04-02-2019 04:30:00 -0.6 C 94 % -1.44 C
920 04-02-2019 04:35:00 -0.6 C 94 % -1.44 C
921 04-02-2019 04:40:00 -0.6 C 94 % -1.44 C
922 04-02-2019 04:45:00 -0.5 C 94 % -1.34 C
923 04-02-2019 04:50:00 -0.5 C 94 % -1.34 C
924 04-02-2019 04:55:00 -0.5 C 95 % -1.2 C
925 04-02-2019 05:00:00 -0.4 C 94 % -1.25 C
Sensor: Nr:Datum:Temp:Feuchte:Taupunkt:
Aussen-T/F 926 04-02-2019 05:05:00 -0.4 C 95 % -1.1 C
927 04-02-2019 05:10:00 -0.3 C 95 % -1 C
928 04-02-2019 05:15:00 -0.2 C 95 % -0.9 C
929 04-02-2019 05:20:00 -0.2 C 95 % -0.9 C
930 04-02-2019 05:25:00 -0.1 C 95 % -0.8 C
931 04-02-2019 05:30:00 0.1 C 95 % -0.6 C
932 04-02-2019 05:35:00 0.1 C 95 % -0.6 C
933 04-02-2019 05:40:00 0.2 C 95 % -0.5 C
934 04-02-2019 05:45:00 0.2 C 95 % -0.5 C
935 04-02-2019 05:50:00 0.3 C 95 % -0.4 C
936 04-02-2019 05:55:00 0.3 C 95 % -0.4 C
937 04-02-2019 06:00:00 0.3 C 95 % -0.4 C
938 04-02-2019 06:05:00 0.3 C 95 % -0.4 C
939 04-02-2019 06:10:00 0.3 C 95 % -0.4 C
940 04-02-2019 06:15:00 0.3 C 95 % -0.4 C
941 04-02-2019 06:20:00 0.4 C 95 % -0.31 C
942 04-02-2019 06:25:00 0.4 C 95 % -0.31 C
943 04-02-2019 06:30:00 0.4 C 95 % -0.31 C
944 04-02-2019 06:35:00 0.4 C 95 % -0.31 C
945 04-02-2019 06:40:00 0.4 C 95 % -0.31 C
946 04-02-2019 06:45:00 0.4 C 95 % -0.31 C
947 04-02-2019 06:50:00 0.4 C 95 % -0.31 C
948 04-02-2019 06:55:00 0.4 C 95 % -0.31 C
949 04-02-2019 07:00:00 0.4 C 95 % -0.31 C
950 04-02-2019 07:05:00 0.4 C 95 % -0.31 C
Sensor: Nr:Datum:Temp:Feuchte:Taupunkt:
Aussen-T/F 951 04-02-2019 07:10:00 0.5 C 95 % -0.21 C
952 04-02-2019 07:15:00 0.5 C 95 % -0.21 C
953 04-02-2019 07:20:00 0.5 C 95 % -0.21 C
954 04-02-2019 07:25:00 0.6 C 95 % -0.11 C
955 04-02-2019 07:30:00 0.5 C 95 % -0.21 C
956 04-02-2019 07:35:00 0.5 C 95 % -0.21 C
957 04-02-2019 07:40:00 0.5 C 95 % -0.21 C
958 04-02-2019 07:45:00 0.6 C 95 % -0.11 C
959 04-02-2019 07:50:00 0.6 C 94 % -0.25 C
960 04-02-2019 07:55:00 0.6 C 95 % -0.11 C
961 04-02-2019 08:00:00 0.6 C 95 % -0.11 C
962 04-02-2019 08:05:00 0.6 C 95 % -0.11 C
963 04-02-2019 08:10:00 0.6 C 95 % -0.11 C
964 04-02-2019 08:15:00 0.6 C 95 % -0.11 C
965 04-02-2019 08:20:00 0.7 C 95 % -0.01 C
966 04-02-2019 08:25:00 0.7 C 94 % -0.15 C
967 04-02-2019 08:30:00 0.7 C 94 % -0.15 C
968 04-02-2019 08:35:00 0.7 C 94 % -0.15 C
969 04-02-2019 08:40:00 0.8 C 94 % -0.05 C
970 04-02-2019 08:45:00 0.8 C 94 % -0.05 C
971 04-02-2019 08:50:00 0.8 C 94 % -0.05 C
972 04-02-2019 08:55:00 0.8 C 94 % -0.05 C
973 04-02-2019 09:00:00 0.8 C 94 % -0.05 C
974 04-02-2019 09:05:00 0.8 C 94 % -0.05 C
975 04-02-2019 09:10:00 0.7 C 94 % -0.15 C
Sensor: Nr:Datum:Temp:Feuchte:Taupunkt:
Aussen-T/F 976 04-02-2019 09:15:00 0.7 C 94 % -0.15 C
977 04-02-2019 09:20:00 0.6 C 93 % -0.4 C
978 04-02-2019 09:25:00 0.6 C 94 % -0.25 C
979 04-02-2019 09:30:00 0.5 C 94 % -0.35 C
980 04-02-2019 09:35:00 0.5 C 94 % -0.35 C
981 04-02-2019 09:40:00 0.5 C 94 % -0.35 C
982 04-02-2019 09:45:00 0.6 C 94 % -0.25 C
983 04-02-2019 09:50:00 0.5 C 94 % -0.35 C
984 04-02-2019 09:55:00 0.5 C 94 % -0.35 C
985 04-02-2019 10:00:00 0.6 C 94 % -0.25 C
986 04-02-2019 10:05:00 0.6 C 94 % -0.25 C
987 04-02-2019 10:10:00 0.6 C 94 % -0.25 C
988 04-02-2019 10:15:00 0.7 C 94 % -0.15 C
989 04-02-2019 10:20:00 0.8 C 94 % -0.05 C
990 04-02-2019 10:25:00 0.8 C 95 % 0.09 C
991 04-02-2019 10:30:00 0.9 C 94 % 0.05 C
992 04-02-2019 10:35:00 1 C 94 % 0.15 C
993 04-02-2019 10:40:00 1.1 C 94 % 0.24 C
994 04-02-2019 10:45:00 1.2 C 94 % 0.34 C
995 04-02-2019 10:50:00 1.2 C 94 % 0.34 C
996 04-02-2019 10:55:00 1.3 C 94 % 0.44 C
997 04-02-2019 11:00:00 1.4 C 94 % 0.54 C
998 04-02-2019 11:05:00 1.6 C 93 % 0.59 C
999 04-02-2019 11:10:00 1.7 C 93 % 0.69 C
1000 04-02-2019 11:15:00 1.8 C 93 % 0.79 C
Sensor: Nr:Datum:Temp:Feuchte:Taupunkt:
Aussen-T/F 1001 04-02-2019 11:20:00 1.9 C 92 % 0.74 C
1002 04-02-2019 11:25:00 2 C 91 % 0.69 C
1003 04-02-2019 11:30:00 2.1 C 91 % 0.79 C
1004 04-02-2019 11:35:00 2.2 C 90 % 0.73 C
1005 04-02-2019 11:40:00 2.3 C 90 % 0.83 C
1006 04-02-2019 11:45:00 2.4 C 90 % 0.93 C
1007 04-02-2019 11:50:00 2.5 C 89 % 0.88 C
1008 04-02-2019 11:55:00 2.6 C 89 % 0.97 C
1009 04-02-2019 12:00:00 2.7 C 89 % 1.07 C
1010 04-02-2019 12:05:00 2.9 C 89 % 1.27 C
1011 04-02-2019 12:10:00 3.1 C 88 % 1.31 C
1012 04-02-2019 12:15:00 3.2 C 88 % 1.41 C
1013 04-02-2019 12:20:00 3.3 C 85 % 1.03 C
1014 04-02-2019 12:25:00 3.6 C 82 % 0.82 C
1015 04-02-2019 12:30:00 3.9 C 80 % 0.77 C
1016 04-02-2019 12:35:00 4.2 C 78 % 0.71 C
1017 04-02-2019 12:40:00 4.3 C 77 % 0.63 C
1018 04-02-2019 12:45:00 4.5 C 77 % 0.83 C
1019 04-02-2019 12:50:00 4.6 C 75 % 0.56 C
1020 04-02-2019 12:55:00 4.7 C 74 % 0.47 C
1021 04-02-2019 13:00:00 4.8 C 74 % 0.57 C
1022 04-02-2019 13:05:00 4.8 C 73 % 0.38 C
1023 04-02-2019 13:10:00 4.8 C 74 % 0.57 C
1024 04-02-2019 13:15:00 4.8 C 73 % 0.38 C
1025 04-02-2019 13:20:00 4.8 C 72 % 0.19 C
Sensor: Nr:Datum:Temp:Feuchte:Taupunkt:
Aussen-T/F 1026 04-02-2019 13:25:00 4.8 C 72 % 0.19 C
1027 04-02-2019 13:30:00 4.8 C 72 % 0.19 C
1028 04-02-2019 13:35:00 4.7 C 72 % 0.09 C
1029 04-02-2019 13:40:00 4.7 C 73 % 0.28 C
1030 04-02-2019 13:45:00 4.7 C 72 % 0.09 C
1031 04-02-2019 13:50:00 4.8 C 72 % 0.19 C
1032 04-02-2019 13:55:00 4.9 C 72 % 0.29 C
1033 04-02-2019 14:00:00 4.9 C 71 % 0.09 C
1034 04-02-2019 14:05:00 5 C 72 % 0.38 C
1035 04-02-2019 14:10:00 5.2 C 71 % 0.38 C
1036 04-02-2019 14:15:00 5.2 C 69 % -0.01 C
1037 04-02-2019 14:20:00 5.3 C 69 % 0.09 C
1038 04-02-2019 14:25:00 5.4 C 70 % 0.38 C
1039 04-02-2019 14:30:00 5.4 C 67 % -0.22 C
1040 04-02-2019 14:35:00 5.4 C 67 % -0.22 C
1041 04-02-2019 14:40:00 5.4 C 67 % -0.22 C
1042 04-02-2019 14:45:00 5.5 C 66 % -0.33 C
1043 04-02-2019 14:50:00 5.5 C 67 % -0.13 C
1044 04-02-2019 14:55:00 5.5 C 66 % -0.33 C
1045 04-02-2019 15:00:00 5.4 C 66 % -0.43 C
1046 04-02-2019 15:05:00 5.4 C 66 % -0.43 C
1047 04-02-2019 15:10:00 5.4 C 67 % -0.22 C
1048 04-02-2019 15:15:00 5.3 C 68 % -0.12 C
1049 04-02-2019 15:20:00 5.3 C 66 % -0.52 C
1050 04-02-2019 15:25:00 5.3 C 66 % -0.52 C
Sensor: Nr:Datum:Temp:Feuchte:Taupunkt:
Aussen-T/F 1051 04-02-2019 15:30:00 5.3 C 65 % -0.73 C
1052 04-02-2019 15:35:00 5.3 C 67 % -0.32 C
1053 04-02-2019 15:40:00 5.3 C 68 % -0.12 C
1054 04-02-2019 15:45:00 5.3 C 68 % -0.12 C
1055 04-02-2019 15:50:00 5.3 C 68 % -0.12 C
1056 04-02-2019 15:55:00 5.3 C 66 % -0.52 C
1057 04-02-2019 16:00:00 5.3 C 67 % -0.32 C
1058 04-02-2019 16:05:00 5.3 C 69 % 0.09 C
1059 04-02-2019 16:10:00 5.3 C 70 % 0.28 C
1060 04-02-2019 16:15:00 5.3 C 68 % -0.12 C
1061 04-02-2019 16:20:00 5.3 C 67 % -0.32 C
1062 04-02-2019 16:25:00 5.2 C 70 % 0.19 C
1063 04-02-2019 16:30:00 5.2 C 73 % 0.77 C
1064 04-02-2019 16:35:00 5 C 73 % 0.57 C
1065 04-02-2019 16:40:00 4.8 C 74 % 0.57 C
1066 04-02-2019 16:45:00 4.7 C 76 % 0.84 C
1067 04-02-2019 16:50:00 4.4 C 77 % 0.73 C
1068 04-02-2019 16:55:00 4.2 C 78 % 0.71 C
1069 04-02-2019 17:00:00 3.9 C 79 % 0.6 C
1070 04-02-2019 17:05:00 3.6 C 81 % 0.65 C
1071 04-02-2019 17:10:00 3.3 C 81 % 0.36 C
1072 04-02-2019 17:15:00 3.1 C 82 % 0.33 C
1073 04-02-2019 17:20:00 2.9 C 83 % 0.31 C
1074 04-02-2019 17:25:00 2.7 C 84 % 0.27 C
1075 04-02-2019 17:30:00 2.6 C 84 % 0.18 C
Sensor: Nr:Datum:Temp:Feuchte:Taupunkt:
Aussen-T/F 1076 04-02-2019 17:35:00 2.4 C 85 % 0.14 C
1077 04-02-2019 17:40:00 2.3 C 85 % 0.04 C
1078 04-02-2019 17:45:00 2.2 C 85 % -0.05 C
1079 04-02-2019 17:50:00 2.1 C 86 % 0.01 C
1080 04-02-2019 17:55:00 1.9 C 86 % -0.19 C
1081 04-02-2019 18:00:00 1.8 C 86 % -0.29 C
1082 04-02-2019 18:05:00 1.7 C 87 % -0.23 C
1083 04-02-2019 18:10:00 1.6 C 87 % -0.32 C
1084 04-02-2019 18:15:00 1.6 C 87 % -0.32 C
1085 04-02-2019 18:20:00 1.5 C 87 % -0.42 C
1086 04-02-2019 18:25:00 1.4 C 87 % -0.52 C
1087 04-02-2019 18:30:00 1.3 C 87 % -0.62 C
1088 04-02-2019 18:35:00 1.3 C 88 % -0.46 C
1089 04-02-2019 18:40:00 1.2 C 88 % -0.56 C
1090 04-02-2019 18:45:00 1.2 C 88 % -0.56 C
1091 04-02-2019 18:50:00 1.1 C 89 % -0.51 C
1092 04-02-2019 18:55:00 1.1 C 89 % -0.51 C
1093 04-02-2019 19:00:00 1.1 C 89 % -0.51 C
1094 04-02-2019 19:05:00 1.1 C 89 % -0.51 C
1095 04-02-2019 19:10:00 1.2 C 89 % -0.41 C
1096 04-02-2019 19:15:00 1.2 C 89 % -0.41 C
1097 04-02-2019 19:20:00 1.3 C 90 % -0.15 C
1098 04-02-2019 19:25:00 1.3 C 90 % -0.15 C
1099 04-02-2019 19:30:00 1.4 C 90 % -0.06 C
1100 04-02-2019 19:35:00 1.5 C 90 % 0.04 C
Sensor: Nr:Datum:Temp:Feuchte:Taupunkt:
Aussen-T/F 1101 04-02-2019 19:40:00 1.6 C 90 % 0.14 C
1102 04-02-2019 19:45:00 1.7 C 89 % 0.09 C
1103 04-02-2019 19:50:00 1.7 C 90 % 0.24 C
1104 04-02-2019 19:55:00 1.8 C 90 % 0.34 C
1105 04-02-2019 20:00:00 1.8 C 89 % 0.19 C
1106 04-02-2019 20:05:00 1.9 C 89 % 0.28 C
1107 04-02-2019 20:10:00 1.9 C 89 % 0.28 C
1108 04-02-2019 20:15:00 1.9 C 89 % 0.28 C
1109 04-02-2019 20:20:00 1.9 C 88 % 0.13 C
1110 04-02-2019 20:25:00 2 C 88 % 0.23 C
1111 04-02-2019 20:30:00 2 C 88 % 0.23 C
1112 04-02-2019 20:35:00 2 C 88 % 0.23 C
1113 04-02-2019 20:40:00 2 C 88 % 0.23 C
1114 04-02-2019 20:45:00 2.2 C 86 % 0.11 C
1115 04-02-2019 20:50:00 2.2 C 85 % -0.05 C
1116 04-02-2019 20:55:00 2.3 C 84 % -0.12 C
1117 04-02-2019 21:00:00 2.3 C 83 % -0.28 C
1118 04-02-2019 21:05:00 2.4 C 83 % -0.18 C
1119 04-02-2019 21:10:00 2.5 C 83 % -0.09 C
1120 04-02-2019 21:15:00 2.6 C 83 % 0.01 C
1121 04-02-2019 21:20:00 2.7 C 82 % -0.06 C
1122 04-02-2019 21:25:00 2.7 C 83 % 0.11 C
1123 04-02-2019 21:30:00 2.7 C 83 % 0.11 C
1124 04-02-2019 21:35:00 2.7 C 83 % 0.11 C
1125 04-02-2019 21:40:00 2.7 C 83 % 0.11 C
Sensor: Nr:Datum:Temp:Feuchte:Taupunkt:
Aussen-T/F 1126 04-02-2019 21:45:00 2.7 C 82 % -0.06 C
1127 04-02-2019 21:50:00 2.7 C 82 % -0.06 C
1128 04-02-2019 21:55:00 2.8 C 81 % -0.13 C
1129 04-02-2019 22:00:00 2.8 C 82 % 0.04 C
1130 04-02-2019 22:05:00 2.9 C 83 % 0.31 C
1131 04-02-2019 22:10:00 2.9 C 82 % 0.14 C
1132 04-02-2019 22:15:00 2.9 C 83 % 0.31 C
1133 04-02-2019 22:20:00 2.9 C 82 % 0.14 C
1134 04-02-2019 22:25:00 2.9 C 83 % 0.31 C
1135 04-02-2019 22:30:00 2.8 C 83 % 0.21 C
1136 04-02-2019 22:35:00 2.8 C 82 % 0.04 C
1137 04-02-2019 22:40:00 2.8 C 83 % 0.21 C
1138 04-02-2019 22:45:00 2.8 C 83 % 0.21 C
1139 04-02-2019 22:50:00 2.9 C 84 % 0.47 C
1140 04-02-2019 22:55:00 2.8 C 85 % 0.54 C
1141 04-02-2019 23:00:00 2.8 C 85 % 0.54 C
1142 04-02-2019 23:05:00 2.8 C 85 % 0.54 C
1143 04-02-2019 23:10:00 2.7 C 86 % 0.6 C
1144 04-02-2019 23:15:00 2.7 C 85 % 0.44 C
1145 04-02-2019 23:20:00 2.7 C 85 % 0.44 C
1146 04-02-2019 23:25:00 2.7 C 86 % 0.6 C
1147 04-02-2019 23:30:00 2.7 C 86 % 0.6 C
1148 04-02-2019 23:35:00 2.7 C 85 % 0.44 C
1149 04-02-2019 23:40:00 2.7 C 85 % 0.44 C
1150 04-02-2019 23:45:00 2.7 C 85 % 0.44 C
Sensor: Nr:Datum:Temp:Feuchte:Taupunkt:
Aussen-T/F 1151 04-02-2019 23:50:00 2.7 C 83 % 0.11 C
1152 04-02-2019 23:55:00 2.7 C 83 % 0.11 C
1153 05-02-2019 00:00:00 2.8 C 83 % 0.21 C
1154 05-02-2019 00:05:00 2.8 C 83 % 0.21 C
1155 05-02-2019 00:10:00 2.9 C 83 % 0.31 C
1156 05-02-2019 00:15:00 2.9 C 83 % 0.31 C
1157 05-02-2019 00:20:00 2.9 C 83 % 0.31 C
1158 05-02-2019 00:25:00 3 C 83 % 0.4 C
1159 05-02-2019 00:30:00 3 C 83 % 0.4 C
1160 05-02-2019 00:35:00 3 C 84 % 0.57 C
1161 05-02-2019 00:40:00 3.1 C 82 % 0.33 C
1162 05-02-2019 00:45:00 3.1 C 82 % 0.33 C
1163 05-02-2019 00:50:00 3.2 C 82 % 0.43 C
1164 05-02-2019 00:55:00 3.2 C 81 % 0.26 C
1165 05-02-2019 01:00:00 3.2 C 83 % 0.6 C
1166 05-02-2019 01:05:00 3.2 C 81 % 0.26 C
1167 05-02-2019 01:10:00 3.3 C 81 % 0.36 C
1168 05-02-2019 01:15:00 3.3 C 80 % 0.19 C
1169 05-02-2019 01:20:00 3.3 C 81 % 0.36 C
1170 05-02-2019 01:25:00 3.3 C 80 % 0.19 C
1171 05-02-2019 01:30:00 3.4 C 81 % 0.46 C
1172 05-02-2019 01:35:00 3.3 C 79 % 0.02 C
1173 05-02-2019 01:40:00 3.4 C 80 % 0.29 C
1174 05-02-2019 01:45:00 3.4 C 81 % 0.46 C
1175 05-02-2019 01:50:00 3.4 C 82 % 0.63 C
Sensor: Nr:Datum:Temp:Feuchte:Taupunkt:
Aussen-T/F 1176 05-02-2019 01:55:00 3.3 C 81 % 0.36 C
1177 05-02-2019 02:00:00 3.3 C 82 % 0.53 C
1178 05-02-2019 02:05:00 3.3 C 80 % 0.19 C
1179 05-02-2019 02:10:00 3.3 C 80 % 0.19 C
1180 05-02-2019 02:15:00 3.3 C 81 % 0.36 C
1181 05-02-2019 02:20:00 3.3 C 80 % 0.19 C
1182 05-02-2019 02:25:00 3.4 C 80 % 0.29 C
1183 05-02-2019 02:30:00 3.4 C 79 % 0.11 C
1184 05-02-2019 02:35:00 3.4 C 78 % -0.06 C
1185 05-02-2019 02:40:00 3.5 C 78 % 0.04 C
1186 05-02-2019 02:45:00 3.6 C 78 % 0.13 C
1187 05-02-2019 02:50:00 3.6 C 78 % 0.13 C
1188 05-02-2019 02:55:00 3.6 C 77 % -0.05 C
1189 05-02-2019 03:00:00 3.6 C 77 % -0.05 C
1190 05-02-2019 03:05:00 3.6 C 77 % -0.05 C
1191 05-02-2019 03:10:00 3.7 C 77 % 0.05 C
1192 05-02-2019 03:15:00 3.7 C 77 % 0.05 C
1193 05-02-2019 03:20:00 3.6 C 76 % -0.22 C
1194 05-02-2019 03:25:00 3.6 C 77 % -0.05 C
1195 05-02-2019 03:30:00 3.6 C 78 % 0.13 C
1196 05-02-2019 03:35:00 3.6 C 78 % 0.13 C
1197 05-02-2019 03:40:00 3.6 C 80 % 0.48 C
1198 05-02-2019 03:45:00 3.6 C 79 % 0.31 C
1199 05-02-2019 03:50:00 3.5 C 80 % 0.38 C
1200 05-02-2019 03:55:00 3.5 C 78 % 0.04 C
Sensor: Nr:Datum:Temp:Feuchte:Taupunkt:
Aussen-T/F 1201 05-02-2019 04:00:00 3.5 C 81 % 0.55 C
1202 05-02-2019 04:05:00 3.5 C 80 % 0.38 C
1203 05-02-2019 04:10:00 3.4 C 79 % 0.11 C
1204 05-02-2019 04:15:00 3.4 C 79 % 0.11 C
1205 05-02-2019 04:20:00 3.4 C 80 % 0.29 C
1206 05-02-2019 04:25:00 3.4 C 80 % 0.29 C
1207 05-02-2019 04:30:00 3.4 C 79 % 0.11 C
1208 05-02-2019 04:35:00 3.4 C 78 % -0.06 C
1209 05-02-2019 04:40:00 3.4 C 78 % -0.06 C
1210 05-02-2019 04:45:00 3.4 C 78 % -0.06 C
1211 05-02-2019 04:50:00 3.5 C 77 % -0.14 C
1212 05-02-2019 04:55:00 3.6 C 78 % 0.13 C
1213 05-02-2019 05:00:00 3.6 C 77 % -0.05 C
1214 05-02-2019 05:05:00 3.6 C 77 % -0.05 C
1215 05-02-2019 05:10:00 3.6 C 77 % -0.05 C
1216 05-02-2019 05:15:00 3.6 C 77 % -0.05 C
1217 05-02-2019 05:20:00 3.6 C 76 % -0.22 C
1218 05-02-2019 05:25:00 3.7 C 77 % 0.05 C
1219 05-02-2019 05:30:00 3.6 C 77 % -0.05 C
1220 05-02-2019 05:35:00 3.7 C 76 % -0.13 C
1221 05-02-2019 05:40:00 3.7 C 76 % -0.13 C
1222 05-02-2019 05:45:00 3.7 C 76 % -0.13 C
1223 05-02-2019 05:50:00 3.7 C 75 % -0.31 C
1224 05-02-2019 05:55:00 3.7 C 78 % 0.23 C
1225 05-02-2019 06:00:00 3.7 C 78 % 0.23 C
Sensor: Nr:Datum:Temp:Feuchte:Taupunkt:
Aussen-T/F 1226 05-02-2019 06:05:00 3.7 C 80 % 0.58 C
1227 05-02-2019 06:10:00 3.6 C 80 % 0.48 C
1228 05-02-2019 06:15:00 3.6 C 80 % 0.48 C
1229 05-02-2019 06:20:00 3.4 C 80 % 0.29 C
1230 05-02-2019 06:25:00 3.4 C 81 % 0.46 C
1231 05-02-2019 06:30:00 3.3 C 82 % 0.53 C
1232 05-02-2019 06:35:00 3.3 C 83 % 0.7 C
1233 05-02-2019 06:40:00 3.2 C 83 % 0.6 C
1234 05-02-2019 06:45:00 3.2 C 83 % 0.6 C
1235 05-02-2019 06:50:00 3.2 C 84 % 0.76 C
1236 05-02-2019 06:55:00 3.1 C 84 % 0.67 C
1237 05-02-2019 07:00:00 3.1 C 84 % 0.67 C
1238 05-02-2019 07:05:00 3.1 C 84 % 0.67 C
1239 05-02-2019 07:10:00 3 C 84 % 0.57 C
1240 05-02-2019 07:15:00 3 C 85 % 0.73 C
1241 05-02-2019 07:20:00 3 C 85 % 0.73 C
1242 05-02-2019 07:25:00 3 C 84 % 0.57 C
1243 05-02-2019 07:30:00 3 C 85 % 0.73 C
1244 05-02-2019 07:35:00 3 C 85 % 0.73 C
1245 05-02-2019 07:40:00 2.9 C 85 % 0.63 C
1246 05-02-2019 07:45:00 2.9 C 86 % 0.8 C
1247 05-02-2019 07:50:00 2.9 C 86 % 0.8 C
1248 05-02-2019 07:55:00 2.9 C 85 % 0.63 C
1249 05-02-2019 08:00:00 2.9 C 86 % 0.8 C
1250 05-02-2019 08:05:00 2.9 C 86 % 0.8 C
Sensor: Nr:Datum:Temp:Feuchte:Taupunkt:
Aussen-T/F 1251 05-02-2019 08:10:00 2.9 C 86 % 0.8 C
1252 05-02-2019 08:15:00 2.9 C 86 % 0.8 C
1253 05-02-2019 08:20:00 2.9 C 85 % 0.63 C
1254 05-02-2019 08:25:00 2.9 C 86 % 0.8 C
1255 05-02-2019 08:30:00 2.9 C 86 % 0.8 C
1256 05-02-2019 08:35:00 3 C 85 % 0.73 C
1257 05-02-2019 08:40:00 3 C 84 % 0.57 C
1258 05-02-2019 08:45:00 3.1 C 83 % 0.5 C
1259 05-02-2019 08:50:00 3.2 C 84 % 0.76 C
1260 05-02-2019 08:55:00 3.2 C 83 % 0.6 C
1261 05-02-2019 09:00:00 3.3 C 83 % 0.7 C
1262 05-02-2019 09:05:00 3.3 C 82 % 0.53 C
1263 05-02-2019 09:10:00 3.4 C 82 % 0.63 C
1264 05-02-2019 09:15:00 3.5 C 81 % 0.55 C
1265 05-02-2019 09:20:00 3.6 C 80 % 0.48 C
1266 05-02-2019 09:25:00 3.6 C 80 % 0.48 C
1267 05-02-2019 09:30:00 3.6 C 80 % 0.48 C
1268 05-02-2019 09:35:00 3.7 C 80 % 0.58 C
1269 05-02-2019 09:40:00 3.7 C 80 % 0.58 C
1270 05-02-2019 09:45:00 3.7 C 79 % 0.4 C
1271 05-02-2019 09:50:00 3.8 C 79 % 0.5 C
1272 05-02-2019 09:55:00 3.8 C 79 % 0.5 C
1273 05-02-2019 10:00:00 3.8 C 79 % 0.5 C
1274 05-02-2019 10:05:00 3.9 C 79 % 0.6 C
1275 05-02-2019 10:10:00 3.9 C 79 % 0.6 C
Sensor: Nr:Datum:Temp:Feuchte:Taupunkt:
Aussen-T/F 1276 05-02-2019 10:15:00 4 C 79 % 0.7 C
1277 05-02-2019 10:20:00 4.1 C 78 % 0.62 C
1278 05-02-2019 10:25:00 4.2 C 78 % 0.71 C
1279 05-02-2019 10:30:00 4.2 C 78 % 0.71 C
1280 05-02-2019 10:35:00 4.3 C 77 % 0.63 C
1281 05-02-2019 10:40:00 4.3 C 78 % 0.81 C
1282 05-02-2019 10:45:00 4.4 C 78 % 0.91 C
1283 05-02-2019 10:50:00 4.4 C 77 % 0.73 C
1284 05-02-2019 10:55:00 4.6 C 77 % 0.92 C
1285 05-02-2019 11:00:00 4.7 C 78 % 1.2 C
1286 05-02-2019 11:05:00 4.7 C 77 % 1.02 C
1287 05-02-2019 11:10:00 4.8 C 76 % 0.94 C
1288 05-02-2019 11:15:00 4.8 C 76 % 0.94 C
1289 05-02-2019 11:20:00 4.9 C 76 % 1.03 C
1290 05-02-2019 11:25:00 5 C 76 % 1.13 C
1291 05-02-2019 11:30:00 5.1 C 75 % 1.04 C
1292 05-02-2019 11:35:00 5.1 C 75 % 1.04 C
1293 05-02-2019 11:40:00 5.2 C 75 % 1.14 C
1294 05-02-2019 11:45:00 5.2 C 75 % 1.14 C
1295 05-02-2019 11:50:00 5.3 C 75 % 1.24 C
1296 05-02-2019 11:55:00 5.3 C 75 % 1.24 C
1297 05-02-2019 12:00:00 5.4 C 76 % 1.52 C
1298 05-02-2019 12:05:00 5.6 C 76 % 1.71 C
1299 05-02-2019 12:10:00 5.6 C 75 % 1.53 C
1300 05-02-2019 12:15:00 5.8 C 75 % 1.72 C
Sensor: Nr:Datum:Temp:Feuchte:Taupunkt:
Aussen-T/F 1301 05-02-2019 12:20:00 5.8 C 75 % 1.72 C
1302 05-02-2019 12:25:00 5.9 C 74 % 1.63 C
1303 05-02-2019 12:30:00 6 C 75 % 1.91 C
1304 05-02-2019 12:35:00 6 C 74 % 1.73 C
1305 05-02-2019 12:40:00 6 C 74 % 1.73 C
1306 05-02-2019 12:45:00 6.1 C 74 % 1.82 C
1307 05-02-2019 12:50:00 6 C 74 % 1.73 C
1308 05-02-2019 12:55:00 6.1 C 74 % 1.82 C
1309 05-02-2019 13:00:00 6.1 C 74 % 1.82 C
1310 05-02-2019 13:05:00 6.1 C 74 % 1.82 C
1311 05-02-2019 13:10:00 6.2 C 73 % 1.73 C
1312 05-02-2019 13:15:00 6.2 C 74 % 1.92 C
1313 05-02-2019 13:20:00 6.3 C 74 % 2.02 C
1314 05-02-2019 13:25:00 6.3 C 74 % 2.02 C
1315 05-02-2019 13:30:00 6.4 C 73 % 1.92 C
1316 05-02-2019 13:35:00 6.4 C 73 % 1.92 C
1317 05-02-2019 13:40:00 6.4 C 73 % 1.92 C
1318 05-02-2019 13:45:00 6.4 C 73 % 1.92 C
1319 05-02-2019 13:50:00 6.4 C 73 % 1.92 C
1320 05-02-2019 13:55:00 6.5 C 73 % 2.02 C
1321 05-02-2019 14:00:00 6.5 C 72 % 1.83 C
1322 05-02-2019 14:05:00 6.6 C 73 % 2.12 C
1323 05-02-2019 14:10:00 6.6 C 73 % 2.12 C
1324 05-02-2019 14:15:00 6.7 C 73 % 2.21 C
1325 05-02-2019 14:20:00 6.7 C 73 % 2.21 C
Sensor: Nr:Datum:Temp:Feuchte:Taupunkt:
Aussen-T/F 1326 05-02-2019 14:25:00 6.7 C 73 % 2.21 C
1327 05-02-2019 14:30:00 6.7 C 73 % 2.21 C
1328 05-02-2019 14:35:00 6.8 C 73 % 2.31 C
1329 05-02-2019 14:40:00 6.8 C 73 % 2.31 C
1330 05-02-2019 14:45:00 6.9 C 73 % 2.4 C
1331 05-02-2019 14:50:00 6.9 C 73 % 2.4 C
1332 05-02-2019 14:55:00 6.9 C 72 % 2.21 C
1333 05-02-2019 15:00:00 7 C 74 % 2.69 C
1334 05-02-2019 15:05:00 7 C 73 % 2.5 C
1335 05-02-2019 15:10:00 7.1 C 73 % 2.6 C
1336 05-02-2019 15:15:00 7.1 C 73 % 2.6 C
1337 05-02-2019 15:20:00 7 C 74 % 2.69 C
1338 05-02-2019 15:25:00 7.1 C 74 % 2.79 C
1339 05-02-2019 15:30:00 7.1 C 73 % 2.6 C
1340 05-02-2019 15:35:00 7 C 73 % 2.5 C
1341 05-02-2019 15:40:00 7 C 73 % 2.5 C
1342 05-02-2019 15:45:00 7 C 74 % 2.69 C
1343 05-02-2019 15:50:00 7 C 75 % 2.88 C
1344 05-02-2019 15:55:00 7 C 74 % 2.69 C
1345 05-02-2019 16:00:00 7 C 74 % 2.69 C
1346 05-02-2019 16:05:00 6.9 C 74 % 2.6 C
1347 05-02-2019 16:10:00 6.9 C 74 % 2.6 C
1348 05-02-2019 16:15:00 6.9 C 75 % 2.78 C
1349 05-02-2019 16:20:00 6.9 C 75 % 2.78 C
1350 05-02-2019 16:25:00 6.8 C 76 % 2.87 C
Sensor: Nr:Datum:Temp:Feuchte:Taupunkt:
Aussen-T/F 1351 05-02-2019 16:30:00 6.8 C 76 % 2.87 C
1352 05-02-2019 16:35:00 6.8 C 77 % 3.06 C
1353 05-02-2019 16:40:00 6.8 C 78 % 3.24 C
1354 05-02-2019 16:45:00 6.8 C 79 % 3.42 C
1355 05-02-2019 16:50:00 6.7 C 80 % 3.5 C
1356 05-02-2019 16:55:00 6.7 C 80 % 3.5 C
1357 05-02-2019 17:00:00 6.6 C 81 % 3.58 C
1358 05-02-2019 17:05:00 6.6 C 81 % 3.58 C
1359 05-02-2019 17:10:00 6.6 C 81 % 3.58 C
1360 05-02-2019 17:15:00 6.4 C 82 % 3.56 C
1361 05-02-2019 17:20:00 6.3 C 82 % 3.46 C
1362 05-02-2019 17:25:00 6.3 C 83 % 3.63 C
1363 05-02-2019 17:30:00 6.1 C 83 % 3.44 C
1364 05-02-2019 17:35:00 6 C 84 % 3.51 C
1365 05-02-2019 17:40:00 5.9 C 84 % 3.41 C
1366 05-02-2019 17:45:00 5.8 C 84 % 3.31 C
1367 05-02-2019 17:50:00 5.7 C 85 % 3.38 C
1368 05-02-2019 17:55:00 5.6 C 85 % 3.28 C
1369 05-02-2019 18:00:00 5.5 C 85 % 3.18 C
1370 05-02-2019 18:05:00 5.4 C 86 % 3.25 C
1371 05-02-2019 18:10:00 5.3 C 86 % 3.15 C
1372 05-02-2019 18:15:00 5.3 C 86 % 3.15 C
1373 05-02-2019 18:20:00 5.2 C 86 % 3.05 C
1374 05-02-2019 18:25:00 5.2 C 86 % 3.05 C
1375 05-02-2019 18:30:00 5.1 C 86 % 2.96 C
Sensor: Nr:Datum:Temp:Feuchte:Taupunkt:
Aussen-T/F 1376 05-02-2019 18:35:00 5.1 C 86 % 2.96 C
1377 05-02-2019 18:40:00 5 C 87 % 3.02 C
1378 05-02-2019 18:45:00 5 C 87 % 3.02 C
1379 05-02-2019 18:50:00 4.9 C 87 % 2.92 C
1380 05-02-2019 18:55:00 4.9 C 87 % 2.92 C
1381 05-02-2019 19:00:00 4.8 C 87 % 2.82 C
1382 05-02-2019 19:05:00 4.8 C 87 % 2.82 C
1383 05-02-2019 19:10:00 4.8 C 87 % 2.82 C
1384 05-02-2019 19:15:00 4.8 C 87 % 2.82 C
1385 05-02-2019 19:20:00 4.8 C 87 % 2.82 C
1386 05-02-2019 19:25:00 4.8 C 88 % 2.99 C
1387 05-02-2019 19:30:00 4.7 C 88 % 2.89 C
1388 05-02-2019 19:35:00 4.7 C 87 % 2.73 C
1389 05-02-2019 19:40:00 4.7 C 88 % 2.89 C
1390 05-02-2019 19:45:00 4.7 C 88 % 2.89 C
1391 05-02-2019 19:50:00 4.7 C 88 % 2.89 C
1392 05-02-2019 19:55:00 4.7 C 88 % 2.89 C
1393 05-02-2019 20:00:00 4.7 C 88 % 2.89 C
1394 05-02-2019 20:05:00 4.6 C 88 % 2.79 C
1395 05-02-2019 20:10:00 4.6 C 88 % 2.79 C
1396 05-02-2019 20:15:00 4.5 C 88 % 2.69 C
1397 05-02-2019 20:20:00 4.4 C 88 % 2.59 C
1398 05-02-2019 20:25:00 4.4 C 88 % 2.59 C
1399 05-02-2019 20:30:00 4.3 C 88 % 2.49 C
1400 05-02-2019 20:35:00 4.2 C 88 % 2.39 C
Sensor: Nr:Datum:Temp:Feuchte:Taupunkt:
Aussen-T/F 1401 05-02-2019 20:40:00 4.2 C 88 % 2.39 C
1402 05-02-2019 20:45:00 4.1 C 89 % 2.45 C
1403 05-02-2019 20:50:00 4.1 C 89 % 2.45 C
1404 05-02-2019 20:55:00 4.1 C 89 % 2.45 C
1405 05-02-2019 21:00:00 4.1 C 89 % 2.45 C
1406 05-02-2019 21:05:00 4.1 C 89 % 2.45 C
1407 05-02-2019 21:10:00 4.2 C 90 % 2.71 C
1408 05-02-2019 21:15:00 4.2 C 90 % 2.71 C
1409 05-02-2019 21:20:00 4.2 C 90 % 2.71 C
1410 05-02-2019 21:25:00 4.2 C 90 % 2.71 C
1411 05-02-2019 21:30:00 4.2 C 90 % 2.71 C
1412 05-02-2019 21:35:00 4.2 C 90 % 2.71 C
1413 05-02-2019 21:40:00 4.2 C 89 % 2.55 C
1414 05-02-2019 21:45:00 4.1 C 89 % 2.45 C
1415 05-02-2019 21:50:00 3.9 C 88 % 2.1 C
1416 05-02-2019 21:55:00 3.7 C 88 % 1.9 C
1417 05-02-2019 22:00:00 3.4 C 88 % 1.61 C
1418 05-02-2019 22:05:00 3.3 C 89 % 1.67 C
1419 05-02-2019 22:10:00 3.1 C 89 % 1.47 C
1420 05-02-2019 22:15:00 2.9 C 89 % 1.27 C
1421 05-02-2019 22:20:00 2.8 C 89 % 1.17 C
1422 05-02-2019 22:25:00 2.7 C 89 % 1.07 C
1423 05-02-2019 22:30:00 2.6 C 90 % 1.13 C
1424 05-02-2019 22:35:00 2.4 C 90 % 0.93 C
1425 05-02-2019 22:40:00 2.4 C 90 % 0.93 C
Sensor: Nr:Datum:Temp:Feuchte:Taupunkt:
Aussen-T/F 1426 05-02-2019 22:45:00 2.3 C 91 % 0.99 C
1427 05-02-2019 22:50:00 2.2 C 91 % 0.89 C
1428 05-02-2019 22:55:00 2.2 C 91 % 0.89 C
1429 05-02-2019 23:00:00 2.1 C 91 % 0.79 C
1430 05-02-2019 23:05:00 2.1 C 91 % 0.79 C
1431 05-02-2019 23:10:00 2 C 92 % 0.84 C
1432 05-02-2019 23:15:00 1.9 C 91 % 0.59 C
1433 05-02-2019 23:20:00 1.9 C 92 % 0.74 C
1434 05-02-2019 23:25:00 1.8 C 92 % 0.64 C
1435 05-02-2019 23:30:00 1.8 C 92 % 0.64 C
1436 05-02-2019 23:35:00 1.7 C 92 % 0.54 C
1437 05-02-2019 23:40:00 1.6 C 92 % 0.44 C
1438 05-02-2019 23:45:00 1.4 C 92 % 0.25 C
1439 05-02-2019 23:50:00 1.3 C 91 % 0 C
1440 05-02-2019 23:55:00 1.1 C 92 % -0.05 C
1441 06-02-2019 00:00:00 1 C 92 % -0.15 C
1442 06-02-2019 00:05:00 0.8 C 92 % -0.35 C
1443 06-02-2019 00:10:00 0.7 C 92 % -0.45 C
1444 06-02-2019 00:15:00 0.6 C 92 % -0.55 C
1445 06-02-2019 00:20:00 0.5 C 92 % -0.65 C
1446 06-02-2019 00:25:00 0.4 C 93 % -0.6 C
1447 06-02-2019 00:30:00 0.3 C 93 % -0.7 C
1448 06-02-2019 00:35:00 0.3 C 93 % -0.7 C
1449 06-02-2019 00:40:00 0.2 C 93 % -0.79 C
1450 06-02-2019 00:45:00 0.2 C 93 % -0.79 C
Sensor: Nr:Datum:Temp:Feuchte:Taupunkt:
Aussen-T/F 1451 06-02-2019 00:50:00 0.1 C 93 % -0.89 C
1452 06-02-2019 00:55:00 0.1 C 93 % -0.89 C
1453 06-02-2019 01:00:00 0 C 94 % -0.85 C
1454 06-02-2019 01:05:00 0 C 94 % -0.85 C
1455 06-02-2019 01:10:00 -0.1 C 94 % -0.95 C
1456 06-02-2019 01:15:00 -0.1 C 94 % -0.95 C
1457 06-02-2019 01:20:00 -0.2 C 94 % -1.05 C
1458 06-02-2019 01:25:00 -0.3 C 94 % -1.15 C
1459 06-02-2019 01:30:00 -0.3 C 94 % -1.15 C
1460 06-02-2019 01:35:00 -0.3 C 94 % -1.15 C
1461 06-02-2019 01:40:00 -0.3 C 94 % -1.15 C
1462 06-02-2019 01:45:00 -0.3 C 94 % -1.15 C
1463 06-02-2019 01:50:00 -0.4 C 94 % -1.25 C
1464 06-02-2019 01:55:00 -0.4 C 94 % -1.25 C
1465 06-02-2019 02:00:00 -0.5 C 94 % -1.34 C
1466 06-02-2019 02:05:00 -0.6 C 94 % -1.44 C
1467 06-02-2019 02:10:00 -0.6 C 94 % -1.44 C
1468 06-02-2019 02:15:00 -0.6 C 94 % -1.44 C
1469 06-02-2019 02:20:00 -0.6 C 95 % -1.3 C
1470 06-02-2019 02:25:00 -0.6 C 95 % -1.3 C
1471 06-02-2019 02:30:00 -0.7 C 95 % -1.4 C
1472 06-02-2019 02:35:00 -0.7 C 95 % -1.4 C
1473 06-02-2019 02:40:00 -0.7 C 94 % -1.54 C
1474 06-02-2019 02:45:00 -0.8 C 94 % -1.64 C
1475 06-02-2019 02:50:00 -0.8 C 94 % -1.64 C
Sensor: Nr:Datum:Temp:Feuchte:Taupunkt:
Aussen-T/F 1476 06-02-2019 02:55:00 -0.9 C 95 % -1.6 C
1477 06-02-2019 03:00:00 -0.9 C 95 % -1.6 C
1478 06-02-2019 03:05:00 -1 C 95 % -1.7 C
1479 06-02-2019 03:10:00 -1.1 C 95 % -1.8 C
1480 06-02-2019 03:15:00 -1.1 C 94 % -1.94 C
1481 06-02-2019 03:20:00 -1.2 C 94 % -2.04 C
1482 06-02-2019 03:25:00 -1.2 C 95 % -1.9 C
1483 06-02-2019 03:30:00 -1.2 C 95 % -1.9 C
1484 06-02-2019 03:35:00 -1.3 C 95 % -2 C
1485 06-02-2019 03:40:00 -1.2 C 95 % -1.9 C
1486 06-02-2019 03:45:00 -1.2 C 95 % -1.9 C
1487 06-02-2019 03:50:00 -1.3 C 95 % -2 C
1488 06-02-2019 03:55:00 -1.3 C 95 % -2 C
1489 06-02-2019 04:00:00 -1.3 C 95 % -2 C
1490 06-02-2019 04:05:00 -1.4 C 95 % -2.1 C
1491 06-02-2019 04:10:00 -1.4 C 95 % -2.1 C
1492 06-02-2019 04:15:00 -1.4 C 95 % -2.1 C
1493 06-02-2019 04:20:00 -1.3 C 95 % -2 C
1494 06-02-2019 04:25:00 -1.3 C 95 % -2 C
1495 06-02-2019 04:30:00 -1.4 C 95 % -2.1 C
1496 06-02-2019 04:35:00 -1.4 C 95 % -2.1 C
1497 06-02-2019 04:40:00 -1.5 C 95 % -2.19 C
1498 06-02-2019 04:45:00 -1.5 C 95 % -2.19 C
1499 06-02-2019 04:50:00 -1.6 C 95 % -2.29 C
1500 06-02-2019 04:55:00 -1.6 C 95 % -2.29 C
Sensor: Nr:Datum:Temp:Feuchte:Taupunkt:
Aussen-T/F 1501 06-02-2019 05:00:00 -1.6 C 95 % -2.29 C
1502 06-02-2019 05:05:00 -1.6 C 95 % -2.29 C
1503 06-02-2019 05:10:00 -1.4 C 95 % -2.1 C
1504 06-02-2019 05:15:00 -1.4 C 95 % -2.1 C
1505 06-02-2019 05:20:00 -1.4 C 95 % -2.1 C
1506 06-02-2019 05:25:00 -1.6 C 95 % -2.29 C
1507 06-02-2019 05:30:00 -1.6 C 95 % -2.29 C
1508 06-02-2019 05:35:00 -1.7 C 95 % -2.39 C
1509 06-02-2019 05:40:00 -1.7 C 95 % -2.39 C
1510 06-02-2019 05:45:00 -1.7 C 95 % -2.39 C
1511 06-02-2019 05:50:00 -1.7 C 95 % -2.39 C
1512 06-02-2019 05:55:00 -1.7 C 95 % -2.39 C
1513 06-02-2019 06:00:00 -1.7 C 95 % -2.39 C
1514 06-02-2019 06:05:00 -1.7 C 95 % -2.39 C
1515 06-02-2019 06:10:00 -1.7 C 95 % -2.39 C
1516 06-02-2019 06:15:00 -1.7 C 95 % -2.39 C
1517 06-02-2019 06:20:00 -1.8 C 95 % -2.49 C
1518 06-02-2019 06:25:00 -1.8 C 95 % -2.49 C
1519 06-02-2019 06:30:00 -1.8 C 95 % -2.49 C
1520 06-02-2019 06:35:00 -1.8 C 95 % -2.49 C
1521 06-02-2019 06:40:00 -1.8 C 95 % -2.49 C
1522 06-02-2019 06:45:00 -1.8 C 95 % -2.49 C
1523 06-02-2019 06:50:00 -1.8 C 95 % -2.49 C
1524 06-02-2019 06:55:00 -1.8 C 95 % -2.49 C
1525 06-02-2019 07:00:00 -1.8 C 95 % -2.49 C
Sensor: Nr:Datum:Temp:Feuchte:Taupunkt:
Aussen-T/F 1526 06-02-2019 07:05:00 -1.9 C 95 % -2.59 C
1527 06-02-2019 07:10:00 -1.9 C 95 % -2.59 C
1528 06-02-2019 07:15:00 -1.9 C 95 % -2.59 C
1529 06-02-2019 07:20:00 -2 C 95 % -2.69 C
1530 06-02-2019 07:25:00 -2.1 C 95 % -2.79 C
1531 06-02-2019 07:30:00 -2.1 C 95 % -2.79 C
1532 06-02-2019 07:35:00 -1.9 C 95 % -2.59 C
1533 06-02-2019 07:40:00 -1.9 C 95 % -2.59 C
1534 06-02-2019 07:45:00 -2 C 95 % -2.69 C
1535 06-02-2019 07:50:00 -2.1 C 95 % -2.79 C
1536 06-02-2019 07:55:00 -2.1 C 95 % -2.79 C
1537 06-02-2019 08:00:00 -2.2 C 95 % -2.89 C
1538 06-02-2019 08:05:00 -2.2 C 95 % -2.89 C
1539 06-02-2019 08:10:00 -2.3 C 95 % -2.99 C
1540 06-02-2019 08:15:00 -2.3 C 95 % -2.99 C
1541 06-02-2019 08:20:00 -2.3 C 95 % -2.99 C
1542 06-02-2019 08:25:00 -2.2 C 96 % -2.75 C
1543 06-02-2019 08:30:00 -2.2 C 96 % -2.75 C
1544 06-02-2019 08:35:00 -2.2 C 96 % -2.75 C
1545 06-02-2019 08:40:00 -2.2 C 96 % -2.75 C
1546 06-02-2019 08:45:00 -2.2 C 96 % -2.75 C
1547 06-02-2019 08:50:00 -2.2 C 96 % -2.75 C
1548 06-02-2019 08:55:00 -2.1 C 96 % -2.65 C
1549 06-02-2019 09:00:00 -2 C 96 % -2.55 C
1550 06-02-2019 09:05:00 -1.9 C 96 % -2.45 C
Sensor: Nr:Datum:Temp:Feuchte:Taupunkt:
Aussen-T/F 1551 06-02-2019 09:10:00 -1.8 C 96 % -2.35 C
1552 06-02-2019 09:15:00 -1.7 C 96 % -2.25 C
1553 06-02-2019 09:20:00 -1.6 C 96 % -2.15 C
1554 06-02-2019 09:25:00 -1.4 C 96 % -1.95 C
1555 06-02-2019 09:30:00 -1.3 C 96 % -1.85 C
1556 06-02-2019 09:35:00 -1.2 C 96 % -1.75 C
1557 06-02-2019 09:40:00 -1.1 C 96 % -1.66 C
1558 06-02-2019 09:45:00 -0.9 C 96 % -1.46 C
1559 06-02-2019 09:50:00 -0.8 C 96 % -1.36 C
1560 06-02-2019 09:55:00 -0.7 C 96 % -1.26 C
1561 06-02-2019 10:00:00 -0.6 C 96 % -1.16 C
1562 06-02-2019 10:05:00 -0.4 C 96 % -0.96 C
1563 06-02-2019 10:10:00 -0.4 C 97 % -0.82 C
1564 06-02-2019 10:15:00 -0.3 C 96 % -0.86 C
1565 06-02-2019 10:20:00 -0.1 C 96 % -0.66 C
1566 06-02-2019 10:25:00 0.1 C 97 % -0.32 C
1567 06-02-2019 10:30:00 0.2 C 96 % -0.36 C
1568 06-02-2019 10:35:00 0.3 C 96 % -0.26 C
1569 06-02-2019 10:40:00 0.4 C 96 % -0.16 C
1570 06-02-2019 10:45:00 0.6 C 96 % 0.04 C
1571 06-02-2019 10:50:00 0.7 C 96 % 0.14 C
1572 06-02-2019 10:55:00 0.8 C 96 % 0.24 C
1573 06-02-2019 11:00:00 0.9 C 96 % 0.34 C
1574 06-02-2019 11:05:00 1.1 C 96 % 0.54 C
1575 06-02-2019 11:10:00 1.3 C 96 % 0.73 C
Sensor: Nr:Datum:Temp:Feuchte:Taupunkt:
Aussen-T/F 1576 06-02-2019 11:15:00 1.4 C 95 % 0.69 C
1577 06-02-2019 11:20:00 1.5 C 95 % 0.79 C
1578 06-02-2019 11:25:00 1.6 C 95 % 0.89 C
1579 06-02-2019 11:30:00 1.8 C 94 % 0.94 C
1580 06-02-2019 11:35:00 1.9 C 94 % 1.04 C
1581 06-02-2019 11:40:00 2 C 94 % 1.14 C
1582 06-02-2019 11:45:00 2.1 C 93 % 1.09 C
1583 06-02-2019 11:50:00 2.2 C 93 % 1.19 C
1584 06-02-2019 11:55:00 2.3 C 92 % 1.14 C
1585 06-02-2019 12:00:00 2.4 C 92 % 1.24 C
1586 06-02-2019 12:05:00 2.5 C 91 % 1.18 C
1587 06-02-2019 12:10:00 2.6 C 91 % 1.28 C
1588 06-02-2019 12:15:00 2.7 C 91 % 1.38 C
1589 06-02-2019 12:20:00 2.8 C 92 % 1.63 C
1590 06-02-2019 12:25:00 2.9 C 91 % 1.58 C
1591 06-02-2019 12:30:00 3.1 C 91 % 1.78 C
1592 06-02-2019 12:35:00 3.2 C 91 % 1.88 C
1593 06-02-2019 12:40:00 3.3 C 91 % 1.98 C
1594 06-02-2019 12:45:00 3.4 C 91 % 2.07 C
1595 06-02-2019 12:50:00 3.4 C 91 % 2.07 C
1596 06-02-2019 12:55:00 3.5 C 90 % 2.02 C
1597 06-02-2019 13:00:00 3.6 C 90 % 2.12 C
1598 06-02-2019 13:05:00 3.7 C 90 % 2.22 C
1599 06-02-2019 13:10:00 3.7 C 90 % 2.22 C
1600 06-02-2019 13:15:00 3.8 C 90 % 2.31 C
Sensor: Nr:Datum:Temp:Feuchte:Taupunkt:
Aussen-T/F 1601 06-02-2019 13:20:00 3.9 C 89 % 2.26 C
1602 06-02-2019 13:25:00 4.1 C 88 % 2.3 C
1603 06-02-2019 13:30:00 4.2 C 87 % 2.23 C
1604 06-02-2019 13:35:00 4.3 C 87 % 2.33 C
1605 06-02-2019 13:40:00 4.4 C 86 % 2.27 C
1606 06-02-2019 13:45:00 4.6 C 84 % 2.14 C
1607 06-02-2019 13:50:00 4.7 C 84 % 2.23 C
1608 06-02-2019 13:55:00 4.8 C 82 % 1.99 C
1609 06-02-2019 14:00:00 4.8 C 81 % 1.82 C
1610 06-02-2019 14:05:00 4.9 C 78 % 1.39 C
1611 06-02-2019 14:10:00 5.1 C 76 % 1.23 C
1612 06-02-2019 14:15:00 5.3 C 74 % 1.05 C
1613 06-02-2019 14:20:00 5.6 C 74 % 1.34 C
1614 06-02-2019 14:25:00 5.8 C 67 % 0.16 C
1615 06-02-2019 14:30:00 6 C 68 % 0.55 C
1616 06-02-2019 14:35:00 6.1 C 68 % 0.65 C
1617 06-02-2019 14:40:00 6.1 C 68 % 0.65 C
1618 06-02-2019 14:45:00 6.1 C 67 % 0.44 C
1619 06-02-2019 14:50:00 6.1 C 66 % 0.24 C
1620 06-02-2019 14:55:00 6.2 C 66 % 0.33 C
1621 06-02-2019 15:00:00 6.2 C 67 % 0.54 C
1622 06-02-2019 15:05:00 6.3 C 69 % 1.04 C
1623 06-02-2019 15:10:00 6.2 C 69 % 0.95 C
1624 06-02-2019 15:15:00 6.2 C 70 % 1.15 C
1625 06-02-2019 15:20:00 6.2 C 72 % 1.54 C
Sensor: Nr:Datum:Temp:Feuchte:Taupunkt:
Aussen-T/F 1626 06-02-2019 15:25:00 6.1 C 72 % 1.44 C
1627 06-02-2019 15:30:00 5.9 C 72 % 1.25 C
1628 06-02-2019 15:35:00 5.8 C 73 % 1.34 C
1629 06-02-2019 15:40:00 5.8 C 75 % 1.72 C
1630 06-02-2019 15:45:00 5.7 C 75 % 1.62 C
1631 06-02-2019 15:50:00 5.7 C 76 % 1.81 C
1632 06-02-2019 15:55:00 5.6 C 77 % 1.89 C
1633 06-02-2019 16:00:00 5.4 C 77 % 1.7 C
1634 06-02-2019 16:05:00 5.4 C 77 % 1.7 C
1635 06-02-2019 16:10:00 5.3 C 78 % 1.78 C
1636 06-02-2019 16:15:00 5.3 C 78 % 1.78 C
1637 06-02-2019 16:20:00 5.3 C 78 % 1.78 C
1638 06-02-2019 16:25:00 5.2 C 79 % 1.86 C
1639 06-02-2019 16:30:00 5.2 C 78 % 1.69 C
1640 06-02-2019 16:35:00 5.1 C 78 % 1.59 C
1641 06-02-2019 16:40:00 5 C 78 % 1.49 C
1642 06-02-2019 16:45:00 4.9 C 78 % 1.39 C
1643 06-02-2019 16:50:00 4.8 C 79 % 1.47 C
1644 06-02-2019 16:55:00 4.7 C 79 % 1.38 C
1645 06-02-2019 17:00:00 4.6 C 80 % 1.46 C
1646 06-02-2019 17:05:00 4.4 C 80 % 1.26 C
1647 06-02-2019 17:10:00 4.3 C 81 % 1.34 C
1648 06-02-2019 17:15:00 4.1 C 81 % 1.14 C
1649 06-02-2019 17:20:00 4 C 82 % 1.21 C
1650 06-02-2019 17:25:00 3.8 C 82 % 1.02 C
Sensor: Nr:Datum:Temp:Feuchte:Taupunkt:
Aussen-T/F 1651 06-02-2019 17:30:00 3.7 C 83 % 1.09 C
1652 06-02-2019 17:35:00 3.6 C 82 % 0.82 C
1653 06-02-2019 17:40:00 3.4 C 82 % 0.63 C
1654 06-02-2019 17:45:00 3.3 C 83 % 0.7 C
1655 06-02-2019 17:50:00 3.2 C 83 % 0.6 C
1656 06-02-2019 17:55:00 3.1 C 84 % 0.67 C
1657 06-02-2019 18:00:00 3.1 C 84 % 0.67 C
1658 06-02-2019 18:05:00 2.9 C 85 % 0.63 C
1659 06-02-2019 18:10:00 2.8 C 85 % 0.54 C
1660 06-02-2019 18:15:00 2.8 C 86 % 0.7 C
1661 06-02-2019 18:20:00 2.7 C 86 % 0.6 C
1662 06-02-2019 18:25:00 2.7 C 86 % 0.6 C
1663 06-02-2019 18:30:00 2.6 C 86 % 0.5 C
1664 06-02-2019 18:35:00 2.5 C 86 % 0.4 C
1665 06-02-2019 18:40:00 2.5 C 87 % 0.56 C
1666 06-02-2019 18:45:00 2.4 C 87 % 0.46 C
1667 06-02-2019 18:50:00 2.4 C 87 % 0.46 C
1668 06-02-2019 18:55:00 2.3 C 87 % 0.36 C
1669 06-02-2019 19:00:00 2.3 C 88 % 0.52 C
1670 06-02-2019 19:05:00 2.2 C 88 % 0.42 C
1671 06-02-2019 19:10:00 2.1 C 89 % 0.48 C
1672 06-02-2019 19:15:00 2.1 C 89 % 0.48 C
1673 06-02-2019 19:20:00 2.1 C 89 % 0.48 C
1674 06-02-2019 19:25:00 2.1 C 90 % 0.64 C
1675 06-02-2019 19:30:00 2.1 C 90 % 0.64 C
Sensor: Nr:Datum:Temp:Feuchte:Taupunkt:
Aussen-T/F 1676 06-02-2019 19:35:00 2.1 C 90 % 0.64 C
1677 06-02-2019 19:40:00 2.2 C 90 % 0.73 C
1678 06-02-2019 19:45:00 2.2 C 90 % 0.73 C
1679 06-02-2019 19:50:00 2.1 C 89 % 0.48 C
1680 06-02-2019 19:55:00 2.1 C 89 % 0.48 C
1681 06-02-2019 20:00:00 2.1 C 89 % 0.48 C
1682 06-02-2019 20:05:00 2.1 C 89 % 0.48 C
1683 06-02-2019 20:10:00 2 C 89 % 0.38 C
1684 06-02-2019 20:15:00 2 C 89 % 0.38 C
1685 06-02-2019 20:20:00 1.9 C 89 % 0.28 C
1686 06-02-2019 20:25:00 1.9 C 89 % 0.28 C
1687 06-02-2019 20:30:00 1.9 C 90 % 0.44 C
1688 06-02-2019 20:35:00 1.9 C 90 % 0.44 C
1689 06-02-2019 20:40:00 1.9 C 90 % 0.44 C
1690 06-02-2019 20:45:00 1.8 C 90 % 0.34 C
1691 06-02-2019 20:50:00 1.8 C 90 % 0.34 C
1692 06-02-2019 20:55:00 1.7 C 91 % 0.39 C
1693 06-02-2019 21:00:00 1.7 C 91 % 0.39 C
1694 06-02-2019 21:05:00 1.7 C 91 % 0.39 C
1695 06-02-2019 21:10:00 1.7 C 91 % 0.39 C
1696 06-02-2019 21:15:00 1.7 C 91 % 0.39 C
1697 06-02-2019 21:20:00 1.6 C 91 % 0.29 C
1698 06-02-2019 21:25:00 1.6 C 91 % 0.29 C
1699 06-02-2019 21:30:00 1.5 C 91 % 0.19 C
1700 06-02-2019 21:35:00 1.4 C 91 % 0.1 C
Sensor: Nr:Datum:Temp:Feuchte:Taupunkt:
Aussen-T/F 1701 06-02-2019 21:40:00 1.4 C 91 % 0.1 C
1702 06-02-2019 21:45:00 1.3 C 91 % 0 C
1703 06-02-2019 21:50:00 1.4 C 91 % 0.1 C
1704 06-02-2019 21:55:00 1.4 C 92 % 0.25 C
1705 06-02-2019 22:00:00 1.3 C 91 % 0 C
1706 06-02-2019 22:05:00 1.3 C 91 % 0 C
1707 06-02-2019 22:10:00 1.2 C 91 % -0.1 C
1708 06-02-2019 22:15:00 1.2 C 92 % 0.05 C
1709 06-02-2019 22:20:00 1.2 C 92 % 0.05 C
1710 06-02-2019 22:25:00 1.2 C 92 % 0.05 C
1711 06-02-2019 22:30:00 1.2 C 92 % 0.05 C
1712 06-02-2019 22:35:00 1.2 C 92 % 0.05 C
1713 06-02-2019 22:40:00 1.2 C 92 % 0.05 C
1714 06-02-2019 22:45:00 1.2 C 92 % 0.05 C
1715 06-02-2019 22:50:00 1.2 C 92 % 0.05 C
1716 06-02-2019 22:55:00 1.2 C 92 % 0.05 C
1717 06-02-2019 23:00:00 1.2 C 92 % 0.05 C
1718 06-02-2019 23:05:00 1.2 C 92 % 0.05 C
1719 06-02-2019 23:10:00 1.3 C 92 % 0.15 C
1720 06-02-2019 23:15:00 1.3 C 92 % 0.15 C
1721 06-02-2019 23:20:00 1.3 C 92 % 0.15 C
1722 06-02-2019 23:25:00 1.3 C 92 % 0.15 C
1723 06-02-2019 23:30:00 1.3 C 92 % 0.15 C
1724 06-02-2019 23:35:00 1.3 C 92 % 0.15 C
1725 06-02-2019 23:40:00 1.3 C 92 % 0.15 C
Sensor: Nr:Datum:Temp:Feuchte:Taupunkt:
Aussen-T/F 1726 06-02-2019 23:45:00 1.3 C 92 % 0.15 C
1727 06-02-2019 23:50:00 1.2 C 92 % 0.05 C
1728 06-02-2019 23:55:00 1.2 C 91 % -0.1 C
1729 07-02-2019 00:00:00 1.1 C 91 % -0.2 C
1730 07-02-2019 00:05:00 1 C 91 % -0.3 C
1731 07-02-2019 00:10:00 0.9 C 91 % -0.4 C
1732 07-02-2019 00:15:00 0.8 C 91 % -0.5 C
1733 07-02-2019 00:20:00 0.8 C 92 % -0.35 C
1734 07-02-2019 00:25:00 0.9 C 92 % -0.25 C
1735 07-02-2019 00:30:00 0.9 C 92 % -0.25 C
1736 07-02-2019 00:35:00 0.9 C 92 % -0.25 C
1737 07-02-2019 00:40:00 0.9 C 92 % -0.25 C
1738 07-02-2019 00:45:00 0.9 C 92 % -0.25 C
1739 07-02-2019 00:50:00 0.9 C 92 % -0.25 C
1740 07-02-2019 00:55:00 0.9 C 92 % -0.25 C
1741 07-02-2019 01:00:00 1 C 92 % -0.15 C
1742 07-02-2019 01:05:00 1.1 C 92 % -0.05 C
1743 07-02-2019 01:10:00 1.1 C 92 % -0.05 C
1744 07-02-2019 01:15:00 1.1 C 92 % -0.05 C
1745 07-02-2019 01:20:00 1.2 C 92 % 0.05 C
1746 07-02-2019 01:25:00 1.2 C 92 % 0.05 C
1747 07-02-2019 01:30:00 1.3 C 92 % 0.15 C
1748 07-02-2019 01:35:00 1.3 C 92 % 0.15 C
1749 07-02-2019 01:40:00 1.3 C 92 % 0.15 C
1750 07-02-2019 01:45:00 1.3 C 92 % 0.15 C
Sensor: Nr:Datum:Temp:Feuchte:Taupunkt:
Aussen-T/F 1751 07-02-2019 01:50:00 1.3 C 92 % 0.15 C
1752 07-02-2019 01:55:00 1.3 C 92 % 0.15 C
1753 07-02-2019 02:00:00 1.3 C 92 % 0.15 C
1754 07-02-2019 02:05:00 1.3 C 92 % 0.15 C
1755 07-02-2019 02:10:00 1.4 C 92 % 0.25 C
1756 07-02-2019 02:15:00 1.4 C 92 % 0.25 C
1757 07-02-2019 02:20:00 1.4 C 91 % 0.1 C
1758 07-02-2019 02:25:00 1.5 C 91 % 0.19 C
1759 07-02-2019 02:30:00 1.5 C 91 % 0.19 C
1760 07-02-2019 02:35:00 1.5 C 91 % 0.19 C
1761 07-02-2019 02:40:00 1.5 C 91 % 0.19 C
1762 07-02-2019 02:45:00 1.5 C 91 % 0.19 C
1763 07-02-2019 02:50:00 1.5 C 91 % 0.19 C
1764 07-02-2019 02:55:00 1.5 C 92 % 0.35 C
1765 07-02-2019 03:00:00 1.6 C 92 % 0.44 C
1766 07-02-2019 03:05:00 1.6 C 92 % 0.44 C
1767 07-02-2019 03:10:00 1.6 C 92 % 0.44 C
1768 07-02-2019 03:15:00 1.7 C 92 % 0.54 C
1769 07-02-2019 03:20:00 1.7 C 92 % 0.54 C
1770 07-02-2019 03:25:00 1.7 C 92 % 0.54 C
1771 07-02-2019 03:30:00 1.7 C 92 % 0.54 C
1772 07-02-2019 03:35:00 1.8 C 92 % 0.64 C
1773 07-02-2019 03:40:00 1.8 C 91 % 0.49 C
1774 07-02-2019 03:45:00 1.8 C 91 % 0.49 C
1775 07-02-2019 03:50:00 1.9 C 91 % 0.59 C
Sensor: Nr:Datum:Temp:Feuchte:Taupunkt:
Aussen-T/F 1776 07-02-2019 03:55:00 1.9 C 91 % 0.59 C
1777 07-02-2019 04:00:00 2 C 91 % 0.69 C
1778 07-02-2019 04:05:00 2.1 C 91 % 0.79 C
1779 07-02-2019 04:10:00 2.2 C 90 % 0.73 C
1780 07-02-2019 04:15:00 2.2 C 90 % 0.73 C
1781 07-02-2019 04:20:00 2.3 C 90 % 0.83 C
1782 07-02-2019 04:25:00 2.3 C 90 % 0.83 C
1783 07-02-2019 04:30:00 2.4 C 90 % 0.93 C
1784 07-02-2019 04:35:00 2.4 C 90 % 0.93 C
1785 07-02-2019 04:40:00 2.4 C 90 % 0.93 C
1786 07-02-2019 04:45:00 2.5 C 91 % 1.18 C
1787 07-02-2019 04:50:00 2.6 C 91 % 1.28 C
1788 07-02-2019 04:55:00 2.6 C 91 % 1.28 C
1789 07-02-2019 05:00:00 2.6 C 92 % 1.43 C
1790 07-02-2019 05:05:00 2.6 C 92 % 1.43 C
1791 07-02-2019 05:10:00 2.6 C 92 % 1.43 C
1792 07-02-2019 05:15:00 2.6 C 92 % 1.43 C
1793 07-02-2019 05:20:00 2.6 C 92 % 1.43 C
1794 07-02-2019 05:25:00 2.6 C 91 % 1.28 C
1795 07-02-2019 05:30:00 2.6 C 91 % 1.28 C
1796 07-02-2019 05:35:00 2.7 C 90 % 1.23 C
1797 07-02-2019 05:40:00 2.7 C 90 % 1.23 C
1798 07-02-2019 05:45:00 2.7 C 90 % 1.23 C
1799 07-02-2019 05:50:00 2.8 C 90 % 1.33 C
1800 07-02-2019 05:55:00 2.8 C 90 % 1.33 C
Sensor: Nr:Datum:Temp:Feuchte:Taupunkt:
Aussen-T/F 1801 07-02-2019 06:00:00 2.8 C 90 % 1.33 C
1802 07-02-2019 06:05:00 2.9 C 90 % 1.43 C
1803 07-02-2019 06:10:00 2.9 C 89 % 1.27 C
1804 07-02-2019 06:15:00 2.9 C 89 % 1.27 C
1805 07-02-2019 06:20:00 3 C 88 % 1.21 C
1806 07-02-2019 06:25:00 3 C 88 % 1.21 C
1807 07-02-2019 06:30:00 3 C 88 % 1.21 C
1808 07-02-2019 06:35:00 3.1 C 88 % 1.31 C
1809 07-02-2019 06:40:00 3.1 C 88 % 1.31 C
1810 07-02-2019 06:45:00 3.1 C 88 % 1.31 C
1811 07-02-2019 06:50:00 3.1 C 88 % 1.31 C
1812 07-02-2019 06:55:00 3.2 C 88 % 1.41 C
1813 07-02-2019 07:00:00 3.2 C 89 % 1.57 C
1814 07-02-2019 07:05:00 3.3 C 89 % 1.67 C
1815 07-02-2019 07:10:00 3.3 C 89 % 1.67 C
1816 07-02-2019 07:15:00 3.4 C 89 % 1.76 C
1817 07-02-2019 07:20:00 3.4 C 90 % 1.92 C
1818 07-02-2019 07:25:00 3.4 C 89 % 1.76 C
1819 07-02-2019 07:30:00 3.5 C 90 % 2.02 C
1820 07-02-2019 07:35:00 3.6 C 90 % 2.12 C
1821 07-02-2019 07:40:00 3.7 C 89 % 2.06 C
1822 07-02-2019 07:45:00 3.7 C 89 % 2.06 C
1823 07-02-2019 07:50:00 3.7 C 90 % 2.22 C
1824 07-02-2019 07:55:00 3.8 C 90 % 2.31 C
1825 07-02-2019 08:00:00 3.8 C 90 % 2.31 C
Sensor: Nr:Datum:Temp:Feuchte:Taupunkt:
Aussen-T/F 1826 07-02-2019 08:05:00 3.9 C 91 % 2.57 C
1827 07-02-2019 08:10:00 3.9 C 91 % 2.57 C
1828 07-02-2019 08:15:00 3.9 C 92 % 2.72 C
1829 07-02-2019 08:20:00 3.9 C 92 % 2.72 C
1830 07-02-2019 08:25:00 4 C 93 % 2.97 C
1831 07-02-2019 08:30:00 4 C 93 % 2.97 C
1832 07-02-2019 08:35:00 4.1 C 93 % 3.07 C
1833 07-02-2019 08:40:00 4.1 C 93 % 3.07 C
1834 07-02-2019 08:45:00 4.1 C 93 % 3.07 C
1835 07-02-2019 08:50:00 4.1 C 94 % 3.22 C
1836 07-02-2019 08:55:00 4.1 C 94 % 3.22 C
1837 07-02-2019 09:00:00 4.2 C 94 % 3.32 C
1838 07-02-2019 09:05:00 4.2 C 94 % 3.32 C
1839 07-02-2019 09:10:00 4.3 C 94 % 3.42 C
1840 07-02-2019 09:15:00 4.3 C 94 % 3.42 C
1841 07-02-2019 09:20:00 4.4 C 95 % 3.67 C
1842 07-02-2019 09:25:00 4.5 C 95 % 3.77 C
1843 07-02-2019 09:30:00 4.6 C 95 % 3.87 C
1844 07-02-2019 09:35:00 4.6 C 95 % 3.87 C
1845 07-02-2019 09:40:00 4.7 C 95 % 3.97 C
1846 07-02-2019 09:45:00 4.8 C 95 % 4.07 C
1847 07-02-2019 09:50:00 4.9 C 95 % 4.17 C
1848 07-02-2019 09:55:00 4.9 C 95 % 4.17 C
1849 07-02-2019 10:00:00 4.9 C 95 % 4.17 C
1850 07-02-2019 10:05:00 5 C 95 % 4.27 C
Sensor: Nr:Datum:Temp:Feuchte:Taupunkt:
Aussen-T/F 1851 07-02-2019 10:10:00 5 C 95 % 4.27 C
1852 07-02-2019 10:15:00 5.1 C 95 % 4.37 C
1853 07-02-2019 10:20:00 5.1 C 95 % 4.37 C
1854 07-02-2019 10:25:00 5.2 C 95 % 4.47 C
1855 07-02-2019 10:30:00 5.2 C 95 % 4.47 C
1856 07-02-2019 10:35:00 5.2 C 95 % 4.47 C
1857 07-02-2019 10:40:00 5.3 C 95 % 4.57 C
1858 07-02-2019 10:45:00 5.3 C 95 % 4.57 C
1859 07-02-2019 10:50:00 5.4 C 96 % 4.81 C
1860 07-02-2019 10:55:00 5.4 C 95 % 4.66 C
1861 07-02-2019 11:00:00 5.5 C 96 % 4.91 C
1862 07-02-2019 11:05:00 5.4 C 95 % 4.66 C
1863 07-02-2019 11:10:00 5.5 C 96 % 4.91 C
1864 07-02-2019 11:15:00 5.6 C 95 % 4.86 C
1865 07-02-2019 11:20:00 5.7 C 96 % 5.11 C
1866 07-02-2019 11:25:00 5.7 C 96 % 5.11 C
1867 07-02-2019 11:30:00 5.7 C 96 % 5.11 C
1868 07-02-2019 11:35:00 5.7 C 96 % 5.11 C
1869 07-02-2019 11:40:00 5.7 C 95 % 4.96 C
1870 07-02-2019 11:45:00 5.7 C 95 % 4.96 C
1871 07-02-2019 11:50:00 5.8 C 96 % 5.21 C
1872 07-02-2019 11:55:00 6.1 C 96 % 5.51 C
1873 07-02-2019 12:00:00 6.3 C 96 % 5.71 C
1874 07-02-2019 12:05:00 6.4 C 96 % 5.81 C
1875 07-02-2019 12:10:00 6.6 C 96 % 6.01 C
Sensor: Nr:Datum:Temp:Feuchte:Taupunkt:
Aussen-T/F 1876 07-02-2019 12:15:00 6.7 C 96 % 6.11 C
1877 07-02-2019 12:20:00 6.7 C 95 % 5.96 C
1878 07-02-2019 12:25:00 6.7 C 95 % 5.96 C
1879 07-02-2019 12:30:00 6.8 C 95 % 6.06 C
1880 07-02-2019 12:35:00 6.9 C 95 % 6.16 C
1881 07-02-2019 12:40:00 6.9 C 95 % 6.16 C
1882 07-02-2019 12:45:00 7 C 94 % 6.1 C
1883 07-02-2019 12:50:00 7.1 C 94 % 6.2 C
1884 07-02-2019 12:55:00 7.2 C 94 % 6.3 C
1885 07-02-2019 13:00:00 7.3 C 93 % 6.25 C
1886 07-02-2019 13:05:00 7.3 C 93 % 6.25 C
1887 07-02-2019 13:10:00 7.4 C 93 % 6.34 C
1888 07-02-2019 13:15:00 7.5 C 92 % 6.29 C
1889 07-02-2019 13:20:00 7.6 C 91 % 6.23 C
1890 07-02-2019 13:25:00 7.6 C 91 % 6.23 C
1891 07-02-2019 13:30:00 7.6 C 90 % 6.07 C
1892 07-02-2019 13:35:00 7.6 C 90 % 6.07 C
1893 07-02-2019 13:40:00 7.6 C 90 % 6.07 C
1894 07-02-2019 13:45:00 7.6 C 90 % 6.07 C
1895 07-02-2019 13:50:00 7.7 C 89 % 6 C
1896 07-02-2019 13:55:00 7.7 C 89 % 6 C
1897 07-02-2019 14:00:00 7.8 C 89 % 6.1 C
1898 07-02-2019 14:05:00 7.8 C 88 % 5.94 C
1899 07-02-2019 14:10:00 7.8 C 87 % 5.78 C
1900 07-02-2019 14:15:00 7.9 C 87 % 5.87 C
Sensor: Nr:Datum:Temp:Feuchte:Taupunkt:
Aussen-T/F 1901 07-02-2019 14:20:00 8 C 86 % 5.81 C
1902 07-02-2019 14:25:00 8.1 C 85 % 5.73 C
1903 07-02-2019 14:30:00 8.1 C 84 % 5.56 C
1904 07-02-2019 14:35:00 8.2 C 84 % 5.66 C
1905 07-02-2019 14:40:00 8.3 C 84 % 5.76 C
1906 07-02-2019 14:45:00 8.3 C 84 % 5.76 C
1907 07-02-2019 14:50:00 8.4 C 82 % 5.51 C
1908 07-02-2019 14:55:00 8.4 C 82 % 5.51 C
1909 07-02-2019 15:00:00 8.4 C 82 % 5.51 C
1910 07-02-2019 15:05:00 8.5 C 82 % 5.61 C
1911 07-02-2019 15:10:00 8.5 C 81 % 5.43 C
1912 07-02-2019 15:15:00 8.5 C 81 % 5.43 C
1913 07-02-2019 15:20:00 8.5 C 81 % 5.43 C
1914 07-02-2019 15:25:00 8.4 C 81 % 5.33 C
1915 07-02-2019 15:30:00 8.5 C 81 % 5.43 C
1916 07-02-2019 15:35:00 8.5 C 81 % 5.43 C
1917 07-02-2019 15:40:00 8.6 C 81 % 5.53 C
1918 07-02-2019 15:45:00 8.7 C 80 % 5.45 C
1919 07-02-2019 15:50:00 8.7 C 80 % 5.45 C
1920 07-02-2019 15:55:00 8.6 C 79 % 5.17 C
1921 07-02-2019 16:00:00 8.6 C 80 % 5.35 C
1922 07-02-2019 16:05:00 8.6 C 80 % 5.35 C
1923 07-02-2019 16:10:00 8.6 C 80 % 5.35 C
1924 07-02-2019 16:15:00 8.6 C 80 % 5.35 C
1925 07-02-2019 16:20:00 8.7 C 79 % 5.27 C
Sensor: Nr:Datum:Temp:Feuchte:Taupunkt:
Aussen-T/F 1926 07-02-2019 16:25:00 8.7 C 78 % 5.08 C
1927 07-02-2019 16:30:00 8.7 C 79 % 5.27 C
1928 07-02-2019 16:35:00 8.7 C 79 % 5.27 C
1929 07-02-2019 16:40:00 8.7 C 79 % 5.27 C
1930 07-02-2019 16:45:00 8.5 C 79 % 5.07 C
1931 07-02-2019 16:50:00 8.4 C 79 % 4.98 C
1932 07-02-2019 16:55:00 8.3 C 79 % 4.88 C
1933 07-02-2019 17:00:00 8.1 C 79 % 4.68 C
1934 07-02-2019 17:05:00 8.1 C 80 % 4.86 C
1935 07-02-2019 17:10:00 7.9 C 80 % 4.67 C
1936 07-02-2019 17:15:00 7.8 C 80 % 4.57 C
1937 07-02-2019 17:20:00 7.5 C 81 % 4.46 C
1938 07-02-2019 17:25:00 7.4 C 82 % 4.53 C
1939 07-02-2019 17:30:00 7.3 C 83 % 4.61 C
1940 07-02-2019 17:35:00 7.3 C 83 % 4.61 C
1941 07-02-2019 17:40:00 7.2 C 84 % 4.68 C
1942 07-02-2019 17:45:00 7.2 C 84 % 4.68 C
1943 07-02-2019 17:50:00 7.2 C 84 % 4.68 C
1944 07-02-2019 17:55:00 7.2 C 85 % 4.85 C
1945 07-02-2019 18:00:00 7.1 C 84 % 4.58 C
1946 07-02-2019 18:05:00 7.1 C 84 % 4.58 C
1947 07-02-2019 18:10:00 7 C 84 % 4.49 C
1948 07-02-2019 18:15:00 6.9 C 84 % 4.39 C
1949 07-02-2019 18:20:00 6.7 C 83 % 4.02 C
1950 07-02-2019 18:25:00 6.6 C 84 % 4.1 C
Sensor: Nr:Datum:Temp:Feuchte:Taupunkt:
Aussen-T/F 1951 07-02-2019 18:30:00 6.5 C 84 % 4 C
1952 07-02-2019 18:35:00 6.4 C 84 % 3.9 C
1953 07-02-2019 18:40:00 6.3 C 84 % 3.8 C
1954 07-02-2019 18:45:00 6.2 C 84 % 3.7 C
1955 07-02-2019 18:50:00 6.2 C 84 % 3.7 C
1956 07-02-2019 18:55:00 6.2 C 83 % 3.53 C
1957 07-02-2019 19:00:00 6.4 C 82 % 3.56 C
1958 07-02-2019 19:05:00 6.7 C 81 % 3.68 C
1959 07-02-2019 19:10:00 6.8 C 81 % 3.77 C
1960 07-02-2019 19:15:00 6.8 C 81 % 3.77 C
1961 07-02-2019 19:20:00 6.7 C 80 % 3.5 C
1962 07-02-2019 19:25:00 6.7 C 81 % 3.68 C
1963 07-02-2019 19:30:00 6.6 C 81 % 3.58 C
1964 07-02-2019 19:35:00 6.6 C 81 % 3.58 C
1965 07-02-2019 19:40:00 6.7 C 81 % 3.68 C
1966 07-02-2019 19:45:00 6.7 C 81 % 3.68 C
1967 07-02-2019 19:50:00 6.6 C 81 % 3.58 C
1968 07-02-2019 19:55:00 6.5 C 82 % 3.66 C
1969 07-02-2019 20:00:00 6.4 C 83 % 3.73 C
1970 07-02-2019 20:05:00 6.4 C 83 % 3.73 C
1971 07-02-2019 20:10:00 6.4 C 83 % 3.73 C
1972 07-02-2019 20:15:00 6.4 C 83 % 3.73 C
1973 07-02-2019 20:20:00 6.3 C 82 % 3.46 C
1974 07-02-2019 20:25:00 6.3 C 83 % 3.63 C
1975 07-02-2019 20:30:00 6.2 C 83 % 3.53 C
Sensor: Nr:Datum:Temp:Feuchte:Taupunkt:
Aussen-T/F 1976 07-02-2019 20:35:00 6.2 C 83 % 3.53 C
1977 07-02-2019 20:40:00 6.2 C 83 % 3.53 C
1978 07-02-2019 20:45:00 6.2 C 83 % 3.53 C
1979 07-02-2019 20:50:00 6.2 C 84 % 3.7 C
1980 07-02-2019 20:55:00 6.2 C 84 % 3.7 C
1981 07-02-2019 21:00:00 6.2 C 84 % 3.7 C
1982 07-02-2019 21:05:00 6.3 C 84 % 3.8 C
1983 07-02-2019 21:10:00 6.5 C 84 % 4 C
1984 07-02-2019 21:15:00 6.7 C 83 % 4.02 C
1985 07-02-2019 21:20:00 6.9 C 83 % 4.22 C
1986 07-02-2019 21:25:00 7.2 C 82 % 4.34 C
1987 07-02-2019 21:30:00 7.3 C 81 % 4.26 C
1988 07-02-2019 21:35:00 7.3 C 81 % 4.26 C
1989 07-02-2019 21:40:00 7.2 C 81 % 4.16 C
1990 07-02-2019 21:45:00 7.1 C 81 % 4.07 C
1991 07-02-2019 21:50:00 7.1 C 81 % 4.07 C
1992 07-02-2019 21:55:00 7 C 81 % 3.97 C
1993 07-02-2019 22:00:00 6.9 C 81 % 3.87 C
1994 07-02-2019 22:05:00 6.8 C 81 % 3.77 C
1995 07-02-2019 22:10:00 6.7 C 81 % 3.68 C
1996 07-02-2019 22:15:00 6.6 C 81 % 3.58 C
1997 07-02-2019 22:20:00 6.5 C 81 % 3.48 C
1998 07-02-2019 22:25:00 6.4 C 81 % 3.38 C
1999 07-02-2019 22:30:00 6.3 C 82 % 3.46 C
2000 07-02-2019 22:35:00 6.3 C 83 % 3.63 C
Sensor: Nr:Datum:Temp:Feuchte:Taupunkt:
Aussen-T/F 2001 07-02-2019 22:40:00 6.2 C 83 % 3.53 C
2002 07-02-2019 22:45:00 6.2 C 84 % 3.7 C
2003 07-02-2019 22:50:00 6.2 C 84 % 3.7 C
2004 07-02-2019 22:55:00 6.2 C 84 % 3.7 C
2005 07-02-2019 23:00:00 6.2 C 84 % 3.7 C
2006 07-02-2019 23:05:00 6.3 C 84 % 3.8 C
2007 07-02-2019 23:10:00 6.4 C 84 % 3.9 C
2008 07-02-2019 23:15:00 6.3 C 84 % 3.8 C
2009 07-02-2019 23:20:00 6.3 C 84 % 3.8 C
2010 07-02-2019 23:25:00 6.3 C 84 % 3.8 C
2011 07-02-2019 23:30:00 6.3 C 85 % 3.97 C
2012 07-02-2019 23:35:00 6.2 C 84 % 3.7 C
2013 07-02-2019 23:40:00 6.1 C 85 % 3.77 C
2014 07-02-2019 23:45:00 6.1 C 85 % 3.77 C
2015 07-02-2019 23:50:00 6 C 85 % 3.67 C
2016 07-02-2019 23:55:00 5.9 C 85 % 3.58 C
2017 08-02-2019 00:00:00 5.8 C 85 % 3.48 C
2018 08-02-2019 00:05:00 5.7 C 86 % 3.55 C
2019 08-02-2019 00:10:00 5.6 C 86 % 3.45 C
2020 08-02-2019 00:15:00 5.4 C 86 % 3.25 C
2021 08-02-2019 00:20:00 5.3 C 87 % 3.32 C
2022 08-02-2019 00:25:00 5.3 C 88 % 3.48 C
2023 08-02-2019 00:30:00 5.4 C 89 % 3.74 C
2024 08-02-2019 00:35:00 5.4 C 89 % 3.74 C
2025 08-02-2019 00:40:00 5.5 C 88 % 3.67 C
Sensor: Nr:Datum:Temp:Feuchte:Taupunkt:
Aussen-T/F 2026 08-02-2019 00:45:00 5.6 C 88 % 3.77 C
2027 08-02-2019 00:50:00 5.6 C 88 % 3.77 C
2028 08-02-2019 00:55:00 5.7 C 88 % 3.87 C
2029 08-02-2019 01:00:00 5.9 C 88 % 4.07 C
2030 08-02-2019 01:05:00 6 C 87 % 4 C
2031 08-02-2019 01:10:00 6.1 C 86 % 3.94 C
2032 08-02-2019 01:15:00 6.2 C 86 % 4.04 C
2033 08-02-2019 01:20:00 6.1 C 85 % 3.77 C
2034 08-02-2019 01:25:00 5.9 C 85 % 3.58 C
2035 08-02-2019 01:30:00 5.8 C 86 % 3.64 C
2036 08-02-2019 01:35:00 5.7 C 86 % 3.55 C
2037 08-02-2019 01:40:00 5.7 C 87 % 3.71 C
2038 08-02-2019 01:45:00 5.8 C 87 % 3.81 C
2039 08-02-2019 01:50:00 5.8 C 87 % 3.81 C
2040 08-02-2019 01:55:00 5.7 C 87 % 3.71 C
2041 08-02-2019 02:00:00 5.7 C 87 % 3.71 C
2042 08-02-2019 02:05:00 5.7 C 87 % 3.71 C
2043 08-02-2019 02:10:00 5.7 C 87 % 3.71 C
2044 08-02-2019 02:15:00 5.8 C 87 % 3.81 C
2045 08-02-2019 02:20:00 5.8 C 87 % 3.81 C
2046 08-02-2019 02:25:00 5.9 C 87 % 3.91 C
2047 08-02-2019 02:30:00 5.9 C 87 % 3.91 C
2048 08-02-2019 02:35:00 5.9 C 87 % 3.91 C
2049 08-02-2019 02:40:00 5.9 C 87 % 3.91 C
2050 08-02-2019 02:45:00 5.8 C 86 % 3.64 C
Sensor: Nr:Datum:Temp:Feuchte:Taupunkt:
Aussen-T/F 2051 08-02-2019 02:50:00 5.8 C 86 % 3.64 C
2052 08-02-2019 02:55:00 5.7 C 87 % 3.71 C
2053 08-02-2019 03:00:00 5.6 C 87 % 3.61 C
2054 08-02-2019 03:05:00 5.6 C 88 % 3.77 C
2055 08-02-2019 03:10:00 5.7 C 88 % 3.87 C
2056 08-02-2019 03:15:00 5.7 C 88 % 3.87 C
2057 08-02-2019 03:20:00 5.8 C 88 % 3.97 C
2058 08-02-2019 03:25:00 5.8 C 88 % 3.97 C
2059 08-02-2019 03:30:00 5.8 C 87 % 3.81 C
2060 08-02-2019 03:35:00 5.8 C 87 % 3.81 C
2061 08-02-2019 03:40:00 5.8 C 87 % 3.81 C
2062 08-02-2019 03:45:00 5.8 C 87 % 3.81 C
2063 08-02-2019 03:50:00 5.8 C 88 % 3.97 C
2064 08-02-2019 03:55:00 5.8 C 88 % 3.97 C
2065 08-02-2019 04:00:00 5.9 C 88 % 4.07 C
2066 08-02-2019 04:05:00 6.1 C 87 % 4.1 C
2067 08-02-2019 04:10:00 6.2 C 87 % 4.2 C
2068 08-02-2019 04:15:00 6.3 C 86 % 4.14 C
2069 08-02-2019 04:20:00 6.3 C 86 % 4.14 C
2070 08-02-2019 04:25:00 6.3 C 86 % 4.14 C
2071 08-02-2019 04:30:00 6.3 C 86 % 4.14 C
2072 08-02-2019 04:35:00 6.4 C 86 % 4.23 C
2073 08-02-2019 04:40:00 6.4 C 86 % 4.23 C
2074 08-02-2019 04:45:00 6.4 C 86 % 4.23 C
2075 08-02-2019 04:50:00 6.4 C 86 % 4.23 C
Sensor: Nr:Datum:Temp:Feuchte:Taupunkt:
Aussen-T/F 2076 08-02-2019 04:55:00 6.4 C 86 % 4.23 C
2077 08-02-2019 05:00:00 6.3 C 86 % 4.14 C
2078 08-02-2019 05:05:00 6.3 C 86 % 4.14 C
2079 08-02-2019 05:10:00 6.3 C 86 % 4.14 C
2080 08-02-2019 05:15:00 6.3 C 86 % 4.14 C
2081 08-02-2019 05:20:00 6.3 C 86 % 4.14 C
2082 08-02-2019 05:25:00 6.4 C 87 % 4.4 C
2083 08-02-2019 05:30:00 6.4 C 86 % 4.23 C
2084 08-02-2019 05:35:00 6.4 C 86 % 4.23 C
2085 08-02-2019 05:40:00 6.5 C 86 % 4.33 C
2086 08-02-2019 05:45:00 6.5 C 86 % 4.33 C
2087 08-02-2019 05:50:00 6.5 C 86 % 4.33 C
2088 08-02-2019 05:55:00 6.6 C 86 % 4.43 C
2089 08-02-2019 06:00:00 6.5 C 86 % 4.33 C
2090 08-02-2019 06:05:00 6.4 C 86 % 4.23 C
2091 08-02-2019 06:10:00 6.3 C 86 % 4.14 C
2092 08-02-2019 06:15:00 6.3 C 86 % 4.14 C
2093 08-02-2019 06:20:00 6.3 C 87 % 4.3 C
2094 08-02-2019 06:25:00 6.3 C 87 % 4.3 C
2095 08-02-2019 06:30:00 6.3 C 87 % 4.3 C
2096 08-02-2019 06:35:00 6.3 C 87 % 4.3 C
2097 08-02-2019 06:40:00 6.3 C 87 % 4.3 C
2098 08-02-2019 06:45:00 6.3 C 87 % 4.3 C
2099 08-02-2019 06:50:00 6.3 C 87 % 4.3 C
2100 08-02-2019 06:55:00 6.3 C 87 % 4.3 C
Sensor: Nr:Datum:Temp:Feuchte:Taupunkt:
Aussen-T/F 2101 08-02-2019 07:00:00 6.3 C 87 % 4.3 C
2102 08-02-2019 07:05:00 6.3 C 87 % 4.3 C
2103 08-02-2019 07:10:00 6.3 C 87 % 4.3 C
2104 08-02-2019 07:15:00 6.3 C 87 % 4.3 C
2105 08-02-2019 07:20:00 6.3 C 87 % 4.3 C
2106 08-02-2019 07:25:00 6.3 C 87 % 4.3 C
2107 08-02-2019 07:30:00 6.3 C 87 % 4.3 C
2108 08-02-2019 07:35:00 6.4 C 87 % 4.4 C
2109 08-02-2019 07:40:00 6.4 C 87 % 4.4 C
2110 08-02-2019 07:45:00 6.5 C 86 % 4.33 C
2111 08-02-2019 07:50:00 6.6 C 86 % 4.43 C
2112 08-02-2019 07:55:00 6.6 C 86 % 4.43 C
2113 08-02-2019 08:00:00 6.6 C 86 % 4.43 C
2114 08-02-2019 08:05:00 6.6 C 86 % 4.43 C
2115 08-02-2019 08:10:00 6.6 C 86 % 4.43 C
2116 08-02-2019 08:15:00 6.6 C 86 % 4.43 C
2117 08-02-2019 08:20:00 6.6 C 86 % 4.43 C
2118 08-02-2019 08:25:00 6.7 C 86 % 4.53 C
2119 08-02-2019 08:30:00 6.7 C 86 % 4.53 C
2120 08-02-2019 08:35:00 6.7 C 86 % 4.53 C
2121 08-02-2019 08:40:00 6.7 C 86 % 4.53 C
2122 08-02-2019 08:45:00 6.7 C 86 % 4.53 C
2123 08-02-2019 08:50:00 6.8 C 86 % 4.63 C
2124 08-02-2019 08:55:00 6.8 C 86 % 4.63 C
2125 08-02-2019 09:00:00 6.8 C 86 % 4.63 C
Sensor: Nr:Datum:Temp:Feuchte:Taupunkt:
Aussen-T/F 2126 08-02-2019 09:05:00 6.9 C 86 % 4.72 C
2127 08-02-2019 09:10:00 6.9 C 86 % 4.72 C
2128 08-02-2019 09:15:00 6.9 C 86 % 4.72 C
2129 08-02-2019 09:20:00 7 C 86 % 4.82 C
2130 08-02-2019 09:25:00 7.1 C 86 % 4.92 C
2131 08-02-2019 09:30:00 7.1 C 86 % 4.92 C
2132 08-02-2019 09:35:00 7.1 C 85 % 4.75 C
2133 08-02-2019 09:40:00 7.2 C 85 % 4.85 C
2134 08-02-2019 09:45:00 7.2 C 85 % 4.85 C
2135 08-02-2019 09:50:00 7.2 C 85 % 4.85 C
2136 08-02-2019 09:55:00 7.2 C 85 % 4.85 C
2137 08-02-2019 10:00:00 7.2 C 85 % 4.85 C
2138 08-02-2019 10:05:00 7.3 C 85 % 4.95 C
2139 08-02-2019 10:10:00 7.3 C 85 % 4.95 C
2140 08-02-2019 10:15:00 7.3 C 85 % 4.95 C
2141 08-02-2019 10:20:00 7.3 C 85 % 4.95 C
2142 08-02-2019 10:25:00 7.3 C 85 % 4.95 C
2143 08-02-2019 10:30:00 7.4 C 86 % 5.22 C
2144 08-02-2019 10:35:00 7.4 C 85 % 5.05 C
2145 08-02-2019 10:40:00 7.5 C 85 % 5.15 C
2146 08-02-2019 10:45:00 7.6 C 85 % 5.24 C
2147 08-02-2019 10:50:00 7.7 C 85 % 5.34 C
2148 08-02-2019 10:55:00 7.8 C 85 % 5.44 C
2149 08-02-2019 11:00:00 7.9 C 84 % 5.37 C
2150 08-02-2019 11:05:00 8 C 84 % 5.47 C
Sensor: Nr:Datum:Temp:Feuchte:Taupunkt:
Aussen-T/F 2151 08-02-2019 11:10:00 8.1 C 84 % 5.56 C
2152 08-02-2019 11:15:00 8.3 C 83 % 5.59 C
2153 08-02-2019 11:20:00 8.3 C 83 % 5.59 C
2154 08-02-2019 11:25:00 8.5 C 83 % 5.78 C
2155 08-02-2019 11:30:00 8.6 C 82 % 5.71 C
2156 08-02-2019 11:35:00 8.7 C 82 % 5.8 C
2157 08-02-2019 11:40:00 8.7 C 81 % 5.63 C
2158 08-02-2019 11:45:00 8.7 C 81 % 5.63 C
2159 08-02-2019 11:50:00 8.8 C 81 % 5.72 C
2160 08-02-2019 11:55:00 8.8 C 81 % 5.72 C
2161 08-02-2019 12:00:00 8.9 C 82 % 6 C
2162 08-02-2019 12:05:00 9.1 C 80 % 5.84 C
2163 08-02-2019 12:10:00 9.2 C 80 % 5.94 C
2164 08-02-2019 12:15:00 9.3 C 80 % 6.03 C
2165 08-02-2019 12:20:00 9.4 C 80 % 6.13 C
2166 08-02-2019 12:25:00 9.4 C 79 % 5.95 C
2167 08-02-2019 12:30:00 9.6 C 79 % 6.14 C
2168 08-02-2019 12:35:00 9.6 C 79 % 6.14 C
2169 08-02-2019 12:40:00 9.7 C 79 % 6.24 C
2170 08-02-2019 12:45:00 9.7 C 79 % 6.24 C
2171 08-02-2019 12:50:00 9.7 C 78 % 6.06 C
2172 08-02-2019 12:55:00 9.7 C 79 % 6.24 C
2173 08-02-2019 13:00:00 9.7 C 78 % 6.06 C
2174 08-02-2019 13:05:00 9.7 C 79 % 6.24 C
2175 08-02-2019 13:10:00 9.6 C 79 % 6.14 C
Sensor: Nr:Datum:Temp:Feuchte:Taupunkt:
Aussen-T/F 2176 08-02-2019 13:15:00 9.5 C 78 % 5.86 C
2177 08-02-2019 13:20:00 9.4 C 79 % 5.95 C
2178 08-02-2019 13:25:00 9.3 C 79 % 5.85 C
2179 08-02-2019 13:30:00 9.2 C 80 % 5.94 C
2180 08-02-2019 13:35:00 9.1 C 80 % 5.84 C
2181 08-02-2019 13:40:00 8.9 C 80 % 5.64 C
2182 08-02-2019 13:45:00 8.8 C 81 % 5.72 C
2183 08-02-2019 13:50:00 8.7 C 81 % 5.63 C
2184 08-02-2019 13:55:00 8.7 C 81 % 5.63 C
2185 08-02-2019 14:00:00 8.6 C 81 % 5.53 C
2186 08-02-2019 14:05:00 8.5 C 81 % 5.43 C
2187 08-02-2019 14:10:00 8.4 C 81 % 5.33 C
2188 08-02-2019 14:15:00 8.4 C 82 % 5.51 C
2189 08-02-2019 14:20:00 8.4 C 82 % 5.51 C
2190 08-02-2019 14:25:00 8.4 C 82 % 5.51 C
2191 08-02-2019 14:30:00 8.4 C 82 % 5.51 C
2192 08-02-2019 14:35:00 8.4 C 82 % 5.51 C
2193 08-02-2019 14:40:00 8.4 C 82 % 5.51 C
2194 08-02-2019 14:45:00 8.4 C 82 % 5.51 C
2195 08-02-2019 14:50:00 8.3 C 82 % 5.41 C
2196 08-02-2019 14:55:00 8.3 C 82 % 5.41 C
2197 08-02-2019 15:00:00 8.3 C 83 % 5.59 C
2198 08-02-2019 15:05:00 8.3 C 82 % 5.41 C
2199 08-02-2019 15:10:00 8.3 C 82 % 5.41 C
2200 08-02-2019 15:15:00 8.3 C 82 % 5.41 C
Sensor: Nr:Datum:Temp:Feuchte:Taupunkt:
Aussen-T/F 2201 08-02-2019 15:20:00 8.3 C 82 % 5.41 C
2202 08-02-2019 15:25:00 8.3 C 83 % 5.59 C
2203 08-02-2019 15:30:00 8.2 C 83 % 5.49 C
2204 08-02-2019 15:35:00 8.2 C 83 % 5.49 C
2205 08-02-2019 15:40:00 8.2 C 83 % 5.49 C
2206 08-02-2019 15:45:00 8.2 C 83 % 5.49 C
2207 08-02-2019 15:50:00 8.2 C 83 % 5.49 C
2208 08-02-2019 15:55:00 8.2 C 83 % 5.49 C
2209 08-02-2019 16:00:00 8.2 C 83 % 5.49 C
2210 08-02-2019 16:05:00 8.2 C 83 % 5.49 C
2211 08-02-2019 16:10:00 8.3 C 83 % 5.59 C
2212 08-02-2019 16:15:00 8.3 C 83 % 5.59 C
2213 08-02-2019 16:20:00 8.3 C 82 % 5.41 C
2214 08-02-2019 16:25:00 8.3 C 82 % 5.41 C
2215 08-02-2019 16:30:00 8.3 C 83 % 5.59 C
2216 08-02-2019 16:35:00 8.3 C 83 % 5.59 C
2217 08-02-2019 16:40:00 8.3 C 83 % 5.59 C
2218 08-02-2019 16:45:00 8.3 C 83 % 5.59 C
2219 08-02-2019 16:50:00 8.3 C 83 % 5.59 C
2220 08-02-2019 16:55:00 8.3 C 82 % 5.41 C
2221 08-02-2019 17:00:00 8.3 C 82 % 5.41 C
2222 08-02-2019 17:05:00 8.3 C 82 % 5.41 C
2223 08-02-2019 17:10:00 8.3 C 82 % 5.41 C
2224 08-02-2019 17:15:00 8.3 C 82 % 5.41 C
2225 08-02-2019 17:20:00 8.3 C 82 % 5.41 C
Sensor: Nr:Datum:Temp:Feuchte:Taupunkt:
Aussen-T/F 2226 08-02-2019 17:25:00 8.2 C 82 % 5.32 C
2227 08-02-2019 17:30:00 8.2 C 82 % 5.32 C
2228 08-02-2019 17:35:00 8.2 C 82 % 5.32 C
2229 08-02-2019 17:40:00 8.2 C 82 % 5.32 C
2230 08-02-2019 17:45:00 8.1 C 82 % 5.22 C
2231 08-02-2019 17:50:00 8.1 C 82 % 5.22 C
2232 08-02-2019 17:55:00 8.1 C 82 % 5.22 C
2233 08-02-2019 18:00:00 8 C 83 % 5.29 C
2234 08-02-2019 18:05:00 8 C 83 % 5.29 C
2235 08-02-2019 18:10:00 7.9 C 83 % 5.2 C
2236 08-02-2019 18:15:00 7.9 C 83 % 5.2 C
2237 08-02-2019 18:20:00 8 C 83 % 5.29 C
2238 08-02-2019 18:25:00 8 C 83 % 5.29 C
2239 08-02-2019 18:30:00 8.1 C 82 % 5.22 C
2240 08-02-2019 18:35:00 8.1 C 82 % 5.22 C
2241 08-02-2019 18:40:00 8.2 C 82 % 5.32 C
2242 08-02-2019 18:45:00 8.2 C 81 % 5.14 C
2243 08-02-2019 18:50:00 8.2 C 81 % 5.14 C
2244 08-02-2019 18:55:00 8.2 C 82 % 5.32 C
2245 08-02-2019 19:00:00 8.2 C 81 % 5.14 C
2246 08-02-2019 19:05:00 8.2 C 81 % 5.14 C
2247 08-02-2019 19:10:00 8.2 C 81 % 5.14 C
2248 08-02-2019 19:15:00 8.2 C 81 % 5.14 C
2249 08-02-2019 19:20:00 8.2 C 81 % 5.14 C
2250 08-02-2019 19:25:00 8.2 C 81 % 5.14 C
Sensor: Nr:Datum:Temp:Feuchte:Taupunkt:
Aussen-T/F 2251 08-02-2019 19:30:00 8.2 C 81 % 5.14 C
2252 08-02-2019 19:35:00 8.2 C 81 % 5.14 C
2253 08-02-2019 19:40:00 8.2 C 81 % 5.14 C
2254 08-02-2019 19:45:00 8.2 C 81 % 5.14 C
2255 08-02-2019 19:50:00 8.3 C 81 % 5.24 C
2256 08-02-2019 19:55:00 8.3 C 81 % 5.24 C
2257 08-02-2019 20:00:00 8.3 C 81 % 5.24 C
2258 08-02-2019 20:05:00 8.3 C 81 % 5.24 C
2259 08-02-2019 20:10:00 8.3 C 80 % 5.06 C
2260 08-02-2019 20:15:00 8.3 C 81 % 5.24 C
2261 08-02-2019 20:20:00 8.2 C 80 % 4.96 C
2262 08-02-2019 20:25:00 8.2 C 80 % 4.96 C
2263 08-02-2019 20:30:00 8.3 C 80 % 5.06 C
2264 08-02-2019 20:35:00 8.2 C 80 % 4.96 C
2265 08-02-2019 20:40:00 8.2 C 80 % 4.96 C
2266 08-02-2019 20:45:00 8.2 C 80 % 4.96 C
2267 08-02-2019 20:50:00 8.2 C 80 % 4.96 C
2268 08-02-2019 20:55:00 8.1 C 81 % 5.04 C
2269 08-02-2019 21:00:00 8.1 C 80 % 4.86 C
2270 08-02-2019 21:05:00 8.2 C 80 % 4.96 C
2271 08-02-2019 21:10:00 8.2 C 80 % 4.96 C
2272 08-02-2019 21:15:00 8.1 C 80 % 4.86 C
2273 08-02-2019 21:20:00 8.1 C 80 % 4.86 C
2274 08-02-2019 21:25:00 8.1 C 80 % 4.86 C
2275 08-02-2019 21:30:00 8.1 C 81 % 5.04 C
Sensor: Nr:Datum:Temp:Feuchte:Taupunkt:
Aussen-T/F 2276 08-02-2019 21:35:00 8.1 C 80 % 4.86 C
2277 08-02-2019 21:40:00 8.1 C 80 % 4.86 C
2278 08-02-2019 21:45:00 8 C 80 % 4.77 C
2279 08-02-2019 21:50:00 7.9 C 80 % 4.67 C
2280 08-02-2019 21:55:00 7.9 C 80 % 4.67 C
2281 08-02-2019 22:00:00 7.9 C 80 % 4.67 C
2282 08-02-2019 22:05:00 7.8 C 80 % 4.57 C
2283 08-02-2019 22:10:00 7.8 C 81 % 4.75 C
2284 08-02-2019 22:15:00 7.7 C 81 % 4.65 C
2285 08-02-2019 22:20:00 7.6 C 81 % 4.55 C
2286 08-02-2019 22:25:00 7.7 C 81 % 4.65 C
2287 08-02-2019 22:30:00 7.7 C 81 % 4.65 C
2288 08-02-2019 22:35:00 7.8 C 81 % 4.75 C
2289 08-02-2019 22:40:00 7.8 C 81 % 4.75 C
2290 08-02-2019 22:45:00 7.7 C 81 % 4.65 C
2291 08-02-2019 22:50:00 7.8 C 80 % 4.57 C
2292 08-02-2019 22:55:00 7.8 C 80 % 4.57 C
2293 08-02-2019 23:00:00 7.9 C 80 % 4.67 C
2294 08-02-2019 23:05:00 7.9 C 80 % 4.67 C
2295 08-02-2019 23:10:00 8.1 C 80 % 4.86 C
2296 08-02-2019 23:15:00 8.1 C 79 % 4.68 C
2297 08-02-2019 23:20:00 8.1 C 79 % 4.68 C
2298 08-02-2019 23:25:00 8.1 C 79 % 4.68 C
2299 08-02-2019 23:30:00 8.1 C 79 % 4.68 C
2300 08-02-2019 23:35:00 8.1 C 80 % 4.86 C
Sensor: Nr:Datum:Temp:Feuchte:Taupunkt:
Aussen-T/F 2301 08-02-2019 23:40:00 8.1 C 79 % 4.68 C
2302 08-02-2019 23:45:00 8.2 C 79 % 4.78 C
2303 08-02-2019 23:50:00 8.2 C 79 % 4.78 C
2304 08-02-2019 23:55:00 8.3 C 78 % 4.7 C
2305 09-02-2019 00:00:00 8.3 C 79 % 4.88 C
2306 09-02-2019 00:05:00 8.2 C 78 % 4.6 C
2307 09-02-2019 00:10:00 8.2 C 79 % 4.78 C
2308 09-02-2019 00:15:00 8.2 C 79 % 4.78 C
2309 09-02-2019 00:20:00 8.2 C 78 % 4.6 C
2310 09-02-2019 00:25:00 8.3 C 78 % 4.7 C
2311 09-02-2019 00:30:00 8.3 C 78 % 4.7 C
2312 09-02-2019 00:35:00 8.4 C 78 % 4.79 C
2313 09-02-2019 00:40:00 8.4 C 77 % 4.61 C
2314 09-02-2019 00:45:00 8.4 C 77 % 4.61 C
2315 09-02-2019 00:50:00 8.3 C 77 % 4.51 C
2316 09-02-2019 00:55:00 8.3 C 77 % 4.51 C
2317 09-02-2019 01:00:00 8.3 C 78 % 4.7 C
2318 09-02-2019 01:05:00 8.3 C 78 % 4.7 C
2319 09-02-2019 01:10:00 8.2 C 79 % 4.78 C
2320 09-02-2019 01:15:00 8.1 C 82 % 5.22 C
2321 09-02-2019 01:20:00 7.9 C 81 % 4.85 C
2322 09-02-2019 01:25:00 7.8 C 81 % 4.75 C
2323 09-02-2019 01:30:00 7.7 C 82 % 4.83 C
2324 09-02-2019 01:35:00 7.6 C 82 % 4.73 C
2325 09-02-2019 01:40:00 7.5 C 83 % 4.81 C
Sensor: Nr:Datum:Temp:Feuchte:Taupunkt:
Aussen-T/F 2326 09-02-2019 01:45:00 7.4 C 83 % 4.71 C
2327 09-02-2019 01:50:00 7.4 C 84 % 4.88 C
2328 09-02-2019 01:55:00 7.3 C 84 % 4.78 C
2329 09-02-2019 02:00:00 7.3 C 85 % 4.95 C
2330 09-02-2019 02:05:00 7.3 C 85 % 4.95 C
2331 09-02-2019 02:10:00 7.3 C 86 % 5.12 C
2332 09-02-2019 02:15:00 7.3 C 86 % 5.12 C
2333 09-02-2019 02:20:00 7.4 C 86 % 5.22 C
2334 09-02-2019 02:25:00 7.4 C 86 % 5.22 C
2335 09-02-2019 02:30:00 7.5 C 86 % 5.31 C
2336 09-02-2019 02:35:00 7.6 C 86 % 5.41 C
2337 09-02-2019 02:40:00 7.6 C 85 % 5.24 C
2338 09-02-2019 02:45:00 7.6 C 85 % 5.24 C
2339 09-02-2019 02:50:00 7.7 C 85 % 5.34 C
2340 09-02-2019 02:55:00 7.7 C 85 % 5.34 C
2341 09-02-2019 03:00:00 7.7 C 85 % 5.34 C
2342 09-02-2019 03:05:00 7.8 C 85 % 5.44 C
2343 09-02-2019 03:10:00 7.8 C 85 % 5.44 C
2344 09-02-2019 03:15:00 7.9 C 85 % 5.54 C
2345 09-02-2019 03:20:00 8 C 84 % 5.47 C
2346 09-02-2019 03:25:00 8.1 C 84 % 5.56 C
2347 09-02-2019 03:30:00 8.1 C 84 % 5.56 C
2348 09-02-2019 03:35:00 8.2 C 84 % 5.66 C
2349 09-02-2019 03:40:00 8.3 C 84 % 5.76 C
2350 09-02-2019 03:45:00 8.3 C 84 % 5.76 C
Sensor: Nr:Datum:Temp:Feuchte:Taupunkt:
Aussen-T/F 2351 09-02-2019 03:50:00 8.3 C 84 % 5.76 C
2352 09-02-2019 03:55:00 8.4 C 83 % 5.69 C
2353 09-02-2019 04:00:00 8.6 C 83 % 5.88 C
2354 09-02-2019 04:05:00 8.7 C 82 % 5.8 C
2355 09-02-2019 04:10:00 8.8 C 81 % 5.72 C
2356 09-02-2019 04:15:00 8.9 C 81 % 5.82 C
2357 09-02-2019 04:20:00 8.9 C 81 % 5.82 C
2358 09-02-2019 04:25:00 9.1 C 81 % 6.02 C
2359 09-02-2019 04:30:00 9.1 C 82 % 6.19 C
2360 09-02-2019 04:35:00 9.1 C 82 % 6.19 C
2361 09-02-2019 04:40:00 9.1 C 83 % 6.37 C
2362 09-02-2019 04:45:00 8.9 C 83 % 6.17 C
2363 09-02-2019 04:50:00 8.9 C 83 % 6.17 C
2364 09-02-2019 04:55:00 8.8 C 83 % 6.08 C
2365 09-02-2019 05:00:00 8.7 C 83 % 5.98 C
2366 09-02-2019 05:05:00 8.6 C 83 % 5.88 C
2367 09-02-2019 05:10:00 8.5 C 84 % 5.96 C
2368 09-02-2019 05:15:00 8.4 C 84 % 5.86 C
2369 09-02-2019 05:20:00 8.3 C 84 % 5.76 C
2370 09-02-2019 05:25:00 8.3 C 84 % 5.76 C
2371 09-02-2019 05:30:00 8.2 C 84 % 5.66 C
2372 09-02-2019 05:35:00 8.1 C 84 % 5.56 C
2373 09-02-2019 05:40:00 8 C 84 % 5.47 C
2374 09-02-2019 05:45:00 7.9 C 84 % 5.37 C
2375 09-02-2019 05:50:00 8 C 83 % 5.29 C
Sensor: Nr:Datum:Temp:Feuchte:Taupunkt:
Aussen-T/F 2376 09-02-2019 05:55:00 8.1 C 83 % 5.39 C
2377 09-02-2019 06:00:00 8.1 C 83 % 5.39 C
2378 09-02-2019 06:05:00 8 C 83 % 5.29 C
2379 09-02-2019 06:10:00 7.9 C 83 % 5.2 C
2380 09-02-2019 06:15:00 7.8 C 83 % 5.1 C
2381 09-02-2019 06:20:00 7.8 C 83 % 5.1 C
2382 09-02-2019 06:25:00 7.7 C 83 % 5 C
2383 09-02-2019 06:30:00 7.7 C 83 % 5 C
2384 09-02-2019 06:35:00 7.7 C 82 % 4.83 C
2385 09-02-2019 06:40:00 7.7 C 82 % 4.83 C
2386 09-02-2019 06:45:00 7.7 C 83 % 5 C
2387 09-02-2019 06:50:00 7.7 C 83 % 5 C
2388 09-02-2019 06:55:00 7.8 C 83 % 5.1 C
2389 09-02-2019 07:00:00 7.8 C 83 % 5.1 C
2390 09-02-2019 07:05:00 7.8 C 84 % 5.27 C
2391 09-02-2019 07:10:00 7.8 C 84 % 5.27 C
2392 09-02-2019 07:15:00 7.7 C 85 % 5.34 C
2393 09-02-2019 07:20:00 7.7 C 85 % 5.34 C
2394 09-02-2019 07:25:00 7.5 C 86 % 5.31 C
2395 09-02-2019 07:30:00 7.4 C 86 % 5.22 C
2396 09-02-2019 07:35:00 7.3 C 86 % 5.12 C
2397 09-02-2019 07:40:00 7.3 C 87 % 5.28 C
2398 09-02-2019 07:45:00 7.2 C 87 % 5.19 C
2399 09-02-2019 07:50:00 7.2 C 87 % 5.19 C
2400 09-02-2019 07:55:00 7.2 C 87 % 5.19 C
Sensor: Nr:Datum:Temp:Feuchte:Taupunkt:
Aussen-T/F 2401 09-02-2019 08:00:00 7.3 C 87 % 5.28 C
2402 09-02-2019 08:05:00 7.4 C 86 % 5.22 C
2403 09-02-2019 08:10:00 7.4 C 86 % 5.22 C
2404 09-02-2019 08:15:00 7.4 C 86 % 5.22 C
2405 09-02-2019 08:20:00 7.3 C 86 % 5.12 C
2406 09-02-2019 08:25:00 7.3 C 87 % 5.28 C
2407 09-02-2019 08:30:00 7.2 C 87 % 5.19 C
2408 09-02-2019 08:35:00 7.1 C 87 % 5.09 C
2409 09-02-2019 08:40:00 7 C 87 % 4.99 C
2410 09-02-2019 08:45:00 7 C 87 % 4.99 C
2411 09-02-2019 08:50:00 7.1 C 86 % 4.92 C
2412 09-02-2019 08:55:00 7.2 C 85 % 4.85 C
2413 09-02-2019 09:00:00 7.3 C 84 % 4.78 C
2414 09-02-2019 09:05:00 7.3 C 84 % 4.78 C
2415 09-02-2019 09:10:00 7.3 C 84 % 4.78 C
2416 09-02-2019 09:15:00 7.3 C 83 % 4.61 C
2417 09-02-2019 09:20:00 7.6 C 83 % 4.9 C
2418 09-02-2019 09:25:00 7.6 C 83 % 4.9 C
2419 09-02-2019 09:30:00 7.8 C 82 % 4.92 C
2420 09-02-2019 09:35:00 7.9 C 81 % 4.85 C
2421 09-02-2019 09:40:00 8.1 C 81 % 5.04 C
2422 09-02-2019 09:45:00 8.1 C 81 % 5.04 C
2423 09-02-2019 09:50:00 8.2 C 81 % 5.14 C
2424 09-02-2019 09:55:00 8.3 C 81 % 5.24 C
2425 09-02-2019 10:00:00 8.4 C 81 % 5.33 C
Sensor: Nr:Datum:Temp:Feuchte:Taupunkt:
Aussen-T/F 2426 09-02-2019 10:05:00 8.6 C 80 % 5.35 C
2427 09-02-2019 10:10:00 8.7 C 80 % 5.45 C
2428 09-02-2019 10:15:00 8.8 C 79 % 5.36 C
2429 09-02-2019 10:20:00 8.9 C 79 % 5.46 C
2430 09-02-2019 10:25:00 8.9 C 79 % 5.46 C
2431 09-02-2019 10:30:00 8.9 C 79 % 5.46 C
2432 09-02-2019 10:35:00 9 C 79 % 5.56 C
2433 09-02-2019 10:40:00 9 C 79 % 5.56 C
2434 09-02-2019 10:45:00 9 C 79 % 5.56 C
2435 09-02-2019 10:50:00 9 C 79 % 5.56 C
2436 09-02-2019 10:55:00 9 C 79 % 5.56 C
2437 09-02-2019 11:00:00 9.1 C 79 % 5.66 C
2438 09-02-2019 11:05:00 9.1 C 79 % 5.66 C
2439 09-02-2019 11:10:00 9.1 C 79 % 5.66 C
2440 09-02-2019 11:15:00 9.2 C 79 % 5.75 C
2441 09-02-2019 11:20:00 9.2 C 78 % 5.57 C
2442 09-02-2019 11:25:00 9.2 C 78 % 5.57 C
2443 09-02-2019 11:30:00 9.2 C 77 % 5.38 C
2444 09-02-2019 11:35:00 9.3 C 77 % 5.48 C
2445 09-02-2019 11:40:00 9.4 C 77 % 5.58 C
2446 09-02-2019 11:45:00 9.6 C 77 % 5.77 C
2447 09-02-2019 11:50:00 9.6 C 76 % 5.58 C
2448 09-02-2019 11:55:00 9.7 C 76 % 5.68 C
2449 09-02-2019 12:00:00 9.7 C 76 % 5.68 C
2450 09-02-2019 12:05:00 9.7 C 76 % 5.68 C
Sensor: Nr:Datum:Temp:Feuchte:Taupunkt:
Aussen-T/F 2451 09-02-2019 12:10:00 9.8 C 75 % 5.59 C
2452 09-02-2019 12:15:00 9.8 C 75 % 5.59 C
2453 09-02-2019 12:20:00 9.8 C 74 % 5.39 C
2454 09-02-2019 12:25:00 9.9 C 74 % 5.49 C
2455 09-02-2019 12:30:00 9.9 C 74 % 5.49 C
2456 09-02-2019 12:35:00 10 C 74 % 5.59 C
2457 09-02-2019 12:40:00 10.1 C 73 % 5.49 C
2458 09-02-2019 12:45:00 10.2 C 73 % 5.58 C
2459 09-02-2019 12:50:00 10.3 C 72 % 5.48 C
2460 09-02-2019 12:55:00 10.5 C 71 % 5.47 C
2461 09-02-2019 13:00:00 10.6 C 71 % 5.57 C
2462 09-02-2019 13:05:00 10.6 C 70 % 5.36 C
2463 09-02-2019 13:10:00 10.6 C 71 % 5.57 C
2464 09-02-2019 13:15:00 10.6 C 72 % 5.77 C
2465 09-02-2019 13:20:00 10.6 C 71 % 5.57 C
2466 09-02-2019 13:25:00 10.7 C 72 % 5.87 C
2467 09-02-2019 13:30:00 10.7 C 70 % 5.46 C
2468 09-02-2019 13:35:00 10.8 C 69 % 5.35 C
2469 09-02-2019 13:40:00 10.9 C 68 % 5.23 C
2470 09-02-2019 13:45:00 10.9 C 69 % 5.44 C
2471 09-02-2019 13:50:00 10.9 C 69 % 5.44 C
2472 09-02-2019 13:55:00 10.9 C 69 % 5.44 C
2473 09-02-2019 14:00:00 11 C 68 % 5.33 C
2474 09-02-2019 14:05:00 11.1 C 68 % 5.43 C
2475 09-02-2019 14:10:00 11.2 C 68 % 5.52 C
Sensor: Nr:Datum:Temp:Feuchte:Taupunkt:
Aussen-T/F 2476 09-02-2019 14:15:00 11.2 C 67 % 5.31 C
2477 09-02-2019 14:20:00 11.2 C 68 % 5.52 C
2478 09-02-2019 14:25:00 11.2 C 68 % 5.52 C
2479 09-02-2019 14:30:00 11.1 C 68 % 5.43 C
2480 09-02-2019 14:35:00 11.1 C 67 % 5.21 C
2481 09-02-2019 14:40:00 11.1 C 68 % 5.43 C
2482 09-02-2019 14:45:00 11.1 C 68 % 5.43 C
2483 09-02-2019 14:50:00 11.1 C 67 % 5.21 C
2484 09-02-2019 14:55:00 11.1 C 67 % 5.21 C
2485 09-02-2019 15:00:00 10.9 C 67 % 5.02 C
2486 09-02-2019 15:05:00 10.9 C 67 % 5.02 C
2487 09-02-2019 15:10:00 10.8 C 67 % 4.93 C
2488 09-02-2019 15:15:00 10.7 C 67 % 4.83 C
2489 09-02-2019 15:20:00 10.7 C 68 % 5.04 C
2490 09-02-2019 15:25:00 10.6 C 69 % 5.16 C
2491 09-02-2019 15:30:00 10.5 C 69 % 5.06 C
2492 09-02-2019 15:35:00 10.5 C 69 % 5.06 C
2493 09-02-2019 15:40:00 10.5 C 69 % 5.06 C
2494 09-02-2019 15:45:00 10.4 C 69 % 4.97 C
2495 09-02-2019 15:50:00 10.4 C 70 % 5.17 C
2496 09-02-2019 15:55:00 10.4 C 70 % 5.17 C
2497 09-02-2019 16:00:00 10.4 C 69 % 4.97 C
2498 09-02-2019 16:05:00 10.4 C 70 % 5.17 C
2499 09-02-2019 16:10:00 10.3 C 71 % 5.28 C
2500 09-02-2019 16:15:00 10.2 C 72 % 5.39 C
Sensor: Nr:Datum:Temp:Feuchte:Taupunkt:
Aussen-T/F 2501 09-02-2019 16:20:00 10.1 C 72 % 5.29 C
2502 09-02-2019 16:25:00 10.1 C 72 % 5.29 C
2503 09-02-2019 16:30:00 10 C 73 % 5.39 C
2504 09-02-2019 16:35:00 9.9 C 73 % 5.29 C
2505 09-02-2019 16:40:00 9.9 C 72 % 5.1 C
2506 09-02-2019 16:45:00 9.9 C 73 % 5.29 C
2507 09-02-2019 16:50:00 9.8 C 73 % 5.2 C
2508 09-02-2019 16:55:00 9.8 C 73 % 5.2 C
2509 09-02-2019 17:00:00 9.8 C 72 % 5 C
2510 09-02-2019 17:05:00 9.7 C 72 % 4.9 C
2511 09-02-2019 17:10:00 9.7 C 73 % 5.1 C
2512 09-02-2019 17:15:00 9.6 C 74 % 5.2 C
2513 09-02-2019 17:20:00 9.5 C 74 % 5.1 C
2514 09-02-2019 17:25:00 9.4 C 74 % 5.01 C
2515 09-02-2019 17:30:00 9.3 C 74 % 4.91 C
2516 09-02-2019 17:35:00 9.3 C 74 % 4.91 C
2517 09-02-2019 17:40:00 9.2 C 75 % 5.01 C
2518 09-02-2019 17:45:00 9.1 C 75 % 4.91 C
2519 09-02-2019 17:50:00 9 C 75 % 4.81 C
2520 09-02-2019 17:55:00 8.9 C 76 % 4.91 C
2521 09-02-2019 18:00:00 8.8 C 76 % 4.81 C
2522 09-02-2019 18:05:00 8.8 C 77 % 5 C
2523 09-02-2019 18:10:00 8.7 C 77 % 4.9 C
2524 09-02-2019 18:15:00 8.6 C 78 % 4.99 C
2525 09-02-2019 18:20:00 8.6 C 78 % 4.99 C
Sensor: Nr:Datum:Temp:Feuchte:Taupunkt:
Aussen-T/F 2526 09-02-2019 18:25:00 8.5 C 78 % 4.89 C
2527 09-02-2019 18:30:00 8.4 C 79 % 4.98 C
2528 09-02-2019 18:35:00 8.4 C 79 % 4.98 C
2529 09-02-2019 18:40:00 8.4 C 78 % 4.79 C
2530 09-02-2019 18:45:00 8.4 C 79 % 4.98 C
2531 09-02-2019 18:50:00 8.4 C 79 % 4.98 C
2532 09-02-2019 18:55:00 8.5 C 80 % 5.25 C
2533 09-02-2019 19:00:00 8.6 C 81 % 5.53 C
2534 09-02-2019 19:05:00 8.4 C 84 % 5.86 C
2535 09-02-2019 19:10:00 8.2 C 85 % 5.83 C
2536 09-02-2019 19:15:00 8 C 86 % 5.81 C
2537 09-02-2019 19:20:00 7.8 C 86 % 5.61 C
2538 09-02-2019 19:25:00 7.7 C 86 % 5.51 C
2539 09-02-2019 19:30:00 7.7 C 86 % 5.51 C
2540 09-02-2019 19:35:00 7.6 C 86 % 5.41 C
2541 09-02-2019 19:40:00 7.6 C 85 % 5.24 C
2542 09-02-2019 19:45:00 7.6 C 84 % 5.07 C
2543 09-02-2019 19:50:00 7.6 C 84 % 5.07 C
2544 09-02-2019 19:55:00 7.6 C 84 % 5.07 C
2545 09-02-2019 20:00:00 7.5 C 84 % 4.98 C
2546 09-02-2019 20:05:00 7.4 C 84 % 4.88 C
2547 09-02-2019 20:10:00 7.3 C 84 % 4.78 C
2548 09-02-2019 20:15:00 7.2 C 85 % 4.85 C
2549 09-02-2019 20:20:00 7.2 C 85 % 4.85 C
2550 09-02-2019 20:25:00 7.1 C 86 % 4.92 C
Sensor: Nr:Datum:Temp:Feuchte:Taupunkt:
Aussen-T/F 2551 09-02-2019 20:30:00 7.1 C 86 % 4.92 C
2552 09-02-2019 20:35:00 7.2 C 87 % 5.19 C
2553 09-02-2019 20:40:00 7.2 C 87 % 5.19 C
2554 09-02-2019 20:45:00 7.2 C 87 % 5.19 C
2555 09-02-2019 20:50:00 7.3 C 87 % 5.28 C
2556 09-02-2019 20:55:00 7.3 C 87 % 5.28 C
2557 09-02-2019 21:00:00 7.4 C 87 % 5.38 C
2558 09-02-2019 21:05:00 7.5 C 86 % 5.31 C
2559 09-02-2019 21:10:00 7.5 C 86 % 5.31 C
2560 09-02-2019 21:15:00 7.5 C 86 % 5.31 C
2561 09-02-2019 21:20:00 7.6 C 86 % 5.41 C
2562 09-02-2019 21:25:00 7.6 C 86 % 5.41 C
2563 09-02-2019 21:30:00 7.6 C 86 % 5.41 C
2564 09-02-2019 21:35:00 7.6 C 86 % 5.41 C
2565 09-02-2019 21:40:00 7.7 C 86 % 5.51 C
2566 09-02-2019 21:45:00 7.7 C 86 % 5.51 C
2567 09-02-2019 21:50:00 7.8 C 85 % 5.44 C
2568 09-02-2019 21:55:00 7.8 C 85 % 5.44 C
2569 09-02-2019 22:00:00 7.9 C 85 % 5.54 C
2570 09-02-2019 22:05:00 7.9 C 85 % 5.54 C
2571 09-02-2019 22:10:00 7.9 C 85 % 5.54 C
2572 09-02-2019 22:15:00 8.1 C 84 % 5.56 C
2573 09-02-2019 22:20:00 8.1 C 84 % 5.56 C
2574 09-02-2019 22:25:00 8.1 C 84 % 5.56 C
2575 09-02-2019 22:30:00 8.2 C 84 % 5.66 C
Sensor: Nr:Datum:Temp:Feuchte:Taupunkt:
Aussen-T/F 2576 09-02-2019 22:35:00 8.3 C 83 % 5.59 C
2577 09-02-2019 22:40:00 8.3 C 83 % 5.59 C
2578 09-02-2019 22:45:00 8.3 C 83 % 5.59 C
2579 09-02-2019 22:50:00 8.4 C 83 % 5.69 C
2580 09-02-2019 22:55:00 8.4 C 82 % 5.51 C
2581 09-02-2019 23:00:00 8.6 C 82 % 5.71 C
2582 09-02-2019 23:05:00 8.6 C 82 % 5.71 C
2583 09-02-2019 23:10:00 8.6 C 82 % 5.71 C
2584 09-02-2019 23:15:00 8.6 C 82 % 5.71 C
2585 09-02-2019 23:20:00 8.6 C 82 % 5.71 C
2586 09-02-2019 23:25:00 8.6 C 82 % 5.71 C
2587 09-02-2019 23:30:00 8.6 C 82 % 5.71 C
2588 09-02-2019 23:35:00 8.6 C 82 % 5.71 C
2589 09-02-2019 23:40:00 8.6 C 82 % 5.71 C
2590 09-02-2019 23:45:00 8.7 C 82 % 5.8 C
2591 09-02-2019 23:50:00 8.7 C 82 % 5.8 C
2592 09-02-2019 23:55:00 8.7 C 82 % 5.8 C
2593 10-02-2019 00:00:00 8.7 C 82 % 5.8 C
2594 10-02-2019 00:05:00 8.7 C 82 % 5.8 C
2595 10-02-2019 00:10:00 8.7 C 82 % 5.8 C
2596 10-02-2019 00:15:00 8.7 C 82 % 5.8 C
2597 10-02-2019 00:20:00 8.7 C 82 % 5.8 C
2598 10-02-2019 00:25:00 8.7 C 82 % 5.8 C
2599 10-02-2019 00:30:00 8.7 C 82 % 5.8 C
2600 10-02-2019 00:35:00 8.6 C 82 % 5.71 C
Sensor: Nr:Datum:Temp:Feuchte:Taupunkt:
Aussen-T/F 2601 10-02-2019 00:40:00 8.6 C 82 % 5.71 C
2602 10-02-2019 00:45:00 8.5 C 82 % 5.61 C
2603 10-02-2019 00:50:00 8.4 C 82 % 5.51 C
2604 10-02-2019 00:55:00 8.4 C 82 % 5.51 C
2605 10-02-2019 01:00:00 8.3 C 83 % 5.59 C
2606 10-02-2019 01:05:00 8.2 C 83 % 5.49 C
2607 10-02-2019 01:10:00 8.1 C 83 % 5.39 C
2608 10-02-2019 01:15:00 8.1 C 83 % 5.39 C
2609 10-02-2019 01:20:00 7.9 C 83 % 5.2 C
2610 10-02-2019 01:25:00 7.9 C 84 % 5.37 C
2611 10-02-2019 01:30:00 7.8 C 84 % 5.27 C
2612 10-02-2019 01:35:00 7.7 C 84 % 5.17 C
2613 10-02-2019 01:40:00 7.6 C 85 % 5.24 C
2614 10-02-2019 01:45:00 7.5 C 85 % 5.15 C
2615 10-02-2019 01:50:00 7.6 C 85 % 5.24 C
2616 10-02-2019 01:55:00 7.5 C 85 % 5.15 C
2617 10-02-2019 02:00:00 7.4 C 85 % 5.05 C
2618 10-02-2019 02:05:00 7.4 C 85 % 5.05 C
2619 10-02-2019 02:10:00 7.4 C 85 % 5.05 C
2620 10-02-2019 02:15:00 7.3 C 85 % 4.95 C
2621 10-02-2019 02:20:00 7.3 C 85 % 4.95 C
2622 10-02-2019 02:25:00 7.3 C 85 % 4.95 C
2623 10-02-2019 02:30:00 7.4 C 85 % 5.05 C
2624 10-02-2019 02:35:00 7.4 C 85 % 5.05 C
2625 10-02-2019 02:40:00 7.5 C 84 % 4.98 C
Sensor: Nr:Datum:Temp:Feuchte:Taupunkt:
Aussen-T/F 2626 10-02-2019 02:45:00 7.6 C 84 % 5.07 C
2627 10-02-2019 02:50:00 7.5 C 84 % 4.98 C
2628 10-02-2019 02:55:00 7.5 C 84 % 4.98 C
2629 10-02-2019 03:00:00 7.5 C 84 % 4.98 C
2630 10-02-2019 03:05:00 7.4 C 84 % 4.88 C
2631 10-02-2019 03:10:00 7.6 C 84 % 5.07 C
2632 10-02-2019 03:15:00 7.7 C 83 % 5 C
2633 10-02-2019 03:20:00 7.7 C 83 % 5 C
2634 10-02-2019 03:25:00 7.7 C 83 % 5 C
2635 10-02-2019 03:30:00 7.6 C 83 % 4.9 C
2636 10-02-2019 03:35:00 7.6 C 84 % 5.07 C
2637 10-02-2019 03:40:00 7.7 C 84 % 5.17 C
2638 10-02-2019 03:45:00 7.7 C 85 % 5.34 C
2639 10-02-2019 03:50:00 7.6 C 86 % 5.41 C
2640 10-02-2019 03:55:00 7.5 C 87 % 5.48 C
2641 10-02-2019 04:00:00 7.4 C 88 % 5.55 C
2642 10-02-2019 04:05:00 7.3 C 89 % 5.61 C
2643 10-02-2019 04:10:00 7.2 C 90 % 5.67 C
2644 10-02-2019 04:15:00 7.1 C 90 % 5.57 C
2645 10-02-2019 04:20:00 6.9 C 90 % 5.38 C
2646 10-02-2019 04:25:00 6.9 C 90 % 5.38 C
2647 10-02-2019 04:30:00 6.9 C 90 % 5.38 C
2648 10-02-2019 04:35:00 6.9 C 91 % 5.54 C
2649 10-02-2019 04:40:00 6.8 C 91 % 5.44 C
2650 10-02-2019 04:45:00 6.8 C 92 % 5.59 C
Sensor: Nr:Datum:Temp:Feuchte:Taupunkt:
Aussen-T/F 2651 10-02-2019 04:50:00 6.8 C 92 % 5.59 C
2652 10-02-2019 04:55:00 6.8 C 92 % 5.59 C
2653 10-02-2019 05:00:00 6.8 C 93 % 5.75 C
2654 10-02-2019 05:05:00 6.8 C 93 % 5.75 C
2655 10-02-2019 05:10:00 6.8 C 93 % 5.75 C
2656 10-02-2019 05:15:00 6.8 C 93 % 5.75 C
2657 10-02-2019 05:20:00 6.8 C 94 % 5.9 C
2658 10-02-2019 05:25:00 6.9 C 94 % 6 C
2659 10-02-2019 05:30:00 6.9 C 94 % 6 C
2660 10-02-2019 05:35:00 7 C 94 % 6.1 C
2661 10-02-2019 05:40:00 7.1 C 94 % 6.2 C
2662 10-02-2019 05:45:00 7.1 C 94 % 6.2 C
2663 10-02-2019 05:50:00 7.2 C 94 % 6.3 C
2664 10-02-2019 05:55:00 7.3 C 94 % 6.4 C
2665 10-02-2019 06:00:00 7.3 C 94 % 6.4 C
2666 10-02-2019 06:05:00 7.3 C 94 % 6.4 C
2667 10-02-2019 06:10:00 7.3 C 94 % 6.4 C
2668 10-02-2019 06:15:00 7.4 C 94 % 6.5 C
2669 10-02-2019 06:20:00 7.5 C 94 % 6.6 C
2670 10-02-2019 06:25:00 7.6 C 94 % 6.7 C
2671 10-02-2019 06:30:00 7.7 C 94 % 6.8 C
2672 10-02-2019 06:35:00 7.7 C 94 % 6.8 C
2673 10-02-2019 06:40:00 7.8 C 94 % 6.9 C
2674 10-02-2019 06:45:00 7.9 C 94 % 7 C
2675 10-02-2019 06:50:00 7.9 C 94 % 7 C
Sensor: Nr:Datum:Temp:Feuchte:Taupunkt:
Aussen-T/F 2676 10-02-2019 06:55:00 8.1 C 94 % 7.19 C
2677 10-02-2019 07:00:00 8.1 C 94 % 7.19 C
2678 10-02-2019 07:05:00 8.1 C 94 % 7.19 C
2679 10-02-2019 07:10:00 8.2 C 94 % 7.29 C
2680 10-02-2019 07:15:00 8.2 C 94 % 7.29 C
2681 10-02-2019 07:20:00 8.3 C 93 % 7.24 C
2682 10-02-2019 07:25:00 8.4 C 93 % 7.34 C
2683 10-02-2019 07:30:00 8.4 C 93 % 7.34 C
2684 10-02-2019 07:35:00 8.5 C 93 % 7.43 C
2685 10-02-2019 07:40:00 8.5 C 93 % 7.43 C
2686 10-02-2019 07:45:00 8.6 C 93 % 7.53 C
2687 10-02-2019 07:50:00 8.6 C 93 % 7.53 C
2688 10-02-2019 07:55:00 8.7 C 93 % 7.63 C
2689 10-02-2019 08:00:00 8.7 C 92 % 7.47 C
2690 10-02-2019 08:05:00 8.7 C 92 % 7.47 C
2691 10-02-2019 08:10:00 8.7 C 92 % 7.47 C
2692 10-02-2019 08:15:00 8.8 C 92 % 7.57 C
2693 10-02-2019 08:20:00 8.8 C 92 % 7.57 C
2694 10-02-2019 08:25:00 8.8 C 92 % 7.57 C
2695 10-02-2019 08:30:00 8.8 C 92 % 7.57 C
2696 10-02-2019 08:35:00 8.8 C 92 % 7.57 C
2697 10-02-2019 08:40:00 8.8 C 92 % 7.57 C
2698 10-02-2019 08:45:00 8.8 C 91 % 7.41 C
2699 10-02-2019 08:50:00 8.9 C 91 % 7.51 C
2700 10-02-2019 08:55:00 8.9 C 91 % 7.51 C
Sensor: Nr:Datum:Temp:Feuchte:Taupunkt:
Aussen-T/F 2701 10-02-2019 09:00:00 9 C 91 % 7.61 C
2702 10-02-2019 09:05:00 9.1 C 90 % 7.55 C
2703 10-02-2019 09:10:00 9.2 C 90 % 7.65 C
2704 10-02-2019 09:15:00 9.3 C 90 % 7.75 C
2705 10-02-2019 09:20:00 9.3 C 89 % 7.58 C
2706 10-02-2019 09:25:00 9.4 C 89 % 7.68 C
2707 10-02-2019 09:30:00 9.6 C 89 % 7.88 C
2708 10-02-2019 09:35:00 9.7 C 89 % 7.98 C
2709 10-02-2019 09:40:00 9.7 C 88 % 7.81 C
2710 10-02-2019 09:45:00 9.8 C 88 % 7.91 C
2711 10-02-2019 09:50:00 9.9 C 88 % 8.01 C
2712 10-02-2019 09:55:00 9.9 C 88 % 8.01 C
2713 10-02-2019 10:00:00 10 C 88 % 8.11 C
2714 10-02-2019 10:05:00 10.1 C 88 % 8.21 C
2715 10-02-2019 10:10:00 10.1 C 88 % 8.21 C
2716 10-02-2019 10:15:00 10.1 C 88 % 8.21 C
2717 10-02-2019 10:20:00 10.2 C 88 % 8.3 C
2718 10-02-2019 10:25:00 10.2 C 88 % 8.3 C
2719 10-02-2019 10:30:00 10.2 C 88 % 8.3 C
2720 10-02-2019 10:35:00 10.2 C 89 % 8.47 C
2721 10-02-2019 10:40:00 10 C 89 % 8.27 C
2722 10-02-2019 10:45:00 9.9 C 90 % 8.34 C
2723 10-02-2019 10:50:00 9.9 C 90 % 8.34 C
2724 10-02-2019 10:55:00 9.8 C 90 % 8.24 C
2725 10-02-2019 11:00:00 9.8 C 90 % 8.24 C
Sensor: Nr:Datum:Temp:Feuchte:Taupunkt:
Aussen-T/F 2726 10-02-2019 11:05:00 9.8 C 90 % 8.24 C
2727 10-02-2019 11:10:00 9.8 C 90 % 8.24 C
2728 10-02-2019 11:15:00 9.7 C 90 % 8.14 C
2729 10-02-2019 11:20:00 9.7 C 91 % 8.3 C
2730 10-02-2019 11:25:00 9.7 C 91 % 8.3 C
2731 10-02-2019 11:30:00 9.7 C 91 % 8.3 C
2732 10-02-2019 11:35:00 9.7 C 91 % 8.3 C
2733 10-02-2019 11:40:00 9.7 C 91 % 8.3 C
2734 10-02-2019 11:45:00 9.7 C 91 % 8.3 C
2735 10-02-2019 11:50:00 9.7 C 91 % 8.3 C
2736 10-02-2019 11:55:00 9.7 C 92 % 8.46 C
2737 10-02-2019 12:00:00 9.7 C 92 % 8.46 C
2738 10-02-2019 12:05:00 9.7 C 91 % 8.3 C
2739 10-02-2019 12:10:00 9.7 C 91 % 8.3 C
2740 10-02-2019 12:15:00 9.7 C 92 % 8.46 C
2741 10-02-2019 12:20:00 9.7 C 92 % 8.46 C
2742 10-02-2019 12:25:00 9.7 C 92 % 8.46 C
2743 10-02-2019 12:30:00 9.7 C 92 % 8.46 C
2744 10-02-2019 12:35:00 9.6 C 92 % 8.37 C
2745 10-02-2019 12:40:00 9.6 C 92 % 8.37 C
2746 10-02-2019 12:45:00 9.6 C 92 % 8.37 C
2747 10-02-2019 12:50:00 9.6 C 91 % 8.21 C
2748 10-02-2019 12:55:00 9.6 C 91 % 8.21 C
2749 10-02-2019 13:00:00 9.6 C 91 % 8.21 C
2750 10-02-2019 13:05:00 9.6 C 92 % 8.37 C
Sensor: Nr:Datum:Temp:Feuchte:Taupunkt:
Aussen-T/F 2751 10-02-2019 13:10:00 9.6 C 92 % 8.37 C
2752 10-02-2019 13:15:00 9.6 C 92 % 8.37 C
2753 10-02-2019 13:20:00 9.6 C 92 % 8.37 C
2754 10-02-2019 13:25:00 9.7 C 93 % 8.62 C
2755 10-02-2019 13:30:00 9.8 C 92 % 8.56 C
2756 10-02-2019 13:35:00 9.9 C 92 % 8.66 C
2757 10-02-2019 13:40:00 9.9 C 92 % 8.66 C
2758 10-02-2019 13:45:00 10 C 91 % 8.6 C
2759 10-02-2019 13:50:00 10 C 91 % 8.6 C
2760 10-02-2019 13:55:00 10 C 91 % 8.6 C
2761 10-02-2019 14:00:00 9.9 C 91 % 8.5 C
2762 10-02-2019 14:05:00 9.9 C 91 % 8.5 C
2763 10-02-2019 14:10:00 9.8 C 92 % 8.56 C
2764 10-02-2019 14:15:00 9.8 C 92 % 8.56 C
2765 10-02-2019 14:20:00 9.7 C 92 % 8.46 C
2766 10-02-2019 14:25:00 9.6 C 91 % 8.21 C
2767 10-02-2019 14:30:00 9.4 C 91 % 8.01 C
2768 10-02-2019 14:35:00 9.3 C 91 % 7.91 C
2769 10-02-2019 14:40:00 9.2 C 90 % 7.65 C
2770 10-02-2019 14:45:00 9.1 C 89 % 7.39 C
2771 10-02-2019 14:50:00 8.9 C 88 % 7.02 C
2772 10-02-2019 14:55:00 8.9 C 88 % 7.02 C
2773 10-02-2019 15:00:00 9 C 88 % 7.12 C
2774 10-02-2019 15:05:00 8.9 C 87 % 6.86 C
2775 10-02-2019 15:10:00 8.8 C 86 % 6.59 C
Sensor: Nr:Datum:Temp:Feuchte:Taupunkt:
Aussen-T/F 2776 10-02-2019 15:15:00 8.8 C 86 % 6.59 C
2777 10-02-2019 15:20:00 8.8 C 87 % 6.76 C
2778 10-02-2019 15:25:00 8.7 C 87 % 6.66 C
2779 10-02-2019 15:30:00 8.7 C 86 % 6.49 C
2780 10-02-2019 15:35:00 8.7 C 86 % 6.49 C
2781 10-02-2019 15:40:00 8.7 C 86 % 6.49 C
2782 10-02-2019 15:45:00 8.7 C 87 % 6.66 C
2783 10-02-2019 15:50:00 8.8 C 87 % 6.76 C
2784 10-02-2019 15:55:00 8.8 C 86 % 6.59 C
2785 10-02-2019 16:00:00 8.7 C 86 % 6.49 C
2786 10-02-2019 16:05:00 8.7 C 86 % 6.49 C
2787 10-02-2019 16:10:00 8.7 C 87 % 6.66 C
2788 10-02-2019 16:15:00 8.6 C 88 % 6.73 C
2789 10-02-2019 16:20:00 8.4 C 87 % 6.37 C
2790 10-02-2019 16:25:00 8.4 C 87 % 6.37 C
2791 10-02-2019 16:30:00 8.4 C 87 % 6.37 C
2792 10-02-2019 16:35:00 8.4 C 87 % 6.37 C
2793 10-02-2019 16:40:00 8.4 C 87 % 6.37 C
2794 10-02-2019 16:45:00 8.4 C 87 % 6.37 C
2795 10-02-2019 16:50:00 8.4 C 87 % 6.37 C
2796 10-02-2019 16:55:00 8.3 C 86 % 6.1 C
2797 10-02-2019 17:00:00 8.3 C 87 % 6.27 C
2798 10-02-2019 17:05:00 8.2 C 87 % 6.17 C
2799 10-02-2019 17:10:00 8.2 C 87 % 6.17 C
2800 10-02-2019 17:15:00 8.1 C 86 % 5.9 C
Sensor: Nr:Datum:Temp:Feuchte:Taupunkt:
Aussen-T/F 2801 10-02-2019 17:20:00 8.1 C 86 % 5.9 C
2802 10-02-2019 17:25:00 8.1 C 87 % 6.07 C
2803 10-02-2019 17:30:00 8 C 86 % 5.81 C
2804 10-02-2019 17:35:00 7.9 C 86 % 5.71 C
2805 10-02-2019 17:40:00 7.9 C 85 % 5.54 C
2806 10-02-2019 17:45:00 7.8 C 86 % 5.61 C
2807 10-02-2019 17:50:00 7.5 C 86 % 5.31 C
2808 10-02-2019 17:55:00 7.3 C 87 % 5.28 C
2809 10-02-2019 18:00:00 7 C 89 % 5.31 C
2810 10-02-2019 18:05:00 6.8 C 89 % 5.12 C
2811 10-02-2019 18:10:00 6.7 C 90 % 5.18 C
2812 10-02-2019 18:15:00 6.6 C 90 % 5.08 C
2813 10-02-2019 18:20:00 6.4 C 90 % 4.88 C
2814 10-02-2019 18:25:00 6.4 C 91 % 5.04 C
2815 10-02-2019 18:30:00 6.3 C 91 % 4.94 C
2816 10-02-2019 18:35:00 6.3 C 91 % 4.94 C
2817 10-02-2019 18:40:00 6.3 C 90 % 4.78 C
2818 10-02-2019 18:45:00 6.3 C 90 % 4.78 C
2819 10-02-2019 18:50:00 6.3 C 90 % 4.78 C
2820 10-02-2019 18:55:00 6.3 C 90 % 4.78 C
2821 10-02-2019 19:00:00 6.3 C 90 % 4.78 C
2822 10-02-2019 19:05:00 6.3 C 89 % 4.62 C
2823 10-02-2019 19:10:00 6.3 C 89 % 4.62 C
2824 10-02-2019 19:15:00 6.4 C 88 % 4.56 C
2825 10-02-2019 19:20:00 6.4 C 88 % 4.56 C
Sensor: Nr:Datum:Temp:Feuchte:Taupunkt:
Aussen-T/F 2826 10-02-2019 19:25:00 6.4 C 88 % 4.56 C
2827 10-02-2019 19:30:00 6.4 C 88 % 4.56 C
2828 10-02-2019 19:35:00 6.4 C 88 % 4.56 C
2829 10-02-2019 19:40:00 6.4 C 88 % 4.56 C
2830 10-02-2019 19:45:00 6.5 C 88 % 4.66 C
2831 10-02-2019 19:50:00 6.6 C 88 % 4.76 C
2832 10-02-2019 19:55:00 6.6 C 87 % 4.6 C
2833 10-02-2019 20:00:00 6.6 C 87 % 4.6 C
2834 10-02-2019 20:05:00 6.7 C 87 % 4.69 C
2835 10-02-2019 20:10:00 6.7 C 87 % 4.69 C
2836 10-02-2019 20:15:00 6.7 C 87 % 4.69 C
2837 10-02-2019 20:20:00 6.8 C 87 % 4.79 C
2838 10-02-2019 20:25:00 6.8 C 87 % 4.79 C
2839 10-02-2019 20:30:00 6.8 C 87 % 4.79 C
2840 10-02-2019 20:35:00 6.8 C 87 % 4.79 C
2841 10-02-2019 20:40:00 6.8 C 88 % 4.96 C
2842 10-02-2019 20:45:00 6.7 C 89 % 5.02 C
2843 10-02-2019 20:50:00 6.5 C 89 % 4.82 C
2844 10-02-2019 20:55:00 6.3 C 90 % 4.78 C
2845 10-02-2019 21:00:00 6.2 C 91 % 4.84 C
2846 10-02-2019 21:05:00 6.1 C 91 % 4.74 C
2847 10-02-2019 21:10:00 6.1 C 90 % 4.59 C
2848 10-02-2019 21:15:00 6.1 C 90 % 4.59 C
2849 10-02-2019 21:20:00 6.1 C 89 % 4.43 C
2850 10-02-2019 21:25:00 6.1 C 90 % 4.59 C
Sensor: Nr:Datum:Temp:Feuchte:Taupunkt:
Aussen-T/F 2851 10-02-2019 21:30:00 6.1 C 89 % 4.43 C
2852 10-02-2019 21:35:00 6.1 C 88 % 4.27 C
2853 10-02-2019 21:40:00 6.2 C 87 % 4.2 C
2854 10-02-2019 21:45:00 6.2 C 86 % 4.04 C
2855 10-02-2019 21:50:00 6.2 C 86 % 4.04 C
2856 10-02-2019 21:55:00 6.2 C 86 % 4.04 C
2857 10-02-2019 22:00:00 6.2 C 85 % 3.87 C
2858 10-02-2019 22:05:00 6.2 C 84 % 3.7 C
2859 10-02-2019 22:10:00 6.3 C 84 % 3.8 C
2860 10-02-2019 22:15:00 6.3 C 83 % 3.63 C
2861 10-02-2019 22:20:00 6.2 C 83 % 3.53 C
2862 10-02-2019 22:25:00 6.2 C 84 % 3.7 C
2863 10-02-2019 22:30:00 6.2 C 84 % 3.7 C
2864 10-02-2019 22:35:00 6.1 C 84 % 3.61 C
2865 10-02-2019 22:40:00 6.1 C 84 % 3.61 C
2866 10-02-2019 22:45:00 6 C 84 % 3.51 C
2867 10-02-2019 22:50:00 6 C 84 % 3.51 C
2868 10-02-2019 22:55:00 5.9 C 83 % 3.24 C
2869 10-02-2019 23:00:00 5.9 C 84 % 3.41 C
2870 10-02-2019 23:05:00 5.8 C 84 % 3.31 C
2871 10-02-2019 23:10:00 5.8 C 85 % 3.48 C
2872 10-02-2019 23:15:00 5.7 C 85 % 3.38 C
2873 10-02-2019 23:20:00 5.7 C 85 % 3.38 C
2874 10-02-2019 23:25:00 5.6 C 85 % 3.28 C
2875 10-02-2019 23:30:00 5.6 C 85 % 3.28 C
Sensor: Nr:Datum:Temp:Feuchte:Taupunkt:
Aussen-T/F 2876 10-02-2019 23:35:00 5.5 C 86 % 3.35 C
2877 10-02-2019 23:40:00 5.4 C 86 % 3.25 C
2878 10-02-2019 23:45:00 5.4 C 86 % 3.25 C
2879 10-02-2019 23:50:00 5.3 C 87 % 3.32 C
2880 10-02-2019 23:55:00 5.3 C 87 % 3.32 C
2881 11-02-2019 00:00:00 5.3 C 87 % 3.32 C
2882 11-02-2019 00:05:00 5.2 C 88 % 3.38 C
2883 11-02-2019 00:10:00 5.1 C 88 % 3.28 C
2884 11-02-2019 00:15:00 5.1 C 88 % 3.28 C
2885 11-02-2019 00:20:00 5.1 C 89 % 3.44 C
2886 11-02-2019 00:25:00 5 C 89 % 3.34 C
2887 11-02-2019 00:30:00 4.9 C 89 % 3.24 C
2888 11-02-2019 00:35:00 4.9 C 89 % 3.24 C
2889 11-02-2019 00:40:00 4.9 C 90 % 3.4 C
2890 11-02-2019 00:45:00 4.8 C 90 % 3.3 C
2891 11-02-2019 00:50:00 4.7 C 90 % 3.2 C
2892 11-02-2019 00:55:00 4.6 C 91 % 3.26 C
2893 11-02-2019 01:00:00 4.6 C 91 % 3.26 C
2894 11-02-2019 01:05:00 4.4 C 91 % 3.06 C
2895 11-02-2019 01:10:00 4.4 C 92 % 3.22 C
2896 11-02-2019 01:15:00 4.3 C 92 % 3.12 C
2897 11-02-2019 01:20:00 4.3 C 92 % 3.12 C
2898 11-02-2019 01:25:00 4.3 C 93 % 3.27 C
2899 11-02-2019 01:30:00 4.3 C 93 % 3.27 C
2900 11-02-2019 01:35:00 4.2 C 93 % 3.17 C
Sensor: Nr:Datum:Temp:Feuchte:Taupunkt:
Aussen-T/F 2901 11-02-2019 01:40:00 4.2 C 93 % 3.17 C
2902 11-02-2019 01:45:00 4.2 C 93 % 3.17 C
2903 11-02-2019 01:50:00 4.2 C 93 % 3.17 C
2904 11-02-2019 01:55:00 4.2 C 93 % 3.17 C
2905 11-02-2019 02:00:00 4.2 C 93 % 3.17 C
2906 11-02-2019 02:05:00 4.2 C 93 % 3.17 C
2907 11-02-2019 02:10:00 4.1 C 93 % 3.07 C
2908 11-02-2019 02:15:00 4 C 93 % 2.97 C
2909 11-02-2019 02:20:00 3.9 C 93 % 2.87 C
2910 11-02-2019 02:25:00 3.9 C 93 % 2.87 C
2911 11-02-2019 02:30:00 3.9 C 93 % 2.87 C
2912 11-02-2019 02:35:00 3.8 C 93 % 2.77 C
2913 11-02-2019 02:40:00 3.8 C 93 % 2.77 C
2914 11-02-2019 02:45:00 3.8 C 94 % 2.93 C
2915 11-02-2019 02:50:00 3.8 C 94 % 2.93 C
2916 11-02-2019 02:55:00 3.8 C 94 % 2.93 C
2917 11-02-2019 03:00:00 3.9 C 94 % 3.02 C
2918 11-02-2019 03:05:00 3.9 C 94 % 3.02 C
2919 11-02-2019 03:10:00 3.9 C 94 % 3.02 C
2920 11-02-2019 03:15:00 4 C 94 % 3.12 C
2921 11-02-2019 03:20:00 4.1 C 94 % 3.22 C
2922 11-02-2019 03:25:00 4 C 93 % 2.97 C
2923 11-02-2019 03:30:00 3.9 C 93 % 2.87 C
2924 11-02-2019 03:35:00 3.7 C 92 % 2.52 C
2925 11-02-2019 03:40:00 3.6 C 93 % 2.58 C
Sensor: Nr:Datum:Temp:Feuchte:Taupunkt:
Aussen-T/F 2926 11-02-2019 03:45:00 3.6 C 93 % 2.58 C
2927 11-02-2019 03:50:00 3.5 C 93 % 2.48 C
2928 11-02-2019 03:55:00 3.5 C 93 % 2.48 C
2929 11-02-2019 04:00:00 3.5 C 93 % 2.48 C
2930 11-02-2019 04:05:00 3.5 C 93 % 2.48 C
2931 11-02-2019 04:10:00 3.6 C 93 % 2.58 C
2932 11-02-2019 04:15:00 3.6 C 94 % 2.73 C
2933 11-02-2019 04:20:00 3.6 C 94 % 2.73 C
2934 11-02-2019 04:25:00 3.6 C 94 % 2.73 C
2935 11-02-2019 04:30:00 3.6 C 94 % 2.73 C
2936 11-02-2019 04:35:00 3.6 C 94 % 2.73 C
2937 11-02-2019 04:40:00 3.6 C 94 % 2.73 C
2938 11-02-2019 04:45:00 3.7 C 94 % 2.83 C
2939 11-02-2019 04:50:00 3.7 C 94 % 2.83 C
2940 11-02-2019 04:55:00 3.7 C 94 % 2.83 C
2941 11-02-2019 05:00:00 3.8 C 94 % 2.93 C
2942 11-02-2019 05:05:00 3.8 C 94 % 2.93 C
2943 11-02-2019 05:10:00 3.8 C 94 % 2.93 C
2944 11-02-2019 05:15:00 3.9 C 94 % 3.02 C
2945 11-02-2019 05:20:00 3.9 C 94 % 3.02 C
2946 11-02-2019 05:25:00 3.9 C 94 % 3.02 C
2947 11-02-2019 05:30:00 3.9 C 94 % 3.02 C
2948 11-02-2019 05:35:00 3.9 C 94 % 3.02 C
2949 11-02-2019 05:40:00 3.9 C 94 % 3.02 C
2950 11-02-2019 05:45:00 3.8 C 94 % 2.93 C
Sensor: Nr:Datum:Temp:Feuchte:Taupunkt:
Aussen-T/F 2951 11-02-2019 05:50:00 3.8 C 94 % 2.93 C
2952 11-02-2019 05:55:00 3.8 C 94 % 2.93 C
2953 11-02-2019 06:00:00 3.8 C 94 % 2.93 C
2954 11-02-2019 06:05:00 3.8 C 94 % 2.93 C
2955 11-02-2019 06:10:00 3.8 C 94 % 2.93 C
2956 11-02-2019 06:15:00 3.8 C 94 % 2.93 C
2957 11-02-2019 06:20:00 3.8 C 94 % 2.93 C
2958 11-02-2019 06:25:00 3.8 C 94 % 2.93 C
2959 11-02-2019 06:30:00 3.8 C 94 % 2.93 C
2960 11-02-2019 06:35:00 3.8 C 94 % 2.93 C
2961 11-02-2019 06:40:00 3.8 C 94 % 2.93 C
2962 11-02-2019 06:45:00 3.9 C 94 % 3.02 C
2963 11-02-2019 06:50:00 3.9 C 94 % 3.02 C
2964 11-02-2019 06:55:00 3.9 C 94 % 3.02 C
2965 11-02-2019 07:00:00 3.9 C 94 % 3.02 C
2966 11-02-2019 07:05:00 3.9 C 94 % 3.02 C
2967 11-02-2019 07:10:00 4 C 94 % 3.12 C
2968 11-02-2019 07:15:00 4 C 93 % 2.97 C
2969 11-02-2019 07:20:00 4.1 C 93 % 3.07 C
2970 11-02-2019 07:25:00 4.1 C 93 % 3.07 C
2971 11-02-2019 07:30:00 4.1 C 93 % 3.07 C
2972 11-02-2019 07:35:00 4.1 C 92 % 2.92 C
2973 11-02-2019 07:40:00 4.1 C 92 % 2.92 C
2974 11-02-2019 07:45:00 4.1 C 92 % 2.92 C
2975 11-02-2019 07:50:00 4.2 C 92 % 3.02 C
Sensor: Nr:Datum:Temp:Feuchte:Taupunkt:
Aussen-T/F 2976 11-02-2019 07:55:00 4.2 C 91 % 2.87 C
2977 11-02-2019 08:00:00 4.2 C 91 % 2.87 C
2978 11-02-2019 08:05:00 4.2 C 91 % 2.87 C
2979 11-02-2019 08:10:00 4.2 C 91 % 2.87 C
2980 11-02-2019 08:15:00 4.1 C 91 % 2.77 C
2981 11-02-2019 08:20:00 4.1 C 91 % 2.77 C
2982 11-02-2019 08:25:00 4 C 91 % 2.67 C
2983 11-02-2019 08:30:00 4 C 91 % 2.67 C
2984 11-02-2019 08:35:00 4 C 91 % 2.67 C
2985 11-02-2019 08:40:00 4 C 91 % 2.67 C
2986 11-02-2019 08:45:00 4.1 C 91 % 2.77 C
2987 11-02-2019 08:50:00 4.1 C 91 % 2.77 C
2988 11-02-2019 08:55:00 4.1 C 91 % 2.77 C
2989 11-02-2019 09:00:00 4.1 C 91 % 2.77 C
2990 11-02-2019 09:05:00 4.1 C 91 % 2.77 C
2991 11-02-2019 09:10:00 4.1 C 91 % 2.77 C
2992 11-02-2019 09:15:00 4.1 C 90 % 2.61 C
2993 11-02-2019 09:20:00 4.1 C 90 % 2.61 C
2994 11-02-2019 09:25:00 4.2 C 90 % 2.71 C
2995 11-02-2019 09:30:00 4.2 C 90 % 2.71 C
2996 11-02-2019 09:35:00 4.2 C 90 % 2.71 C
2997 11-02-2019 09:40:00 4.3 C 90 % 2.81 C
2998 11-02-2019 09:45:00 4.3 C 89 % 2.65 C
2999 11-02-2019 09:50:00 4.4 C 89 % 2.75 C
3000 11-02-2019 09:55:00 4.4 C 88 % 2.59 C
Sensor: Nr:Datum:Temp:Feuchte:Taupunkt:
Aussen-T/F 3001 11-02-2019 10:00:00 4.5 C 88 % 2.69 C
3002 11-02-2019 10:05:00 4.6 C 88 % 2.79 C
3003 11-02-2019 10:10:00 4.7 C 88 % 2.89 C
3004 11-02-2019 10:15:00 4.8 C 88 % 2.99 C
3005 11-02-2019 10:20:00 4.9 C 88 % 3.08 C
3006 11-02-2019 10:25:00 5 C 87 % 3.02 C
3007 11-02-2019 10:30:00 5.1 C 86 % 2.96 C
3008 11-02-2019 10:35:00 5.2 C 85 % 2.89 C
3009 11-02-2019 10:40:00 5.2 C 84 % 2.72 C
3010 11-02-2019 10:45:00 5.2 C 84 % 2.72 C
3011 11-02-2019 10:50:00 5.3 C 85 % 2.99 C
3012 11-02-2019 10:55:00 5.3 C 85 % 2.99 C
3013 11-02-2019 11:00:00 5.5 C 85 % 3.18 C
3014 11-02-2019 11:05:00 5.7 C 84 % 3.21 C
3015 11-02-2019 11:10:00 5.7 C 83 % 3.04 C
3016 11-02-2019 11:15:00 5.8 C 83 % 3.14 C
3017 11-02-2019 11:20:00 5.9 C 82 % 3.07 C
3018 11-02-2019 11:25:00 5.9 C 82 % 3.07 C
3019 11-02-2019 11:30:00 5.9 C 81 % 2.9 C
3020 11-02-2019 11:35:00 6.1 C 81 % 3.09 C
3021 11-02-2019 11:40:00 6.1 C 82 % 3.26 C
3022 11-02-2019 11:45:00 6.2 C 80 % 3.01 C
3023 11-02-2019 11:50:00 6.2 C 81 % 3.19 C
3024 11-02-2019 11:55:00 6.3 C 81 % 3.29 C
3025 11-02-2019 12:00:00 6.3 C 80 % 3.11 C
Sensor: Nr:Datum:Temp:Feuchte:Taupunkt:
Aussen-T/F 3026 11-02-2019 12:05:00 6.4 C 78 % 2.85 C
3027 11-02-2019 12:10:00 6.5 C 79 % 3.13 C
3028 11-02-2019 12:15:00 6.6 C 78 % 3.05 C
3029 11-02-2019 12:20:00 6.6 C 78 % 3.05 C
3030 11-02-2019 12:25:00 6.6 C 78 % 3.05 C
3031 11-02-2019 12:30:00 6.6 C 78 % 3.05 C
3032 11-02-2019 12:35:00 6.7 C 78 % 3.14 C
3033 11-02-2019 12:40:00 6.7 C 79 % 3.32 C
3034 11-02-2019 12:45:00 6.8 C 78 % 3.24 C
3035 11-02-2019 12:50:00 6.8 C 79 % 3.42 C
3036 11-02-2019 12:55:00 6.8 C 78 % 3.24 C
3037 11-02-2019 13:00:00 6.9 C 78 % 3.34 C
3038 11-02-2019 13:05:00 7.1 C 76 % 3.16 C
3039 11-02-2019 13:10:00 7.2 C 76 % 3.26 C
3040 11-02-2019 13:15:00 7.2 C 75 % 3.07 C
3041 11-02-2019 13:20:00 7.2 C 75 % 3.07 C
3042 11-02-2019 13:25:00 7.3 C 75 % 3.17 C
3043 11-02-2019 13:30:00 7.3 C 75 % 3.17 C
3044 11-02-2019 13:35:00 7.4 C 74 % 3.08 C
3045 11-02-2019 13:40:00 7.5 C 73 % 2.98 C
3046 11-02-2019 13:45:00 7.6 C 72 % 2.88 C
3047 11-02-2019 13:50:00 7.4 C 71 % 2.5 C
3048 11-02-2019 13:55:00 7.4 C 73 % 2.89 C
3049 11-02-2019 14:00:00 7.3 C 73 % 2.79 C
3050 11-02-2019 14:05:00 7.3 C 73 % 2.79 C
Sensor: Nr:Datum:Temp:Feuchte:Taupunkt:
Aussen-T/F 3051 11-02-2019 14:10:00 7.3 C 73 % 2.79 C
3052 11-02-2019 14:15:00 7.3 C 73 % 2.79 C
3053 11-02-2019 14:20:00 7.3 C 74 % 2.98 C
3054 11-02-2019 14:25:00 7.3 C 72 % 2.6 C
3055 11-02-2019 14:30:00 7.3 C 73 % 2.79 C
3056 11-02-2019 14:35:00 7.4 C 73 % 2.89 C
3057 11-02-2019 14:40:00 7.4 C 74 % 3.08 C
3058 11-02-2019 14:45:00 7.5 C 72 % 2.79 C
3059 11-02-2019 14:50:00 7.5 C 73 % 2.98 C
3060 11-02-2019 14:55:00 7.4 C 72 % 2.69 C
3061 11-02-2019 15:00:00 7.4 C 73 % 2.89 C
3062 11-02-2019 15:05:00 7.4 C 74 % 3.08 C
3063 11-02-2019 15:10:00 7.3 C 73 % 2.79 C
3064 11-02-2019 15:15:00 7.3 C 74 % 2.98 C
3065 11-02-2019 15:20:00 7.3 C 74 % 2.98 C
3066 11-02-2019 15:25:00 7.3 C 74 % 2.98 C
3067 11-02-2019 15:30:00 7.3 C 74 % 2.98 C
3068 11-02-2019 15:35:00 7.4 C 73 % 2.89 C
3069 11-02-2019 15:40:00 7.4 C 74 % 3.08 C
3070 11-02-2019 15:45:00 7.4 C 74 % 3.08 C
3071 11-02-2019 15:50:00 7.4 C 74 % 3.08 C
3072 11-02-2019 15:55:00 7.4 C 74 % 3.08 C
3073 11-02-2019 16:00:00 7.3 C 75 % 3.17 C
3074 11-02-2019 16:05:00 7.3 C 76 % 3.36 C
3075 11-02-2019 16:10:00 7.1 C 78 % 3.53 C
Sensor: Nr:Datum:Temp:Feuchte:Taupunkt:
Aussen-T/F 3076 11-02-2019 16:15:00 7 C 78 % 3.43 C
3077 11-02-2019 16:20:00 6.9 C 79 % 3.52 C
3078 11-02-2019 16:25:00 6.8 C 79 % 3.42 C
3079 11-02-2019 16:30:00 6.8 C 79 % 3.42 C
3080 11-02-2019 16:35:00 6.8 C 79 % 3.42 C
3081 11-02-2019 16:40:00 6.8 C 79 % 3.42 C
3082 11-02-2019 16:45:00 6.8 C 81 % 3.77 C
3083 11-02-2019 16:50:00 6.7 C 82 % 3.85 C
3084 11-02-2019 16:55:00 6.6 C 83 % 3.92 C
3085 11-02-2019 17:00:00 6.4 C 84 % 3.9 C
3086 11-02-2019 17:05:00 6.4 C 84 % 3.9 C
3087 11-02-2019 17:10:00 6.3 C 84 % 3.8 C
3088 11-02-2019 17:15:00 6.2 C 85 % 3.87 C
3089 11-02-2019 17:20:00 6.1 C 85 % 3.77 C
3090 11-02-2019 17:25:00 6.1 C 86 % 3.94 C
3091 11-02-2019 17:30:00 6.1 C 84 % 3.61 C
3092 11-02-2019 17:35:00 6.1 C 83 % 3.44 C
3093 11-02-2019 17:40:00 6.2 C 83 % 3.53 C
3094 11-02-2019 17:45:00 6.2 C 83 % 3.53 C
3095 11-02-2019 17:50:00 6.2 C 83 % 3.53 C
3096 11-02-2019 17:55:00 6.1 C 81 % 3.09 C
3097 11-02-2019 18:00:00 6.1 C 79 % 2.74 C
3098 11-02-2019 18:05:00 6.1 C 79 % 2.74 C
3099 11-02-2019 18:10:00 6 C 78 % 2.46 C
3100 11-02-2019 18:15:00 5.9 C 79 % 2.54 C
Sensor: Nr:Datum:Temp:Feuchte:Taupunkt:
Aussen-T/F 3101 11-02-2019 18:20:00 5.8 C 79 % 2.45 C
3102 11-02-2019 18:25:00 5.8 C 79 % 2.45 C
3103 11-02-2019 18:30:00 5.7 C 79 % 2.35 C
3104 11-02-2019 18:35:00 5.7 C 79 % 2.35 C
3105 11-02-2019 18:40:00 5.6 C 80 % 2.43 C
3106 11-02-2019 18:45:00 5.4 C 80 % 2.23 C
3107 11-02-2019 18:50:00 5.4 C 80 % 2.23 C
3108 11-02-2019 18:55:00 5.3 C 81 % 2.31 C
3109 11-02-2019 19:00:00 5.3 C 81 % 2.31 C
3110 11-02-2019 19:05:00 5.2 C 81 % 2.21 C
3111 11-02-2019 19:10:00 5 C 82 % 2.19 C
3112 11-02-2019 19:15:00 4.9 C 83 % 2.26 C
3113 11-02-2019 19:20:00 4.7 C 84 % 2.23 C
3114 11-02-2019 19:25:00 4.6 C 84 % 2.14 C
3115 11-02-2019 19:30:00 4.5 C 86 % 2.37 C
3116 11-02-2019 19:35:00 4.6 C 87 % 2.63 C
3117 11-02-2019 19:40:00 4.8 C 87 % 2.82 C
3118 11-02-2019 19:45:00 4.8 C 87 % 2.82 C
3119 11-02-2019 19:50:00 4.8 C 87 % 2.82 C
3120 11-02-2019 19:55:00 4.8 C 87 % 2.82 C
3121 11-02-2019 20:00:00 4.8 C 87 % 2.82 C
3122 11-02-2019 20:05:00 4.7 C 86 % 2.56 C
3123 11-02-2019 20:10:00 4.4 C 86 % 2.27 C
3124 11-02-2019 20:15:00 4.3 C 87 % 2.33 C
3125 11-02-2019 20:20:00 4.2 C 87 % 2.23 C
Sensor: Nr:Datum:Temp:Feuchte:Taupunkt:
Aussen-T/F 3126 11-02-2019 20:25:00 4.1 C 88 % 2.3 C
3127 11-02-2019 20:30:00 3.9 C 88 % 2.1 C
3128 11-02-2019 20:35:00 3.9 C 88 % 2.1 C
3129 11-02-2019 20:40:00 3.9 C 89 % 2.26 C
3130 11-02-2019 20:45:00 3.9 C 88 % 2.1 C
3131 11-02-2019 20:50:00 3.9 C 88 % 2.1 C
3132 11-02-2019 20:55:00 3.9 C 88 % 2.1 C
3133 11-02-2019 21:00:00 3.8 C 88 % 2 C
3134 11-02-2019 21:05:00 3.7 C 88 % 1.9 C
3135 11-02-2019 21:10:00 3.7 C 88 % 1.9 C
3136 11-02-2019 21:15:00 3.5 C 89 % 1.86 C
3137 11-02-2019 21:20:00 3.4 C 89 % 1.76 C
3138 11-02-2019 21:25:00 3.4 C 89 % 1.76 C
3139 11-02-2019 21:30:00 3.4 C 89 % 1.76 C
3140 11-02-2019 21:35:00 3.4 C 89 % 1.76 C
3141 11-02-2019 21:40:00 3.4 C 89 % 1.76 C
3142 11-02-2019 21:45:00 3.3 C 88 % 1.51 C
3143 11-02-2019 21:50:00 3.2 C 89 % 1.57 C
3144 11-02-2019 21:55:00 3.2 C 89 % 1.57 C
3145 11-02-2019 22:00:00 3.1 C 89 % 1.47 C
3146 11-02-2019 22:05:00 3 C 89 % 1.37 C
3147 11-02-2019 22:10:00 2.9 C 89 % 1.27 C
3148 11-02-2019 22:15:00 2.8 C 89 % 1.17 C
3149 11-02-2019 22:20:00 2.8 C 90 % 1.33 C
3150 11-02-2019 22:25:00 2.7 C 90 % 1.23 C
Sensor: Nr:Datum:Temp:Feuchte:Taupunkt:
Aussen-T/F 3151 11-02-2019 22:30:00 2.7 C 90 % 1.23 C
3152 11-02-2019 22:35:00 2.7 C 90 % 1.23 C
3153 11-02-2019 22:40:00 2.7 C 91 % 1.38 C
3154 11-02-2019 22:45:00 2.6 C 91 % 1.28 C
3155 11-02-2019 22:50:00 2.6 C 91 % 1.28 C
3156 11-02-2019 22:55:00 2.6 C 91 % 1.28 C
3157 11-02-2019 23:00:00 2.5 C 91 % 1.18 C
3158 11-02-2019 23:05:00 2.5 C 91 % 1.18 C
3159 11-02-2019 23:10:00 2.4 C 91 % 1.08 C
3160 11-02-2019 23:15:00 2.4 C 91 % 1.08 C
3161 11-02-2019 23:20:00 2.4 C 92 % 1.24 C
3162 11-02-2019 23:25:00 2.5 C 92 % 1.34 C
3163 11-02-2019 23:30:00 2.5 C 92 % 1.34 C
3164 11-02-2019 23:35:00 2.6 C 92 % 1.43 C
3165 11-02-2019 23:40:00 2.6 C 92 % 1.43 C
3166 11-02-2019 23:45:00 2.7 C 92 % 1.53 C
3167 11-02-2019 23:50:00 2.8 C 92 % 1.63 C
3168 11-02-2019 23:55:00 2.9 C 91 % 1.58 C
3169 12-02-2019 00:00:00 2.9 C 91 % 1.58 C
3170 12-02-2019 00:05:00 3 C 91 % 1.68 C
3171 12-02-2019 00:10:00 3 C 90 % 1.52 C
3172 12-02-2019 00:15:00 3.1 C 90 % 1.62 C
3173 12-02-2019 00:20:00 3.1 C 90 % 1.62 C
3174 12-02-2019 00:25:00 3.1 C 90 % 1.62 C
3175 12-02-2019 00:30:00 3.1 C 90 % 1.62 C
Sensor: Nr:Datum:Temp:Feuchte:Taupunkt:
Aussen-T/F 3176 12-02-2019 00:35:00 3.2 C 90 % 1.72 C
3177 12-02-2019 00:40:00 3.3 C 90 % 1.82 C
3178 12-02-2019 00:45:00 3.3 C 89 % 1.67 C
3179 12-02-2019 00:50:00 3.2 C 89 % 1.57 C
3180 12-02-2019 00:55:00 3.2 C 89 % 1.57 C
3181 12-02-2019 01:00:00 3.2 C 89 % 1.57 C
3182 12-02-2019 01:05:00 3.2 C 89 % 1.57 C
3183 12-02-2019 01:10:00 3.2 C 90 % 1.72 C
3184 12-02-2019 01:15:00 3.1 C 90 % 1.62 C
3185 12-02-2019 01:20:00 3.1 C 90 % 1.62 C
3186 12-02-2019 01:25:00 3.1 C 90 % 1.62 C
3187 12-02-2019 01:30:00 3.1 C 90 % 1.62 C
3188 12-02-2019 01:35:00 3.1 C 90 % 1.62 C
3189 12-02-2019 01:40:00 3 C 90 % 1.52 C
3190 12-02-2019 01:45:00 2.9 C 90 % 1.43 C
3191 12-02-2019 01:50:00 2.9 C 90 % 1.43 C
3192 12-02-2019 01:55:00 2.8 C 90 % 1.33 C
3193 12-02-2019 02:00:00 2.8 C 90 % 1.33 C
3194 12-02-2019 02:05:00 2.7 C 90 % 1.23 C
3195 12-02-2019 02:10:00 2.7 C 91 % 1.38 C
3196 12-02-2019 02:15:00 2.8 C 91 % 1.48 C
3197 12-02-2019 02:20:00 2.8 C 91 % 1.48 C
3198 12-02-2019 02:25:00 2.8 C 91 % 1.48 C
3199 12-02-2019 02:30:00 2.8 C 91 % 1.48 C
3200 12-02-2019 02:35:00 2.8 C 91 % 1.48 C
Sensor: Nr:Datum:Temp:Feuchte:Taupunkt:
Aussen-T/F 3201 12-02-2019 02:40:00 2.9 C 91 % 1.58 C
3202 12-02-2019 02:45:00 2.9 C 91 % 1.58 C
3203 12-02-2019 02:50:00 2.8 C 91 % 1.48 C
3204 12-02-2019 02:55:00 2.8 C 91 % 1.48 C
3205 12-02-2019 03:00:00 2.8 C 91 % 1.48 C
3206 12-02-2019 03:05:00 2.8 C 91 % 1.48 C
3207 12-02-2019 03:10:00 2.8 C 91 % 1.48 C
3208 12-02-2019 03:15:00 2.8 C 91 % 1.48 C
3209 12-02-2019 03:20:00 2.8 C 91 % 1.48 C
3210 12-02-2019 03:25:00 2.7 C 91 % 1.38 C
3211 12-02-2019 03:30:00 2.7 C 90 % 1.23 C
3212 12-02-2019 03:35:00 2.6 C 90 % 1.13 C
3213 12-02-2019 03:40:00 2.5 C 90 % 1.03 C
3214 12-02-2019 03:45:00 2.4 C 91 % 1.08 C
3215 12-02-2019 03:50:00 2.4 C 91 % 1.08 C
3216 12-02-2019 03:55:00 2.3 C 91 % 0.99 C
3217 12-02-2019 04:00:00 2.3 C 91 % 0.99 C
3218 12-02-2019 04:05:00 2.3 C 91 % 0.99 C
3219 12-02-2019 04:10:00 2.3 C 91 % 0.99 C
3220 12-02-2019 04:15:00 2.3 C 92 % 1.14 C
3221 12-02-2019 04:20:00 2.4 C 92 % 1.24 C
3222 12-02-2019 04:25:00 2.4 C 92 % 1.24 C
3223 12-02-2019 04:30:00 2.5 C 92 % 1.34 C
3224 12-02-2019 04:35:00 2.6 C 91 % 1.28 C
3225 12-02-2019 04:40:00 2.6 C 91 % 1.28 C
Sensor: Nr:Datum:Temp:Feuchte:Taupunkt:
Aussen-T/F 3226 12-02-2019 04:45:00 2.7 C 91 % 1.38 C
3227 12-02-2019 04:50:00 2.7 C 91 % 1.38 C
3228 12-02-2019 04:55:00 2.7 C 91 % 1.38 C
3229 12-02-2019 05:00:00 2.7 C 91 % 1.38 C
3230 12-02-2019 05:05:00 2.7 C 91 % 1.38 C
3231 12-02-2019 05:10:00 2.7 C 90 % 1.23 C
3232 12-02-2019 05:15:00 2.7 C 90 % 1.23 C
3233 12-02-2019 05:20:00 2.6 C 90 % 1.13 C
3234 12-02-2019 05:25:00 2.6 C 90 % 1.13 C
3235 12-02-2019 05:30:00 2.6 C 90 % 1.13 C
3236 12-02-2019 05:35:00 2.6 C 91 % 1.28 C
3237 12-02-2019 05:40:00 2.6 C 91 % 1.28 C
3238 12-02-2019 05:45:00 2.6 C 91 % 1.28 C
3239 12-02-2019 05:50:00 2.6 C 91 % 1.28 C
3240 12-02-2019 05:55:00 2.6 C 90 % 1.13 C
3241 12-02-2019 06:00:00 2.6 C 90 % 1.13 C
3242 12-02-2019 06:05:00 2.5 C 90 % 1.03 C
3243 12-02-2019 06:10:00 2.5 C 90 % 1.03 C
3244 12-02-2019 06:15:00 2.5 C 90 % 1.03 C
3245 12-02-2019 06:20:00 2.5 C 90 % 1.03 C
3246 12-02-2019 06:25:00 2.4 C 90 % 0.93 C
3247 12-02-2019 06:30:00 2.3 C 90 % 0.83 C
3248 12-02-2019 06:35:00 2.3 C 90 % 0.83 C
3249 12-02-2019 06:40:00 2.3 C 90 % 0.83 C
3250 12-02-2019 06:45:00 2.3 C 90 % 0.83 C
Sensor: Nr:Datum:Temp:Feuchte:Taupunkt:
Aussen-T/F 3251 12-02-2019 06:50:00 2.3 C 90 % 0.83 C
3252 12-02-2019 06:55:00 2.3 C 91 % 0.99 C
3253 12-02-2019 07:00:00 2.4 C 90 % 0.93 C
3254 12-02-2019 07:05:00 2.4 C 90 % 0.93 C
3255 12-02-2019 07:10:00 2.5 C 90 % 1.03 C
3256 12-02-2019 07:15:00 2.5 C 90 % 1.03 C
3257 12-02-2019 07:20:00 2.5 C 90 % 1.03 C
3258 12-02-2019 07:25:00 2.4 C 90 % 0.93 C
3259 12-02-2019 07:30:00 2.4 C 90 % 0.93 C
3260 12-02-2019 07:35:00 2.4 C 90 % 0.93 C
3261 12-02-2019 07:40:00 2.4 C 90 % 0.93 C
3262 12-02-2019 07:45:00 2.4 C 90 % 0.93 C
3263 12-02-2019 07:50:00 2.4 C 90 % 0.93 C
3264 12-02-2019 07:55:00 2.3 C 90 % 0.83 C
3265 12-02-2019 08:00:00 2.3 C 90 % 0.83 C
3266 12-02-2019 08:05:00 2.3 C 90 % 0.83 C
3267 12-02-2019 08:10:00 2.3 C 90 % 0.83 C
3268 12-02-2019 08:15:00 2.3 C 90 % 0.83 C
3269 12-02-2019 08:20:00 2.3 C 90 % 0.83 C
3270 12-02-2019 08:25:00 2.2 C 90 % 0.73 C
3271 12-02-2019 08:30:00 2.2 C 90 % 0.73 C
3272 12-02-2019 08:35:00 2.2 C 90 % 0.73 C
3273 12-02-2019 08:40:00 2.2 C 90 % 0.73 C
3274 12-02-2019 08:45:00 2.3 C 90 % 0.83 C
3275 12-02-2019 08:50:00 2.3 C 90 % 0.83 C
Sensor: Nr:Datum:Temp:Feuchte:Taupunkt:
Aussen-T/F 3276 12-02-2019 08:55:00 2.4 C 90 % 0.93 C
3277 12-02-2019 09:00:00 2.5 C 90 % 1.03 C
3278 12-02-2019 09:05:00 2.6 C 90 % 1.13 C
3279 12-02-2019 09:10:00 2.7 C 89 % 1.07 C
3280 12-02-2019 09:15:00 2.8 C 89 % 1.17 C
3281 12-02-2019 09:20:00 2.8 C 89 % 1.17 C
3282 12-02-2019 09:25:00 2.9 C 89 % 1.27 C
3283 12-02-2019 09:30:00 3 C 89 % 1.37 C
3284 12-02-2019 09:35:00 3.1 C 88 % 1.31 C
3285 12-02-2019 09:40:00 3.2 C 88 % 1.41 C
3286 12-02-2019 09:45:00 3.3 C 88 % 1.51 C
3287 12-02-2019 09:50:00 3.4 C 88 % 1.61 C
3288 12-02-2019 09:55:00 3.5 C 88 % 1.7 C
3289 12-02-2019 10:00:00 3.6 C 88 % 1.8 C
3290 12-02-2019 10:05:00 3.7 C 87 % 1.74 C
3291 12-02-2019 10:10:00 3.7 C 87 % 1.74 C
3292 12-02-2019 10:15:00 3.8 C 87 % 1.84 C
3293 12-02-2019 10:20:00 3.8 C 87 % 1.84 C
3294 12-02-2019 10:25:00 3.9 C 86 % 1.78 C
3295 12-02-2019 10:30:00 4 C 86 % 1.88 C
3296 12-02-2019 10:35:00 4.1 C 86 % 1.97 C
3297 12-02-2019 10:40:00 4.2 C 86 % 2.07 C
3298 12-02-2019 10:45:00 4.2 C 85 % 1.91 C
3299 12-02-2019 10:50:00 4.2 C 85 % 1.91 C
3300 12-02-2019 10:55:00 4.3 C 86 % 2.17 C
Sensor: Nr:Datum:Temp:Feuchte:Taupunkt:
Aussen-T/F 3301 12-02-2019 11:00:00 4.3 C 85 % 2.01 C
3302 12-02-2019 11:05:00 4.4 C 85 % 2.11 C
3303 12-02-2019 11:10:00 4.4 C 85 % 2.11 C
3304 12-02-2019 11:15:00 4.5 C 84 % 2.04 C
3305 12-02-2019 11:20:00 4.6 C 84 % 2.14 C
3306 12-02-2019 11:25:00 4.6 C 84 % 2.14 C
3307 12-02-2019 11:30:00 4.7 C 84 % 2.23 C
3308 12-02-2019 11:35:00 4.7 C 84 % 2.23 C
3309 12-02-2019 11:40:00 4.8 C 84 % 2.33 C
3310 12-02-2019 11:45:00 4.9 C 84 % 2.43 C
3311 12-02-2019 11:50:00 5 C 83 % 2.36 C
3312 12-02-2019 11:55:00 5 C 83 % 2.36 C
3313 12-02-2019 12:00:00 5.1 C 83 % 2.46 C
3314 12-02-2019 12:05:00 5.1 C 83 % 2.46 C
3315 12-02-2019 12:10:00 5.2 C 83 % 2.56 C
3316 12-02-2019 12:15:00 5.3 C 83 % 2.65 C
3317 12-02-2019 12:20:00 5.3 C 82 % 2.48 C
3318 12-02-2019 12:25:00 5.4 C 82 % 2.58 C
3319 12-02-2019 12:30:00 5.4 C 82 % 2.58 C
3320 12-02-2019 12:35:00 5.5 C 83 % 2.85 C
3321 12-02-2019 12:40:00 5.6 C 83 % 2.95 C
3322 12-02-2019 12:45:00 5.7 C 81 % 2.7 C
3323 12-02-2019 12:50:00 5.8 C 81 % 2.8 C
3324 12-02-2019 12:55:00 5.9 C 81 % 2.9 C
3325 12-02-2019 13:00:00 6 C 81 % 2.99 C
Sensor: Nr:Datum:Temp:Feuchte:Taupunkt:
Aussen-T/F 3326 12-02-2019 13:05:00 6.1 C 81 % 3.09 C
3327 12-02-2019 13:10:00 6.2 C 80 % 3.01 C
3328 12-02-2019 13:15:00 6.2 C 80 % 3.01 C
3329 12-02-2019 13:20:00 6.2 C 79 % 2.84 C
3330 12-02-2019 13:25:00 6.3 C 80 % 3.11 C
3331 12-02-2019 13:30:00 6.3 C 80 % 3.11 C
3332 12-02-2019 13:35:00 6.4 C 80 % 3.21 C
3333 12-02-2019 13:40:00 6.4 C 78 % 2.85 C
3334 12-02-2019 13:45:00 6.5 C 78 % 2.95 C
3335 12-02-2019 13:50:00 6.5 C 78 % 2.95 C
3336 12-02-2019 13:55:00 6.6 C 78 % 3.05 C
3337 12-02-2019 14:00:00 6.7 C 78 % 3.14 C
3338 12-02-2019 14:05:00 6.7 C 78 % 3.14 C
3339 12-02-2019 14:10:00 6.8 C 78 % 3.24 C
3340 12-02-2019 14:15:00 6.9 C 77 % 3.16 C
3341 12-02-2019 14:20:00 6.9 C 76 % 2.97 C
3342 12-02-2019 14:25:00 6.9 C 76 % 2.97 C
3343 12-02-2019 14:30:00 6.9 C 76 % 2.97 C
3344 12-02-2019 14:35:00 6.9 C 76 % 2.97 C
3345 12-02-2019 14:40:00 7 C 76 % 3.07 C
3346 12-02-2019 14:45:00 6.9 C 77 % 3.16 C
3347 12-02-2019 14:50:00 6.9 C 76 % 2.97 C
3348 12-02-2019 14:55:00 7 C 77 % 3.25 C
3349 12-02-2019 15:00:00 6.9 C 76 % 2.97 C
3350 12-02-2019 15:05:00 6.9 C 75 % 2.78 C
Sensor: Nr:Datum:Temp:Feuchte:Taupunkt:
Aussen-T/F 3351 12-02-2019 15:10:00 7 C 75 % 2.88 C
3352 12-02-2019 15:15:00 7 C 76 % 3.07 C
3353 12-02-2019 15:20:00 7.1 C 76 % 3.16 C
3354 12-02-2019 15:25:00 7.1 C 76 % 3.16 C
3355 12-02-2019 15:30:00 7.1 C 76 % 3.16 C
3356 12-02-2019 15:35:00 7.1 C 75 % 2.98 C
3357 12-02-2019 15:40:00 7.1 C 76 % 3.16 C
3358 12-02-2019 15:45:00 7.1 C 76 % 3.16 C
3359 12-02-2019 15:50:00 7.1 C 76 % 3.16 C
3360 12-02-2019 15:55:00 7.1 C 76 % 3.16 C
3361 12-02-2019 16:00:00 7.2 C 77 % 3.45 C
3362 12-02-2019 16:05:00 7.3 C 76 % 3.36 C
3363 12-02-2019 16:10:00 7.4 C 76 % 3.45 C
3364 12-02-2019 16:15:00 7.5 C 75 % 3.36 C
3365 12-02-2019 16:20:00 7.6 C 75 % 3.46 C
3366 12-02-2019 16:25:00 7.5 C 74 % 3.17 C
3367 12-02-2019 16:30:00 7.5 C 75 % 3.36 C
3368 12-02-2019 16:35:00 7.5 C 74 % 3.17 C
3369 12-02-2019 16:40:00 7.5 C 73 % 2.98 C
3370 12-02-2019 16:45:00 7.4 C 74 % 3.08 C
3371 12-02-2019 16:50:00 7.4 C 75 % 3.27 C
3372 12-02-2019 16:55:00 7.3 C 74 % 2.98 C
3373 12-02-2019 17:00:00 7.2 C 75 % 3.07 C
3374 12-02-2019 17:05:00 7.1 C 75 % 2.98 C
3375 12-02-2019 17:10:00 7 C 76 % 3.07 C
Sensor: Nr:Datum:Temp:Feuchte:Taupunkt:
Aussen-T/F 3376 12-02-2019 17:15:00 6.9 C 75 % 2.78 C
3377 12-02-2019 17:20:00 6.8 C 76 % 2.87 C
3378 12-02-2019 17:25:00 6.8 C 77 % 3.06 C
3379 12-02-2019 17:30:00 6.7 C 77 % 2.96 C
3380 12-02-2019 17:35:00 6.4 C 78 % 2.85 C
3381 12-02-2019 17:40:00 6.3 C 79 % 2.93 C
3382 12-02-2019 17:45:00 6.1 C 79 % 2.74 C
3383 12-02-2019 17:50:00 5.8 C 80 % 2.62 C
3384 12-02-2019 17:55:00 5.6 C 81 % 2.6 C
3385 12-02-2019 18:00:00 5.3 C 81 % 2.31 C
3386 12-02-2019 18:05:00 5.1 C 82 % 2.29 C
3387 12-02-2019 18:10:00 4.9 C 83 % 2.26 C
3388 12-02-2019 18:15:00 4.7 C 84 % 2.23 C
3389 12-02-2019 18:20:00 4.6 C 84 % 2.14 C
3390 12-02-2019 18:25:00 4.4 C 85 % 2.11 C
3391 12-02-2019 18:30:00 4.2 C 85 % 1.91 C
3392 12-02-2019 18:35:00 4.1 C 86 % 1.97 C
3393 12-02-2019 18:40:00 3.9 C 86 % 1.78 C
3394 12-02-2019 18:45:00 3.8 C 86 % 1.68 C
3395 12-02-2019 18:50:00 3.7 C 87 % 1.74 C
3396 12-02-2019 18:55:00 3.6 C 87 % 1.64 C
3397 12-02-2019 19:00:00 3.5 C 87 % 1.55 C
3398 12-02-2019 19:05:00 3.4 C 87 % 1.45 C
3399 12-02-2019 19:10:00 3.3 C 88 % 1.51 C
3400 12-02-2019 19:15:00 3.2 C 88 % 1.41 C
Sensor: Nr:Datum:Temp:Feuchte:Taupunkt:
Aussen-T/F 3401 12-02-2019 19:20:00 3.1 C 88 % 1.31 C
3402 12-02-2019 19:25:00 3.1 C 89 % 1.47 C
3403 12-02-2019 19:30:00 2.9 C 89 % 1.27 C
3404 12-02-2019 19:35:00 2.9 C 89 % 1.27 C
3405 12-02-2019 19:40:00 2.8 C 89 % 1.17 C
3406 12-02-2019 19:45:00 2.8 C 89 % 1.17 C
3407 12-02-2019 19:50:00 2.7 C 89 % 1.07 C
3408 12-02-2019 19:55:00 2.6 C 89 % 0.97 C
3409 12-02-2019 20:00:00 2.6 C 90 % 1.13 C
3410 12-02-2019 20:05:00 2.5 C 90 % 1.03 C
3411 12-02-2019 20:10:00 2.4 C 90 % 0.93 C
3412 12-02-2019 20:15:00 2.4 C 90 % 0.93 C
3413 12-02-2019 20:20:00 2.4 C 90 % 0.93 C
3414 12-02-2019 20:25:00 2.4 C 90 % 0.93 C
3415 12-02-2019 20:30:00 2.3 C 90 % 0.83 C
3416 12-02-2019 20:35:00 2.3 C 90 % 0.83 C
3417 12-02-2019 20:40:00 2.3 C 91 % 0.99 C
3418 12-02-2019 20:45:00 2.2 C 91 % 0.89 C
3419 12-02-2019 20:50:00 2.1 C 91 % 0.79 C
3420 12-02-2019 20:55:00 2.1 C 91 % 0.79 C
3421 12-02-2019 21:00:00 1.9 C 90 % 0.44 C
3422 12-02-2019 21:05:00 1.8 C 91 % 0.49 C
3423 12-02-2019 21:10:00 1.8 C 91 % 0.49 C
3424 12-02-2019 21:15:00 1.7 C 91 % 0.39 C
3425 12-02-2019 21:20:00 1.6 C 91 % 0.29 C
Sensor: Nr:Datum:Temp:Feuchte:Taupunkt:
Aussen-T/F 3426 12-02-2019 21:25:00 1.6 C 92 % 0.44 C
3427 12-02-2019 21:30:00 1.6 C 92 % 0.44 C
3428 12-02-2019 21:35:00 1.5 C 92 % 0.35 C
3429 12-02-2019 21:40:00 1.4 C 92 % 0.25 C
3430 12-02-2019 21:45:00 1.4 C 92 % 0.25 C
3431 12-02-2019 21:50:00 1.4 C 92 % 0.25 C
3432 12-02-2019 21:55:00 1.4 C 92 % 0.25 C
3433 12-02-2019 22:00:00 1.3 C 92 % 0.15 C
3434 12-02-2019 22:05:00 1.3 C 92 % 0.15 C
3435 12-02-2019 22:10:00 1.3 C 93 % 0.3 C
3436 12-02-2019 22:15:00 1.3 C 93 % 0.3 C
3437 12-02-2019 22:20:00 1.4 C 93 % 0.4 C
3438 12-02-2019 22:25:00 1.5 C 93 % 0.49 C
3439 12-02-2019 22:30:00 1.5 C 93 % 0.49 C
3440 12-02-2019 22:35:00 1.5 C 93 % 0.49 C
3441 12-02-2019 22:40:00 1.6 C 93 % 0.59 C
3442 12-02-2019 22:45:00 1.5 C 93 % 0.49 C
3443 12-02-2019 22:50:00 1.4 C 93 % 0.4 C
3444 12-02-2019 22:55:00 1.4 C 93 % 0.4 C
3445 12-02-2019 23:00:00 1.4 C 93 % 0.4 C
3446 12-02-2019 23:05:00 1.4 C 93 % 0.4 C
3447 12-02-2019 23:10:00 1.4 C 93 % 0.4 C
3448 12-02-2019 23:15:00 1.3 C 93 % 0.3 C
3449 12-02-2019 23:20:00 1.3 C 93 % 0.3 C
3450 12-02-2019 23:25:00 1.3 C 93 % 0.3 C
Sensor: Nr:Datum:Temp:Feuchte:Taupunkt:
Aussen-T/F 3451 12-02-2019 23:30:00 1.3 C 93 % 0.3 C
3452 12-02-2019 23:35:00 1.3 C 93 % 0.3 C
3453 12-02-2019 23:40:00 1.4 C 94 % 0.54 C
3454 12-02-2019 23:45:00 1.5 C 94 % 0.64 C
3455 12-02-2019 23:50:00 1.5 C 94 % 0.64 C
3456 12-02-2019 23:55:00 1.4 C 93 % 0.4 C
3457 13-02-2019 00:00:00 1.4 C 93 % 0.4 C
3458 13-02-2019 00:05:00 1.4 C 93 % 0.4 C
3459 13-02-2019 00:10:00 1.3 C 93 % 0.3 C
3460 13-02-2019 00:15:00 1.3 C 93 % 0.3 C
3461 13-02-2019 00:20:00 1.3 C 93 % 0.3 C
3462 13-02-2019 00:25:00 1.2 C 93 % 0.2 C
3463 13-02-2019 00:30:00 1.2 C 93 % 0.2 C
3464 13-02-2019 00:35:00 1.2 C 93 % 0.2 C
3465 13-02-2019 00:40:00 1.2 C 93 % 0.2 C
3466 13-02-2019 00:45:00 1.2 C 93 % 0.2 C
3467 13-02-2019 00:50:00 1.2 C 93 % 0.2 C
3468 13-02-2019 00:55:00 1.1 C 93 % 0.1 C
3469 13-02-2019 01:00:00 0.9 C 93 % -0.1 C
3470 13-02-2019 01:05:00 1 C 94 % 0.15 C
3471 13-02-2019 01:10:00 0.9 C 93 % -0.1 C
3472 13-02-2019 01:15:00 0.9 C 93 % -0.1 C
3473 13-02-2019 01:20:00 0.8 C 93 % -0.2 C
3474 13-02-2019 01:25:00 0.8 C 93 % -0.2 C
3475 13-02-2019 01:30:00 0.8 C 93 % -0.2 C
Sensor: Nr:Datum:Temp:Feuchte:Taupunkt:
Aussen-T/F 3476 13-02-2019 01:35:00 0.9 C 94 % 0.05 C
3477 13-02-2019 01:40:00 1 C 94 % 0.15 C
3478 13-02-2019 01:45:00 0.9 C 93 % -0.1 C
3479 13-02-2019 01:50:00 0.8 C 93 % -0.2 C
3480 13-02-2019 01:55:00 0.6 C 93 % -0.4 C
3481 13-02-2019 02:00:00 0.5 C 93 % -0.5 C
3482 13-02-2019 02:05:00 0.3 C 93 % -0.7 C
3483 13-02-2019 02:10:00 0.2 C 93 % -0.79 C
3484 13-02-2019 02:15:00 0.2 C 93 % -0.79 C
3485 13-02-2019 02:20:00 0.1 C 93 % -0.89 C
3486 13-02-2019 02:25:00 0.1 C 93 % -0.89 C
3487 13-02-2019 02:30:00 0.1 C 93 % -0.89 C
3488 13-02-2019 02:35:00 0 C 94 % -0.85 C
3489 13-02-2019 02:40:00 0.1 C 94 % -0.75 C
3490 13-02-2019 02:45:00 0 C 94 % -0.85 C
3491 13-02-2019 02:50:00 0 C 94 % -0.85 C
3492 13-02-2019 02:55:00 -0.1 C 94 % -0.95 C
3493 13-02-2019 03:00:00 -0.2 C 94 % -1.05 C
3494 13-02-2019 03:05:00 -0.2 C 94 % -1.05 C
3495 13-02-2019 03:10:00 -0.3 C 94 % -1.15 C
3496 13-02-2019 03:15:00 -0.3 C 94 % -1.15 C
3497 13-02-2019 03:20:00 -0.3 C 94 % -1.15 C
3498 13-02-2019 03:25:00 -0.4 C 94 % -1.25 C
3499 13-02-2019 03:30:00 -0.4 C 94 % -1.25 C
3500 13-02-2019 03:35:00 -0.4 C 94 % -1.25 C
Sensor: Nr:Datum:Temp:Feuchte:Taupunkt:
Aussen-T/F 3501 13-02-2019 03:40:00 -0.4 C 94 % -1.25 C
3502 13-02-2019 03:45:00 -0.3 C 94 % -1.15 C
3503 13-02-2019 03:50:00 -0.3 C 94 % -1.15 C
3504 13-02-2019 03:55:00 -0.3 C 94 % -1.15 C
3505 13-02-2019 04:00:00 -0.3 C 94 % -1.15 C
3506 13-02-2019 04:05:00 -0.4 C 94 % -1.25 C
3507 13-02-2019 04:10:00 -0.4 C 94 % -1.25 C
3508 13-02-2019 04:15:00 -0.4 C 94 % -1.25 C
3509 13-02-2019 04:20:00 -0.4 C 95 % -1.1 C
3510 13-02-2019 04:25:00 -0.4 C 94 % -1.25 C
3511 13-02-2019 04:30:00 -0.3 C 95 % -1 C
3512 13-02-2019 04:35:00 -0.3 C 95 % -1 C
3513 13-02-2019 04:40:00 -0.3 C 95 % -1 C
3514 13-02-2019 04:45:00 -0.3 C 95 % -1 C
3515 13-02-2019 04:50:00 -0.2 C 95 % -0.9 C
3516 13-02-2019 04:55:00 -0.3 C 95 % -1 C
3517 13-02-2019 05:00:00 -0.3 C 95 % -1 C
3518 13-02-2019 05:05:00 -0.3 C 95 % -1 C
3519 13-02-2019 05:10:00 -0.3 C 95 % -1 C
3520 13-02-2019 05:15:00 -0.3 C 95 % -1 C
3521 13-02-2019 05:20:00 -0.4 C 95 % -1.1 C
3522 13-02-2019 05:25:00 -0.5 C 95 % -1.2 C
3523 13-02-2019 05:30:00 -0.5 C 95 % -1.2 C
3524 13-02-2019 05:35:00 -0.6 C 95 % -1.3 C
3525 13-02-2019 05:40:00 -0.6 C 95 % -1.3 C
Sensor: Nr:Datum:Temp:Feuchte:Taupunkt:
Aussen-T/F 3526 13-02-2019 05:45:00 -0.6 C 95 % -1.3 C
3527 13-02-2019 05:50:00 -0.6 C 95 % -1.3 C
3528 13-02-2019 05:55:00 -0.6 C 95 % -1.3 C
3529 13-02-2019 06:00:00 -0.6 C 95 % -1.3 C
3530 13-02-2019 06:05:00 -0.6 C 95 % -1.3 C
3531 13-02-2019 06:10:00 -0.5 C 95 % -1.2 C
3532 13-02-2019 06:15:00 -0.5 C 95 % -1.2 C
3533 13-02-2019 06:20:00 -0.6 C 95 % -1.3 C
3534 13-02-2019 06:25:00 -0.6 C 95 % -1.3 C
3535 13-02-2019 06:30:00 -0.5 C 95 % -1.2 C
3536 13-02-2019 06:35:00 -0.5 C 95 % -1.2 C
3537 13-02-2019 06:40:00 -0.4 C 95 % -1.1 C
3538 13-02-2019 06:45:00 -0.3 C 95 % -1 C
3539 13-02-2019 06:50:00 -0.2 C 96 % -0.76 C
3540 13-02-2019 06:55:00 -0.1 C 96 % -0.66 C
3541 13-02-2019 07:00:00 0 C 96 % -0.56 C
3542 13-02-2019 07:05:00 0.1 C 96 % -0.46 C
3543 13-02-2019 07:10:00 0.1 C 96 % -0.46 C
3544 13-02-2019 07:15:00 0.2 C 96 % -0.36 C
3545 13-02-2019 07:20:00 0.3 C 96 % -0.26 C
3546 13-02-2019 07:25:00 0.3 C 96 % -0.26 C
3547 13-02-2019 07:30:00 0.3 C 96 % -0.26 C
3548 13-02-2019 07:35:00 0.3 C 96 % -0.26 C
3549 13-02-2019 07:40:00 0.4 C 96 % -0.16 C
3550 13-02-2019 07:45:00 0.4 C 96 % -0.16 C
Sensor: Nr:Datum:Temp:Feuchte:Taupunkt:
Aussen-T/F 3551 13-02-2019 07:50:00 0.4 C 96 % -0.16 C
3552 13-02-2019 07:55:00 0.4 C 96 % -0.16 C
3553 13-02-2019 08:00:00 0.5 C 96 % -0.06 C
3554 13-02-2019 08:05:00 0.5 C 96 % -0.06 C
3555 13-02-2019 08:10:00 0.6 C 96 % 0.04 C
3556 13-02-2019 08:15:00 0.6 C 96 % 0.04 C
3557 13-02-2019 08:20:00 0.6 C 96 % 0.04 C
3558 13-02-2019 08:25:00 0.7 C 96 % 0.14 C
3559 13-02-2019 08:30:00 0.7 C 96 % 0.14 C
3560 13-02-2019 08:35:00 0.7 C 96 % 0.14 C
3561 13-02-2019 08:40:00 0.7 C 95 % -0.01 C
3562 13-02-2019 08:45:00 0.8 C 95 % 0.09 C
3563 13-02-2019 08:50:00 0.8 C 95 % 0.09 C
3564 13-02-2019 08:55:00 0.8 C 95 % 0.09 C
3565 13-02-2019 09:00:00 0.9 C 95 % 0.19 C
3566 13-02-2019 09:05:00 0.9 C 96 % 0.34 C
3567 13-02-2019 09:10:00 0.9 C 95 % 0.19 C
3568 13-02-2019 09:15:00 0.9 C 95 % 0.19 C
3569 13-02-2019 09:20:00 1 C 95 % 0.29 C
3570 13-02-2019 09:25:00 1 C 95 % 0.29 C
3571 13-02-2019 09:30:00 1 C 95 % 0.29 C
3572 13-02-2019 09:35:00 1 C 95 % 0.29 C
3573 13-02-2019 09:40:00 1.1 C 95 % 0.39 C
3574 13-02-2019 09:45:00 1.1 C 95 % 0.39 C
3575 13-02-2019 09:50:00 1.1 C 95 % 0.39 C
Sensor: Nr:Datum:Temp:Feuchte:Taupunkt:
Aussen-T/F 3576 13-02-2019 09:55:00 1.2 C 95 % 0.49 C
3577 13-02-2019 10:00:00 1.3 C 95 % 0.59 C
3578 13-02-2019 10:05:00 1.3 C 94 % 0.44 C
3579 13-02-2019 10:10:00 1.3 C 94 % 0.44 C
3580 13-02-2019 10:15:00 1.4 C 94 % 0.54 C
3581 13-02-2019 10:20:00 1.5 C 94 % 0.64 C
3582 13-02-2019 10:25:00 1.6 C 94 % 0.74 C
3583 13-02-2019 10:30:00 1.7 C 94 % 0.84 C
3584 13-02-2019 10:35:00 1.7 C 93 % 0.69 C
3585 13-02-2019 10:40:00 1.8 C 93 % 0.79 C
3586 13-02-2019 10:45:00 1.8 C 93 % 0.79 C
3587 13-02-2019 10:50:00 1.9 C 93 % 0.89 C
3588 13-02-2019 10:55:00 2 C 93 % 0.99 C
3589 13-02-2019 11:00:00 2.1 C 93 % 1.09 C
3590 13-02-2019 11:05:00 2.2 C 92 % 1.04 C
3591 13-02-2019 11:10:00 2.2 C 92 % 1.04 C
3592 13-02-2019 11:15:00 2.3 C 91 % 0.99 C
3593 13-02-2019 11:20:00 2.3 C 91 % 0.99 C
3594 13-02-2019 11:25:00 2.3 C 91 % 0.99 C
3595 13-02-2019 11:30:00 2.3 C 91 % 0.99 C
3596 13-02-2019 11:35:00 2.3 C 91 % 0.99 C
3597 13-02-2019 11:40:00 2.4 C 91 % 1.08 C
3598 13-02-2019 11:45:00 2.4 C 91 % 1.08 C
3599 13-02-2019 11:50:00 2.5 C 91 % 1.18 C
3600 13-02-2019 11:55:00 2.6 C 91 % 1.28 C
Sensor: Nr:Datum:Temp:Feuchte:Taupunkt:
Aussen-T/F 3601 13-02-2019 12:00:00 2.7 C 91 % 1.38 C
3602 13-02-2019 12:05:00 2.8 C 91 % 1.48 C
3603 13-02-2019 12:10:00 2.9 C 91 % 1.58 C
3604 13-02-2019 12:15:00 3.1 C 91 % 1.78 C
3605 13-02-2019 12:20:00 3.3 C 91 % 1.98 C
3606 13-02-2019 12:25:00 3.5 C 90 % 2.02 C
3607 13-02-2019 12:30:00 3.7 C 90 % 2.22 C
3608 13-02-2019 12:35:00 3.9 C 89 % 2.26 C
3609 13-02-2019 12:40:00 4.1 C 88 % 2.3 C
3610 13-02-2019 12:45:00 4.3 C 87 % 2.33 C
3611 13-02-2019 12:50:00 4.3 C 86 % 2.17 C
3612 13-02-2019 12:55:00 4.4 C 86 % 2.27 C
3613 13-02-2019 13:00:00 4.6 C 86 % 2.47 C
3614 13-02-2019 13:05:00 4.6 C 85 % 2.3 C
3615 13-02-2019 13:10:00 4.7 C 86 % 2.56 C
3616 13-02-2019 13:15:00 4.8 C 85 % 2.5 C
3617 13-02-2019 13:20:00 4.8 C 85 % 2.5 C
3618 13-02-2019 13:25:00 4.9 C 85 % 2.6 C
3619 13-02-2019 13:30:00 4.9 C 84 % 2.43 C
3620 13-02-2019 13:35:00 4.9 C 84 % 2.43 C
3621 13-02-2019 13:40:00 5 C 84 % 2.53 C
3622 13-02-2019 13:45:00 5.1 C 84 % 2.63 C
3623 13-02-2019 13:50:00 5.2 C 84 % 2.72 C
3624 13-02-2019 13:55:00 5.2 C 84 % 2.72 C
3625 13-02-2019 14:00:00 5.2 C 83 % 2.56 C
Sensor: Nr:Datum:Temp:Feuchte:Taupunkt:
Aussen-T/F 3626 13-02-2019 14:05:00 5.3 C 84 % 2.82 C
3627 13-02-2019 14:10:00 5.3 C 83 % 2.65 C
3628 13-02-2019 14:15:00 5.4 C 83 % 2.75 C
3629 13-02-2019 14:20:00 5.4 C 83 % 2.75 C
3630 13-02-2019 14:25:00 5.4 C 83 % 2.75 C
3631 13-02-2019 14:30:00 5.5 C 83 % 2.85 C
3632 13-02-2019 14:35:00 5.5 C 83 % 2.85 C
3633 13-02-2019 14:40:00 5.5 C 83 % 2.85 C
3634 13-02-2019 14:45:00 5.5 C 83 % 2.85 C
3635 13-02-2019 14:50:00 5.5 C 83 % 2.85 C
3636 13-02-2019 14:55:00 5.5 C 83 % 2.85 C
3637 13-02-2019 15:00:00 5.5 C 83 % 2.85 C
3638 13-02-2019 15:05:00 5.5 C 83 % 2.85 C
3639 13-02-2019 15:10:00 5.5 C 83 % 2.85 C
3640 13-02-2019 15:15:00 5.5 C 83 % 2.85 C
3641 13-02-2019 15:20:00 5.5 C 83 % 2.85 C
3642 13-02-2019 15:25:00 5.6 C 83 % 2.95 C
3643 13-02-2019 15:30:00 5.6 C 83 % 2.95 C
3644 13-02-2019 15:35:00 5.6 C 83 % 2.95 C
3645 13-02-2019 15:40:00 5.7 C 83 % 3.04 C
3646 13-02-2019 15:45:00 5.7 C 83 % 3.04 C
3647 13-02-2019 15:50:00 5.7 C 84 % 3.21 C
3648 13-02-2019 15:55:00 5.8 C 84 % 3.31 C
3649 13-02-2019 16:00:00 5.8 C 84 % 3.31 C
3650 13-02-2019 16:05:00 5.8 C 84 % 3.31 C
Sensor: Nr:Datum:Temp:Feuchte:Taupunkt:
Aussen-T/F 3651 13-02-2019 16:10:00 5.7 C 84 % 3.21 C
3652 13-02-2019 16:15:00 5.7 C 85 % 3.38 C
3653 13-02-2019 16:20:00 5.6 C 85 % 3.28 C
3654 13-02-2019 16:25:00 5.6 C 85 % 3.28 C
3655 13-02-2019 16:30:00 5.5 C 86 % 3.35 C
3656 13-02-2019 16:35:00 5.4 C 86 % 3.25 C
3657 13-02-2019 16:40:00 5.4 C 87 % 3.41 C
3658 13-02-2019 16:45:00 5.4 C 87 % 3.41 C
3659 13-02-2019 16:50:00 5.3 C 88 % 3.48 C
3660 13-02-2019 16:55:00 5.3 C 88 % 3.48 C
3661 13-02-2019 17:00:00 5.3 C 88 % 3.48 C
3662 13-02-2019 17:05:00 5.2 C 88 % 3.38 C
3663 13-02-2019 17:10:00 5.2 C 88 % 3.38 C
3664 13-02-2019 17:15:00 5.1 C 88 % 3.28 C
3665 13-02-2019 17:20:00 4.9 C 88 % 3.08 C
3666 13-02-2019 17:25:00 4.8 C 88 % 2.99 C
3667 13-02-2019 17:30:00 4.7 C 88 % 2.89 C
3668 13-02-2019 17:35:00 4.5 C 89 % 2.85 C
3669 13-02-2019 17:40:00 4.3 C 89 % 2.65 C
3670 13-02-2019 17:45:00 4.2 C 89 % 2.55 C
3671 13-02-2019 17:50:00 4.1 C 90 % 2.61 C
3672 13-02-2019 17:55:00 4 C 89 % 2.36 C
3673 13-02-2019 18:00:00 3.8 C 90 % 2.31 C
3674 13-02-2019 18:05:00 3.7 C 90 % 2.22 C
3675 13-02-2019 18:10:00 3.6 C 90 % 2.12 C
Sensor: Nr:Datum:Temp:Feuchte:Taupunkt:
Aussen-T/F 3676 13-02-2019 18:15:00 3.4 C 90 % 1.92 C
3677 13-02-2019 18:20:00 3.3 C 90 % 1.82 C
3678 13-02-2019 18:25:00 3.3 C 91 % 1.98 C
3679 13-02-2019 18:30:00 3.2 C 91 % 1.88 C
3680 13-02-2019 18:35:00 3.1 C 91 % 1.78 C
3681 13-02-2019 18:40:00 2.9 C 90 % 1.43 C
3682 13-02-2019 18:45:00 2.8 C 91 % 1.48 C
3683 13-02-2019 18:50:00 2.7 C 91 % 1.38 C
3684 13-02-2019 18:55:00 2.7 C 91 % 1.38 C
3685 13-02-2019 19:00:00 2.6 C 91 % 1.28 C
3686 13-02-2019 19:05:00 2.4 C 91 % 1.08 C
3687 13-02-2019 19:10:00 2.3 C 91 % 0.99 C
3688 13-02-2019 19:15:00 2.1 C 91 % 0.79 C
3689 13-02-2019 19:20:00 1.9 C 91 % 0.59 C
3690 13-02-2019 19:25:00 1.7 C 91 % 0.39 C
3691 13-02-2019 19:30:00 1.6 C 92 % 0.44 C
3692 13-02-2019 19:35:00 1.6 C 92 % 0.44 C
3693 13-02-2019 19:40:00 1.6 C 93 % 0.59 C
3694 13-02-2019 19:45:00 1.6 C 93 % 0.59 C
3695 13-02-2019 19:50:00 1.4 C 92 % 0.25 C
3696 13-02-2019 19:55:00 1.4 C 92 % 0.25 C
3697 13-02-2019 20:00:00 1.4 C 93 % 0.4 C
3698 13-02-2019 20:05:00 1.3 C 93 % 0.3 C
3699 13-02-2019 20:10:00 1.3 C 93 % 0.3 C
3700 13-02-2019 20:15:00 1.3 C 93 % 0.3 C
Sensor: Nr:Datum:Temp:Feuchte:Taupunkt:
Aussen-T/F 3701 13-02-2019 20:20:00 1.2 C 93 % 0.2 C
3702 13-02-2019 20:25:00 1.2 C 93 % 0.2 C
3703 13-02-2019 20:30:00 1.2 C 93 % 0.2 C
3704 13-02-2019 20:35:00 1.1 C 93 % 0.1 C
3705 13-02-2019 20:40:00 1.1 C 93 % 0.1 C
3706 13-02-2019 20:45:00 1 C 93 % 0 C
3707 13-02-2019 20:50:00 0.9 C 93 % -0.1 C
3708 13-02-2019 20:55:00 0.8 C 92 % -0.35 C
3709 13-02-2019 21:00:00 0.8 C 93 % -0.2 C
3710 13-02-2019 21:05:00 0.7 C 93 % -0.3 C
3711 13-02-2019 21:10:00 0.8 C 93 % -0.2 C
3712 13-02-2019 21:15:00 0.9 C 93 % -0.1 C
3713 13-02-2019 21:20:00 0.8 C 92 % -0.35 C
3714 13-02-2019 21:25:00 0.7 C 92 % -0.45 C
3715 13-02-2019 21:30:00 0.5 C 92 % -0.65 C
3716 13-02-2019 21:35:00 0.4 C 92 % -0.74 C
3717 13-02-2019 21:40:00 0.4 C 92 % -0.74 C
3718 13-02-2019 21:45:00 0.3 C 92 % -0.84 C
3719 13-02-2019 21:50:00 0.2 C 92 % -0.94 C
3720 13-02-2019 21:55:00 0.2 C 92 % -0.94 C
3721 13-02-2019 22:00:00 0.2 C 93 % -0.79 C
3722 13-02-2019 22:05:00 0.2 C 93 % -0.79 C
3723 13-02-2019 22:10:00 0.2 C 93 % -0.79 C
3724 13-02-2019 22:15:00 0.1 C 93 % -0.89 C
3725 13-02-2019 22:20:00 0.2 C 93 % -0.79 C
Sensor: Nr:Datum:Temp:Feuchte:Taupunkt:
Aussen-T/F 3726 13-02-2019 22:25:00 0.2 C 93 % -0.79 C
3727 13-02-2019 22:30:00 0.3 C 93 % -0.7 C
3728 13-02-2019 22:35:00 0.2 C 93 % -0.79 C
3729 13-02-2019 22:40:00 0.1 C 93 % -0.89 C
3730 13-02-2019 22:45:00 0 C 93 % -0.99 C
3731 13-02-2019 22:50:00 -0.1 C 93 % -1.09 C
3732 13-02-2019 22:55:00 -0.1 C 93 % -1.09 C
3733 13-02-2019 23:00:00 -0.1 C 93 % -1.09 C
3734 13-02-2019 23:05:00 -0.2 C 93 % -1.19 C
3735 13-02-2019 23:10:00 -0.3 C 93 % -1.29 C
3736 13-02-2019 23:15:00 -0.3 C 93 % -1.29 C
3737 13-02-2019 23:20:00 -0.3 C 93 % -1.29 C
3738 13-02-2019 23:25:00 -0.4 C 93 % -1.39 C
3739 13-02-2019 23:30:00 -0.6 C 93 % -1.59 C
3740 13-02-2019 23:35:00 -0.6 C 93 % -1.59 C
3741 13-02-2019 23:40:00 -0.6 C 93 % -1.59 C
3742 13-02-2019 23:45:00 -0.6 C 93 % -1.59 C
3743 13-02-2019 23:50:00 -0.7 C 93 % -1.69 C
3744 13-02-2019 23:55:00 -0.7 C 93 % -1.69 C
3745 14-02-2019 00:00:00 -0.7 C 93 % -1.69 C
3746 14-02-2019 00:05:00 -0.7 C 93 % -1.69 C
3747 14-02-2019 00:10:00 -0.7 C 93 % -1.69 C
3748 14-02-2019 00:15:00 -0.7 C 93 % -1.69 C
3749 14-02-2019 00:20:00 -0.7 C 94 % -1.54 C
3750 14-02-2019 00:25:00 -0.7 C 94 % -1.54 C
Sensor: Nr:Datum:Temp:Feuchte:Taupunkt:
Aussen-T/F 3751 14-02-2019 00:30:00 -0.6 C 94 % -1.44 C
3752 14-02-2019 00:35:00 -0.6 C 93 % -1.59 C
3753 14-02-2019 00:40:00 -0.7 C 93 % -1.69 C
3754 14-02-2019 00:45:00 -0.8 C 93 % -1.79 C
3755 14-02-2019 00:50:00 -0.8 C 93 % -1.79 C
3756 14-02-2019 00:55:00 -0.9 C 93 % -1.89 C
3757 14-02-2019 01:00:00 -1 C 93 % -1.99 C
3758 14-02-2019 01:05:00 -1 C 94 % -1.84 C
3759 14-02-2019 01:10:00 -1 C 94 % -1.84 C
3760 14-02-2019 01:15:00 -1 C 94 % -1.84 C
3761 14-02-2019 01:20:00 -1.1 C 94 % -1.94 C
3762 14-02-2019 01:25:00 -1.1 C 94 % -1.94 C
3763 14-02-2019 01:30:00 -1.1 C 94 % -1.94 C
3764 14-02-2019 01:35:00 -1.1 C 94 % -1.94 C
3765 14-02-2019 01:40:00 -1.1 C 94 % -1.94 C
3766 14-02-2019 01:45:00 -1.1 C 94 % -1.94 C
3767 14-02-2019 01:50:00 -1.1 C 94 % -1.94 C
3768 14-02-2019 01:55:00 -1 C 94 % -1.84 C
3769 14-02-2019 02:00:00 -1.1 C 94 % -1.94 C
3770 14-02-2019 02:05:00 -1.1 C 94 % -1.94 C
3771 14-02-2019 02:10:00 -1.2 C 94 % -2.04 C
3772 14-02-2019 02:15:00 -1.2 C 94 % -2.04 C
3773 14-02-2019 02:20:00 -1.2 C 94 % -2.04 C
3774 14-02-2019 02:25:00 -1.1 C 94 % -1.94 C
3775 14-02-2019 02:30:00 -1 C 95 % -1.7 C
Sensor: Nr:Datum:Temp:Feuchte:Taupunkt:
Aussen-T/F 3776 14-02-2019 02:35:00 -0.9 C 95 % -1.6 C
3777 14-02-2019 02:40:00 -0.9 C 95 % -1.6 C
3778 14-02-2019 02:45:00 -1 C 94 % -1.84 C
3779 14-02-2019 02:50:00 -1.2 C 94 % -2.04 C
3780 14-02-2019 02:55:00 -1.3 C 94 % -2.14 C
3781 14-02-2019 03:00:00 -1.3 C 94 % -2.14 C
3782 14-02-2019 03:05:00 -1.2 C 94 % -2.04 C
3783 14-02-2019 03:10:00 -1.3 C 94 % -2.14 C
3784 14-02-2019 03:15:00 -1.4 C 94 % -2.24 C
3785 14-02-2019 03:20:00 -1.5 C 94 % -2.34 C
3786 14-02-2019 03:25:00 -1.6 C 94 % -2.44 C
3787 14-02-2019 03:30:00 -1.6 C 94 % -2.44 C
3788 14-02-2019 03:35:00 -1.7 C 94 % -2.54 C
3789 14-02-2019 03:40:00 -1.6 C 95 % -2.29 C
3790 14-02-2019 03:45:00 -1.7 C 94 % -2.54 C
3791 14-02-2019 03:50:00 -1.7 C 94 % -2.54 C
3792 14-02-2019 03:55:00 -1.8 C 94 % -2.64 C
3793 14-02-2019 04:00:00 -1.8 C 94 % -2.64 C
3794 14-02-2019 04:05:00 -1.8 C 94 % -2.64 C
3795 14-02-2019 04:10:00 -1.8 C 95 % -2.49 C
3796 14-02-2019 04:15:00 -1.8 C 95 % -2.49 C
3797 14-02-2019 04:20:00 -1.8 C 95 % -2.49 C
3798 14-02-2019 04:25:00 -1.8 C 95 % -2.49 C
3799 14-02-2019 04:30:00 -1.8 C 95 % -2.49 C
3800 14-02-2019 04:35:00 -1.8 C 95 % -2.49 C
Sensor: Nr:Datum:Temp:Feuchte:Taupunkt:
Aussen-T/F 3801 14-02-2019 04:40:00 -1.7 C 95 % -2.39 C
3802 14-02-2019 04:45:00 -1.7 C 95 % -2.39 C
3803 14-02-2019 04:50:00 -1.7 C 95 % -2.39 C
3804 14-02-2019 04:55:00 -1.8 C 95 % -2.49 C
3805 14-02-2019 05:00:00 -1.9 C 95 % -2.59 C
3806 14-02-2019 05:05:00 -1.9 C 95 % -2.59 C
3807 14-02-2019 05:10:00 -1.9 C 95 % -2.59 C
3808 14-02-2019 05:15:00 -1.9 C 95 % -2.59 C
3809 14-02-2019 05:20:00 -2 C 95 % -2.69 C
3810 14-02-2019 05:25:00 -2.1 C 95 % -2.79 C
3811 14-02-2019 05:30:00 -2 C 95 % -2.69 C
3812 14-02-2019 05:35:00 -1.8 C 95 % -2.49 C
3813 14-02-2019 05:40:00 -1.8 C 95 % -2.49 C
3814 14-02-2019 05:45:00 -2 C 95 % -2.69 C
3815 14-02-2019 05:50:00 -2.1 C 95 % -2.79 C
3816 14-02-2019 05:55:00 -2.2 C 95 % -2.89 C
3817 14-02-2019 06:00:00 -2.3 C 95 % -2.99 C
3818 14-02-2019 06:05:00 -2.4 C 95 % -3.09 C
3819 14-02-2019 06:10:00 -2.4 C 95 % -3.09 C
3820 14-02-2019 06:15:00 -2.4 C 95 % -3.09 C
3821 14-02-2019 06:20:00 -2.6 C 95 % -3.29 C
3822 14-02-2019 06:25:00 -2.6 C 95 % -3.29 C
3823 14-02-2019 06:30:00 -2.4 C 95 % -3.09 C
3824 14-02-2019 06:35:00 -2.4 C 95 % -3.09 C
3825 14-02-2019 06:40:00 -2.4 C 95 % -3.09 C
Sensor: Nr:Datum:Temp:Feuchte:Taupunkt:
Aussen-T/F 3826 14-02-2019 06:45:00 -2.4 C 95 % -3.09 C
3827 14-02-2019 06:50:00 -2.5 C 95 % -3.19 C
3828 14-02-2019 06:55:00 -2.6 C 95 % -3.29 C
3829 14-02-2019 07:00:00 -2.7 C 95 % -3.39 C
3830 14-02-2019 07:05:00 -2.7 C 95 % -3.39 C
3831 14-02-2019 07:10:00 -2.7 C 95 % -3.39 C
3832 14-02-2019 07:15:00 -2.7 C 95 % -3.39 C
3833 14-02-2019 07:20:00 -2.7 C 95 % -3.39 C
3834 14-02-2019 07:25:00 -2.6 C 95 % -3.29 C
3835 14-02-2019 07:30:00 -2.6 C 95 % -3.29 C
3836 14-02-2019 07:35:00 -2.7 C 95 % -3.39 C
3837 14-02-2019 07:40:00 -2.6 C 95 % -3.29 C
3838 14-02-2019 07:45:00 -2.6 C 95 % -3.29 C
3839 14-02-2019 07:50:00 -2.6 C 96 % -3.15 C
3840 14-02-2019 07:55:00 -2.6 C 96 % -3.15 C
3841 14-02-2019 08:00:00 -2.6 C 95 % -3.29 C
3842 14-02-2019 08:05:00 -2.6 C 95 % -3.29 C
3843 14-02-2019 08:10:00 -2.6 C 95 % -3.29 C
3844 14-02-2019 08:15:00 -2.6 C 95 % -3.29 C
3845 14-02-2019 08:20:00 -2.6 C 95 % -3.29 C
3846 14-02-2019 08:25:00 -2.6 C 96 % -3.15 C
3847 14-02-2019 08:30:00 -2.4 C 96 % -2.95 C
3848 14-02-2019 08:35:00 -2.3 C 96 % -2.85 C
3849 14-02-2019 08:40:00 -2.3 C 96 % -2.85 C
3850 14-02-2019 08:45:00 -2.2 C 96 % -2.75 C
Sensor: Nr:Datum:Temp:Feuchte:Taupunkt:
Aussen-T/F 3851 14-02-2019 08:50:00 -2.2 C 96 % -2.75 C
3852 14-02-2019 08:55:00 -2.2 C 96 % -2.75 C
3853 14-02-2019 09:00:00 -2.1 C 96 % -2.65 C
3854 14-02-2019 09:05:00 -2.1 C 96 % -2.65 C
3855 14-02-2019 09:10:00 -2.1 C 96 % -2.65 C
3856 14-02-2019 09:15:00 -2.1 C 96 % -2.65 C
3857 14-02-2019 09:20:00 -2.1 C 96 % -2.65 C
3858 14-02-2019 09:25:00 -2.1 C 96 % -2.65 C
3859 14-02-2019 09:30:00 -2 C 96 % -2.55 C
3860 14-02-2019 09:35:00 -2.1 C 96 % -2.65 C
3861 14-02-2019 09:40:00 -2.1 C 96 % -2.65 C
3862 14-02-2019 09:45:00 -2 C 96 % -2.55 C
3863 14-02-2019 09:50:00 -2.1 C 96 % -2.65 C
3864 14-02-2019 09:55:00 -2.1 C 96 % -2.65 C
3865 14-02-2019 10:00:00 -2.1 C 96 % -2.65 C
3866 14-02-2019 10:05:00 -2.1 C 96 % -2.65 C
3867 14-02-2019 10:10:00 -2 C 96 % -2.55 C
3868 14-02-2019 10:15:00 -1.9 C 96 % -2.45 C
3869 14-02-2019 10:20:00 -1.8 C 96 % -2.35 C
3870 14-02-2019 10:25:00 -1.7 C 96 % -2.25 C
3871 14-02-2019 10:30:00 -1.6 C 96 % -2.15 C
3872 14-02-2019 10:35:00 -1.5 C 96 % -2.05 C
3873 14-02-2019 10:40:00 -1.4 C 96 % -1.95 C
3874 14-02-2019 10:45:00 -1.4 C 96 % -1.95 C
3875 14-02-2019 10:50:00 -1.4 C 96 % -1.95 C
Sensor: Nr:Datum:Temp:Feuchte:Taupunkt:
Aussen-T/F 3876 14-02-2019 10:55:00 -1.4 C 96 % -1.95 C
3877 14-02-2019 11:00:00 -1.3 C 96 % -1.85 C
3878 14-02-2019 11:05:00 -1.3 C 96 % -1.85 C
3879 14-02-2019 11:10:00 -1.2 C 96 % -1.75 C
3880 14-02-2019 11:15:00 -1.2 C 96 % -1.75 C
3881 14-02-2019 11:20:00 -1.1 C 96 % -1.66 C
3882 14-02-2019 11:25:00 -1.1 C 96 % -1.66 C
3883 14-02-2019 11:30:00 -0.9 C 97 % -1.32 C
3884 14-02-2019 11:35:00 -0.8 C 96 % -1.36 C
3885 14-02-2019 11:40:00 -0.7 C 97 % -1.12 C
3886 14-02-2019 11:45:00 -0.6 C 97 % -1.02 C
3887 14-02-2019 11:50:00 -0.4 C 97 % -0.82 C
3888 14-02-2019 11:55:00 -0.2 C 97 % -0.62 C
3889 14-02-2019 12:00:00 -0.1 C 97 % -0.52 C
3890 14-02-2019 12:05:00 0.1 C 97 % -0.32 C
3891 14-02-2019 12:10:00 0.1 C 97 % -0.32 C
3892 14-02-2019 12:15:00 0.2 C 97 % -0.22 C
3893 14-02-2019 12:20:00 0.3 C 97 % -0.12 C
3894 14-02-2019 12:25:00 0.4 C 97 % -0.02 C
3895 14-02-2019 12:30:00 0.6 C 97 % 0.18 C
3896 14-02-2019 12:35:00 0.8 C 97 % 0.38 C
3897 14-02-2019 12:40:00 1.1 C 97 % 0.68 C
3898 14-02-2019 12:45:00 1.3 C 97 % 0.88 C
3899 14-02-2019 12:50:00 1.6 C 97 % 1.18 C
3900 14-02-2019 12:55:00 1.7 C 97 % 1.28 C
Sensor: Nr:Datum:Temp:Feuchte:Taupunkt:
Aussen-T/F 3901 14-02-2019 13:00:00 1.8 C 97 % 1.38 C